<?xml version="1.0" encoding="UTF-8" standalone="no" ?>
<gpx xmlns="http://www.topografix.com/GPX/1/1" xmlns:xsi="http://www.w3.org/2001/XMLSchema-instance" xsi:schemaLocation="http://www.topografix.com/GPX/1/1 http://www.topografix.com/GPX/1/1/gpx.xsd" version="1.1" creator="VisuGPX - https://www.visugpx.com">
  <metadata>
    <name>Montagne de Mussan</name>
    <desc><![CDATA[Boucle au départ du Passage du Tour (Beauregard-Baret). Montée par le Pas de la Pierre, Crête de Mussan, retour par le Pas Pourceau, le Pré de Cinq Sous et Pierre Rousse.]]></desc>
  </metadata>
  <trk>
    <name><![CDATA[2022-10-23 15:20:05]]></name>
    <trkseg>
      <trkpt lat="44.99161" lon="5.19877">
        <ele>509.16</ele>
        <time>2022-10-23T06:56:21Z</time>
      </trkpt>
      <trkpt lat="44.9915" lon="5.1987">
        <ele>508.19</ele>
        <time>2022-10-23T06:56:47Z</time>
      </trkpt>
      <trkpt lat="44.99138" lon="5.19865">
        <ele>505.79</ele>
        <time>2022-10-23T06:57:04Z</time>
      </trkpt>
      <trkpt lat="44.99127" lon="5.19865">
        <ele>505.79</ele>
        <time>2022-10-23T06:57:19Z</time>
      </trkpt>
      <trkpt lat="44.99126" lon="5.19866">
        <ele>505.79</ele>
        <time>2022-10-23T06:57:22Z</time>
      </trkpt>
      <trkpt lat="44.99116" lon="5.19864">
        <ele>507.23</ele>
        <time>2022-10-23T06:57:34Z</time>
      </trkpt>
      <trkpt lat="44.99115" lon="5.19863">
        <ele>507.23</ele>
        <time>2022-10-23T06:57:35Z</time>
      </trkpt>
      <trkpt lat="44.99106" lon="5.19858">
        <ele>508.19</ele>
        <time>2022-10-23T06:57:47Z</time>
      </trkpt>
      <trkpt lat="44.99094" lon="5.19848">
        <ele>509.16</ele>
        <time>2022-10-23T06:58:01Z</time>
      </trkpt>
      <trkpt lat="44.99078" lon="5.19839">
        <ele>510.12</ele>
        <time>2022-10-23T06:58:16Z</time>
      </trkpt>
      <trkpt lat="44.99068" lon="5.19835">
        <ele>511.08</ele>
        <time>2022-10-23T06:58:28Z</time>
      </trkpt>
      <trkpt lat="44.99066" lon="5.19834">
        <ele>511.08</ele>
        <time>2022-10-23T06:58:30Z</time>
      </trkpt>
      <trkpt lat="44.99056" lon="5.19828">
        <ele>512.04</ele>
        <time>2022-10-23T06:58:42Z</time>
      </trkpt>
      <trkpt lat="44.99046" lon="5.19818">
        <ele>513</ele>
        <time>2022-10-23T06:58:55Z</time>
      </trkpt>
      <trkpt lat="44.99037" lon="5.19809">
        <ele>514.44</ele>
        <time>2022-10-23T06:59:07Z</time>
      </trkpt>
      <trkpt lat="44.99035" lon="5.19807">
        <ele>514.92</ele>
        <time>2022-10-23T06:59:09Z</time>
      </trkpt>
      <trkpt lat="44.99015" lon="5.19803">
        <ele>515.88</ele>
        <time>2022-10-23T06:59:26Z</time>
      </trkpt>
      <trkpt lat="44.99012" lon="5.19804">
        <ele>515.88</ele>
        <time>2022-10-23T06:59:29Z</time>
      </trkpt>
      <trkpt lat="44.99001" lon="5.19817">
        <ele>516.85</ele>
        <time>2022-10-23T06:59:42Z</time>
      </trkpt>
      <trkpt lat="44.98987" lon="5.19816">
        <ele>517.81</ele>
        <time>2022-10-23T06:59:55Z</time>
      </trkpt>
      <trkpt lat="44.98975" lon="5.1981">
        <ele>518.29</ele>
        <time>2022-10-23T07:00:06Z</time>
      </trkpt>
      <trkpt lat="44.98954" lon="5.19815">
        <ele>520.21</ele>
        <time>2022-10-23T07:00:24Z</time>
      </trkpt>
      <trkpt lat="44.98937" lon="5.19814">
        <ele>521.65</ele>
        <time>2022-10-23T07:00:38Z</time>
      </trkpt>
      <trkpt lat="44.98929" lon="5.19814">
        <ele>522.61</ele>
        <time>2022-10-23T07:00:45Z</time>
      </trkpt>
      <trkpt lat="44.98916" lon="5.19811">
        <ele>523.58</ele>
        <time>2022-10-23T07:00:59Z</time>
      </trkpt>
      <trkpt lat="44.98904" lon="5.19804">
        <ele>525.5</ele>
        <time>2022-10-23T07:01:12Z</time>
      </trkpt>
      <trkpt lat="44.98892" lon="5.19795">
        <ele>527.42</ele>
        <time>2022-10-23T07:01:27Z</time>
      </trkpt>
      <trkpt lat="44.98882" lon="5.19786">
        <ele>528.86</ele>
        <time>2022-10-23T07:01:41Z</time>
      </trkpt>
      <trkpt lat="44.9887" lon="5.19774">
        <ele>530.3</ele>
        <time>2022-10-23T07:01:57Z</time>
      </trkpt>
      <trkpt lat="44.98857" lon="5.19767">
        <ele>532.23</ele>
        <time>2022-10-23T07:02:10Z</time>
      </trkpt>
      <trkpt lat="44.98844" lon="5.19764">
        <ele>532.71</ele>
        <time>2022-10-23T07:02:24Z</time>
      </trkpt>
      <trkpt lat="44.98828" lon="5.19766">
        <ele>533.67</ele>
        <time>2022-10-23T07:02:38Z</time>
      </trkpt>
      <trkpt lat="44.98811" lon="5.19764">
        <ele>534.63</ele>
        <time>2022-10-23T07:02:54Z</time>
      </trkpt>
      <trkpt lat="44.98796" lon="5.19752">
        <ele>535.59</ele>
        <time>2022-10-23T07:03:10Z</time>
      </trkpt>
      <trkpt lat="44.98782" lon="5.19743">
        <ele>537.51</ele>
        <time>2022-10-23T07:03:24Z</time>
      </trkpt>
      <trkpt lat="44.98771" lon="5.19735">
        <ele>538.48</ele>
        <time>2022-10-23T07:03:37Z</time>
      </trkpt>
      <trkpt lat="44.98757" lon="5.19725">
        <ele>540.4</ele>
        <time>2022-10-23T07:03:54Z</time>
      </trkpt>
      <trkpt lat="44.98741" lon="5.19714">
        <ele>541.36</ele>
        <time>2022-10-23T07:04:10Z</time>
      </trkpt>
      <trkpt lat="44.98724" lon="5.19709">
        <ele>541.84</ele>
        <time>2022-10-23T07:04:24Z</time>
      </trkpt>
      <trkpt lat="44.9872" lon="5.1971">
        <ele>542.32</ele>
        <time>2022-10-23T07:04:28Z</time>
      </trkpt>
      <trkpt lat="44.98702" lon="5.19722">
        <ele>543.28</ele>
        <time>2022-10-23T07:04:45Z</time>
      </trkpt>
      <trkpt lat="44.98699" lon="5.19725">
        <ele>543.28</ele>
        <time>2022-10-23T07:04:48Z</time>
      </trkpt>
      <trkpt lat="44.98687" lon="5.19746">
        <ele>544.24</ele>
        <time>2022-10-23T07:05:06Z</time>
      </trkpt>
      <trkpt lat="44.98684" lon="5.19751">
        <ele>544.72</ele>
        <time>2022-10-23T07:05:11Z</time>
      </trkpt>
      <trkpt lat="44.98681" lon="5.19757">
        <ele>545.69</ele>
        <time>2022-10-23T07:05:16Z</time>
      </trkpt>
      <trkpt lat="44.98671" lon="5.19772">
        <ele>546.65</ele>
        <time>2022-10-23T07:05:32Z</time>
      </trkpt>
      <trkpt lat="44.98656" lon="5.19782">
        <ele>547.61</ele>
        <time>2022-10-23T07:05:48Z</time>
      </trkpt>
      <trkpt lat="44.98638" lon="5.19804">
        <ele>549.05</ele>
        <time>2022-10-23T07:06:07Z</time>
      </trkpt>
      <trkpt lat="44.98625" lon="5.19817">
        <ele>550.49</ele>
        <time>2022-10-23T07:06:22Z</time>
      </trkpt>
      <trkpt lat="44.98613" lon="5.19831">
        <ele>552.41</ele>
        <time>2022-10-23T07:06:38Z</time>
      </trkpt>
      <trkpt lat="44.98605" lon="5.19847">
        <ele>553.86</ele>
        <time>2022-10-23T07:06:52Z</time>
      </trkpt>
      <trkpt lat="44.98599" lon="5.19862">
        <ele>555.3</ele>
        <time>2022-10-23T07:07:06Z</time>
      </trkpt>
      <trkpt lat="44.98596" lon="5.19869">
        <ele>556.74</ele>
        <time>2022-10-23T07:07:11Z</time>
      </trkpt>
      <trkpt lat="44.9859" lon="5.19885">
        <ele>558.66</ele>
        <time>2022-10-23T07:07:26Z</time>
      </trkpt>
      <trkpt lat="44.98584" lon="5.19899">
        <ele>560.11</ele>
        <time>2022-10-23T07:07:40Z</time>
      </trkpt>
      <trkpt lat="44.98579" lon="5.19912">
        <ele>562.03</ele>
        <time>2022-10-23T07:07:55Z</time>
      </trkpt>
      <trkpt lat="44.98573" lon="5.1993">
        <ele>563.95</ele>
        <time>2022-10-23T07:08:10Z</time>
      </trkpt>
      <trkpt lat="44.98569" lon="5.19945">
        <ele>565.87</ele>
        <time>2022-10-23T07:08:23Z</time>
      </trkpt>
      <trkpt lat="44.98569" lon="5.19947">
        <ele>565.87</ele>
        <time>2022-10-23T07:08:24Z</time>
      </trkpt>
      <trkpt lat="44.98577" lon="5.19962">
        <ele>567.32</ele>
        <time>2022-10-23T07:08:38Z</time>
      </trkpt>
      <trkpt lat="44.98581" lon="5.19965">
        <ele>567.8</ele>
        <time>2022-10-23T07:08:43Z</time>
      </trkpt>
      <trkpt lat="44.98595" lon="5.19971">
        <ele>569.72</ele>
        <time>2022-10-23T07:08:58Z</time>
      </trkpt>
      <trkpt lat="44.98606" lon="5.1998">
        <ele>572.6</ele>
        <time>2022-10-23T07:09:12Z</time>
      </trkpt>
      <trkpt lat="44.98618" lon="5.19987">
        <ele>575.01</ele>
        <time>2022-10-23T07:09:27Z</time>
      </trkpt>
      <trkpt lat="44.98621" lon="5.19989">
        <ele>575.97</ele>
        <time>2022-10-23T07:09:31Z</time>
      </trkpt>
      <trkpt lat="44.98626" lon="5.19994">
        <ele>576.93</ele>
        <time>2022-10-23T07:09:38Z</time>
      </trkpt>
      <trkpt lat="44.98634" lon="5.19998">
        <ele>578.37</ele>
        <time>2022-10-23T07:09:47Z</time>
      </trkpt>
      <trkpt lat="44.98647" lon="5.20009">
        <ele>579.81</ele>
        <time>2022-10-23T07:10:02Z</time>
      </trkpt>
      <trkpt lat="44.98661" lon="5.20022">
        <ele>581.25</ele>
        <time>2022-10-23T07:10:19Z</time>
      </trkpt>
      <trkpt lat="44.98673" lon="5.20034">
        <ele>582.22</ele>
        <time>2022-10-23T07:10:35Z</time>
      </trkpt>
      <trkpt lat="44.98683" lon="5.20049">
        <ele>583.18</ele>
        <time>2022-10-23T07:10:51Z</time>
      </trkpt>
      <trkpt lat="44.9869" lon="5.20065">
        <ele>584.62</ele>
        <time>2022-10-23T07:11:05Z</time>
      </trkpt>
      <trkpt lat="44.98693" lon="5.20075">
        <ele>584.62</ele>
        <time>2022-10-23T07:11:14Z</time>
      </trkpt>
      <trkpt lat="44.98698" lon="5.20095">
        <ele>585.58</ele>
        <time>2022-10-23T07:11:30Z</time>
      </trkpt>
      <trkpt lat="44.98696" lon="5.20113">
        <ele>587.02</ele>
        <time>2022-10-23T07:11:45Z</time>
      </trkpt>
      <trkpt lat="44.98696" lon="5.20115">
        <ele>587.02</ele>
        <time>2022-10-23T07:11:46Z</time>
      </trkpt>
      <trkpt lat="44.98689" lon="5.2013">
        <ele>588.46</ele>
        <time>2022-10-23T07:11:59Z</time>
      </trkpt>
      <trkpt lat="44.98679" lon="5.20143">
        <ele>589.91</ele>
        <time>2022-10-23T07:12:13Z</time>
      </trkpt>
      <trkpt lat="44.98667" lon="5.20155">
        <ele>591.83</ele>
        <time>2022-10-23T07:12:30Z</time>
      </trkpt>
      <trkpt lat="44.98663" lon="5.20159">
        <ele>592.79</ele>
        <time>2022-10-23T07:12:36Z</time>
      </trkpt>
      <trkpt lat="44.9865" lon="5.20168">
        <ele>594.23</ele>
        <time>2022-10-23T07:12:52Z</time>
      </trkpt>
      <trkpt lat="44.98637" lon="5.20177">
        <ele>595.67</ele>
        <time>2022-10-23T07:13:09Z</time>
      </trkpt>
      <trkpt lat="44.98628" lon="5.20186">
        <ele>596.64</ele>
        <time>2022-10-23T07:13:21Z</time>
      </trkpt>
      <trkpt lat="44.98617" lon="5.20197">
        <ele>597.12</ele>
        <time>2022-10-23T07:13:34Z</time>
      </trkpt>
      <trkpt lat="44.98601" lon="5.2021">
        <ele>598.56</ele>
        <time>2022-10-23T07:13:52Z</time>
      </trkpt>
      <trkpt lat="44.9859" lon="5.20224">
        <ele>600</ele>
        <time>2022-10-23T07:14:08Z</time>
      </trkpt>
      <trkpt lat="44.98582" lon="5.20243">
        <ele>601.92</ele>
        <time>2022-10-23T07:14:23Z</time>
      </trkpt>
      <trkpt lat="44.98573" lon="5.20261">
        <ele>602.4</ele>
        <time>2022-10-23T07:14:38Z</time>
      </trkpt>
      <trkpt lat="44.98566" lon="5.20277">
        <ele>605.29</ele>
        <time>2022-10-23T07:14:53Z</time>
      </trkpt>
      <trkpt lat="44.9856" lon="5.2029">
        <ele>607.69</ele>
        <time>2022-10-23T07:15:05Z</time>
      </trkpt>
      <trkpt lat="44.98552" lon="5.20307">
        <ele>609.61</ele>
        <time>2022-10-23T07:15:20Z</time>
      </trkpt>
      <trkpt lat="44.98544" lon="5.20323">
        <ele>611.54</ele>
        <time>2022-10-23T07:15:35Z</time>
      </trkpt>
      <trkpt lat="44.98539" lon="5.2033">
        <ele>611.54</ele>
        <time>2022-10-23T07:15:42Z</time>
      </trkpt>
      <trkpt lat="44.98537" lon="5.20333">
        <ele>611.54</ele>
        <time>2022-10-23T07:15:45Z</time>
      </trkpt>
      <trkpt lat="44.98529" lon="5.20347">
        <ele>612.02</ele>
        <time>2022-10-23T07:15:59Z</time>
      </trkpt>
      <trkpt lat="44.98522" lon="5.2036">
        <ele>613.46</ele>
        <time>2022-10-23T07:16:13Z</time>
      </trkpt>
      <trkpt lat="44.98517" lon="5.20364">
        <ele>613.94</ele>
        <time>2022-10-23T07:16:27Z</time>
      </trkpt>
      <trkpt lat="44.98513" lon="5.20367">
        <ele>614.42</ele>
        <time>2022-10-23T07:16:41Z</time>
      </trkpt>
      <trkpt lat="44.98502" lon="5.20382">
        <ele>618.75</ele>
        <time>2022-10-23T07:20:07Z</time>
      </trkpt>
      <trkpt lat="44.98488" lon="5.20388">
        <ele>621.63</ele>
        <time>2022-10-23T07:20:23Z</time>
      </trkpt>
      <trkpt lat="44.98487" lon="5.20372">
        <ele>622.11</ele>
        <time>2022-10-23T07:20:36Z</time>
      </trkpt>
      <trkpt lat="44.98493" lon="5.20358">
        <ele>622.11</ele>
        <time>2022-10-23T07:20:51Z</time>
      </trkpt>
      <trkpt lat="44.98491" lon="5.20358">
        <ele>622.59</ele>
        <time>2022-10-23T07:21:11Z</time>
      </trkpt>
      <trkpt lat="44.98485" lon="5.20356">
        <ele>623.55</ele>
        <time>2022-10-23T07:21:25Z</time>
      </trkpt>
      <trkpt lat="44.98478" lon="5.20351">
        <ele>625.47</ele>
        <time>2022-10-23T07:21:41Z</time>
      </trkpt>
      <trkpt lat="44.98476" lon="5.2035">
        <ele>625.96</ele>
        <time>2022-10-23T07:21:45Z</time>
      </trkpt>
      <trkpt lat="44.98465" lon="5.2035">
        <ele>626.92</ele>
        <time>2022-10-23T07:21:59Z</time>
      </trkpt>
      <trkpt lat="44.98456" lon="5.20347">
        <ele>629.8</ele>
        <time>2022-10-23T07:22:12Z</time>
      </trkpt>
      <trkpt lat="44.98452" lon="5.20344">
        <ele>633.17</ele>
        <time>2022-10-23T07:22:20Z</time>
      </trkpt>
      <trkpt lat="44.98443" lon="5.2034">
        <ele>634.61</ele>
        <time>2022-10-23T07:22:35Z</time>
      </trkpt>
      <trkpt lat="44.98434" lon="5.20337">
        <ele>637.49</ele>
        <time>2022-10-23T07:22:51Z</time>
      </trkpt>
      <trkpt lat="44.98428" lon="5.20334">
        <ele>639.89</ele>
        <time>2022-10-23T07:23:06Z</time>
      </trkpt>
      <trkpt lat="44.9842" lon="5.20324">
        <ele>640.86</ele>
        <time>2022-10-23T07:23:22Z</time>
      </trkpt>
      <trkpt lat="44.9841" lon="5.20319">
        <ele>642.3</ele>
        <time>2022-10-23T07:23:36Z</time>
      </trkpt>
      <trkpt lat="44.98398" lon="5.20315">
        <ele>644.22</ele>
        <time>2022-10-23T07:23:51Z</time>
      </trkpt>
      <trkpt lat="44.98393" lon="5.20306">
        <ele>644.7</ele>
        <time>2022-10-23T07:24:05Z</time>
      </trkpt>
      <trkpt lat="44.98386" lon="5.20294">
        <ele>645.66</ele>
        <time>2022-10-23T07:24:18Z</time>
      </trkpt>
      <trkpt lat="44.98381" lon="5.2029">
        <ele>646.14</ele>
        <time>2022-10-23T07:24:32Z</time>
      </trkpt>
      <trkpt lat="44.98379" lon="5.20289">
        <ele>646.62</ele>
        <time>2022-10-23T07:24:52Z</time>
      </trkpt>
      <trkpt lat="44.9837" lon="5.20278">
        <ele>648.07</ele>
        <time>2022-10-23T07:25:09Z</time>
      </trkpt>
      <trkpt lat="44.98361" lon="5.20269">
        <ele>650.95</ele>
        <time>2022-10-23T07:25:28Z</time>
      </trkpt>
      <trkpt lat="44.98355" lon="5.20259">
        <ele>653.83</ele>
        <time>2022-10-23T07:25:42Z</time>
      </trkpt>
      <trkpt lat="44.98351" lon="5.20252">
        <ele>657.2</ele>
        <time>2022-10-23T07:25:56Z</time>
      </trkpt>
      <trkpt lat="44.9835" lon="5.20244">
        <ele>658.64</ele>
        <time>2022-10-23T07:26:10Z</time>
      </trkpt>
      <trkpt lat="44.98346" lon="5.20235">
        <ele>661.04</ele>
        <time>2022-10-23T07:26:29Z</time>
      </trkpt>
      <trkpt lat="44.98341" lon="5.20226">
        <ele>662.97</ele>
        <time>2022-10-23T07:26:42Z</time>
      </trkpt>
      <trkpt lat="44.98336" lon="5.20218">
        <ele>665.37</ele>
        <time>2022-10-23T07:26:57Z</time>
      </trkpt>
      <trkpt lat="44.98328" lon="5.20213">
        <ele>667.29</ele>
        <time>2022-10-23T07:27:10Z</time>
      </trkpt>
      <trkpt lat="44.98318" lon="5.20209">
        <ele>668.73</ele>
        <time>2022-10-23T07:27:24Z</time>
      </trkpt>
      <trkpt lat="44.98309" lon="5.20205">
        <ele>671.14</ele>
        <time>2022-10-23T07:27:38Z</time>
      </trkpt>
      <trkpt lat="44.98301" lon="5.202">
        <ele>673.54</ele>
        <time>2022-10-23T07:27:54Z</time>
      </trkpt>
      <trkpt lat="44.98291" lon="5.20196">
        <ele>673.54</ele>
        <time>2022-10-23T07:28:08Z</time>
      </trkpt>
      <trkpt lat="44.9828" lon="5.20196">
        <ele>674.02</ele>
        <time>2022-10-23T07:28:23Z</time>
      </trkpt>
      <trkpt lat="44.98273" lon="5.20197">
        <ele>674.02</ele>
        <time>2022-10-23T07:28:30Z</time>
      </trkpt>
      <trkpt lat="44.98263" lon="5.20194">
        <ele>674.02</ele>
        <time>2022-10-23T07:28:38Z</time>
      </trkpt>
      <trkpt lat="44.98252" lon="5.20186">
        <ele>674.02</ele>
        <time>2022-10-23T07:28:52Z</time>
      </trkpt>
      <trkpt lat="44.98238" lon="5.20175">
        <ele>673.54</ele>
        <time>2022-10-23T07:29:09Z</time>
      </trkpt>
      <trkpt lat="44.98235" lon="5.20174">
        <ele>674.98</ele>
        <time>2022-10-23T07:29:21Z</time>
      </trkpt>
      <trkpt lat="44.98227" lon="5.20172">
        <ele>675.94</ele>
        <time>2022-10-23T07:29:33Z</time>
      </trkpt>
      <trkpt lat="44.9822" lon="5.20164">
        <ele>675.94</ele>
        <time>2022-10-23T07:29:44Z</time>
      </trkpt>
      <trkpt lat="44.98217" lon="5.20163">
        <ele>675.94</ele>
        <time>2022-10-23T07:29:47Z</time>
      </trkpt>
      <trkpt lat="44.98212" lon="5.20159">
        <ele>675.94</ele>
        <time>2022-10-23T07:29:51Z</time>
      </trkpt>
      <trkpt lat="44.98196" lon="5.20143">
        <ele>675.94</ele>
        <time>2022-10-23T07:30:06Z</time>
      </trkpt>
      <trkpt lat="44.98193" lon="5.20143">
        <ele>675.94</ele>
        <time>2022-10-23T07:30:08Z</time>
      </trkpt>
      <trkpt lat="44.9818" lon="5.20139">
        <ele>676.42</ele>
        <time>2022-10-23T07:30:21Z</time>
      </trkpt>
      <trkpt lat="44.98174" lon="5.20139">
        <ele>676.42</ele>
        <time>2022-10-23T07:30:27Z</time>
      </trkpt>
      <trkpt lat="44.98158" lon="5.20137">
        <ele>674.5</ele>
        <time>2022-10-23T07:30:43Z</time>
      </trkpt>
      <trkpt lat="44.98146" lon="5.20142">
        <ele>673.06</ele>
        <time>2022-10-23T07:31:00Z</time>
      </trkpt>
      <trkpt lat="44.98137" lon="5.2016">
        <ele>671.62</ele>
        <time>2022-10-23T07:31:17Z</time>
      </trkpt>
      <trkpt lat="44.98136" lon="5.20164">
        <ele>671.62</ele>
        <time>2022-10-23T07:31:21Z</time>
      </trkpt>
      <trkpt lat="44.98133" lon="5.20175">
        <ele>668.25</ele>
        <time>2022-10-23T07:32:30Z</time>
      </trkpt>
      <trkpt lat="44.98132" lon="5.20177">
        <ele>669.7</ele>
        <time>2022-10-23T07:32:34Z</time>
      </trkpt>
      <trkpt lat="44.98129" lon="5.20178">
        <ele>671.14</ele>
        <time>2022-10-23T07:32:49Z</time>
      </trkpt>
      <trkpt lat="44.98127" lon="5.20177">
        <ele>672.1</ele>
        <time>2022-10-23T07:33:03Z</time>
      </trkpt>
      <trkpt lat="44.9812" lon="5.20182">
        <ele>672.1</ele>
        <time>2022-10-23T07:33:18Z</time>
      </trkpt>
      <trkpt lat="44.98114" lon="5.20191">
        <ele>673.54</ele>
        <time>2022-10-23T07:33:31Z</time>
      </trkpt>
      <trkpt lat="44.98102" lon="5.20197">
        <ele>674.5</ele>
        <time>2022-10-23T07:33:46Z</time>
      </trkpt>
      <trkpt lat="44.9809" lon="5.20202">
        <ele>675.46</ele>
        <time>2022-10-23T07:34:03Z</time>
      </trkpt>
      <trkpt lat="44.9808" lon="5.20205">
        <ele>676.91</ele>
        <time>2022-10-23T07:34:18Z</time>
      </trkpt>
      <trkpt lat="44.98078" lon="5.20207">
        <ele>678.35</ele>
        <time>2022-10-23T07:34:21Z</time>
      </trkpt>
      <trkpt lat="44.98069" lon="5.20209">
        <ele>681.23</ele>
        <time>2022-10-23T07:34:34Z</time>
      </trkpt>
      <trkpt lat="44.98059" lon="5.20214">
        <ele>682.67</ele>
        <time>2022-10-23T07:34:47Z</time>
      </trkpt>
      <trkpt lat="44.98048" lon="5.2022">
        <ele>684.12</ele>
        <time>2022-10-23T07:35:00Z</time>
      </trkpt>
      <trkpt lat="44.98038" lon="5.20222">
        <ele>685.08</ele>
        <time>2022-10-23T07:35:15Z</time>
      </trkpt>
      <trkpt lat="44.98026" lon="5.20224">
        <ele>686.04</ele>
        <time>2022-10-23T07:35:30Z</time>
      </trkpt>
      <trkpt lat="44.98017" lon="5.20221">
        <ele>688.44</ele>
        <time>2022-10-23T07:35:43Z</time>
      </trkpt>
      <trkpt lat="44.98007" lon="5.20219">
        <ele>689.88</ele>
        <time>2022-10-23T07:35:57Z</time>
      </trkpt>
      <trkpt lat="44.97996" lon="5.20214">
        <ele>690.36</ele>
        <time>2022-10-23T07:36:10Z</time>
      </trkpt>
      <trkpt lat="44.97984" lon="5.2021">
        <ele>690.84</ele>
        <time>2022-10-23T07:36:26Z</time>
      </trkpt>
      <trkpt lat="44.97974" lon="5.20202">
        <ele>692.77</ele>
        <time>2022-10-23T07:36:42Z</time>
      </trkpt>
      <trkpt lat="44.97966" lon="5.20202">
        <ele>694.69</ele>
        <time>2022-10-23T07:37:00Z</time>
      </trkpt>
      <trkpt lat="44.97957" lon="5.20201">
        <ele>695.65</ele>
        <time>2022-10-23T07:38:19Z</time>
      </trkpt>
      <trkpt lat="44.97952" lon="5.20203">
        <ele>696.61</ele>
        <time>2022-10-23T07:38:30Z</time>
      </trkpt>
      <trkpt lat="44.9794" lon="5.20203">
        <ele>699.02</ele>
        <time>2022-10-23T07:38:45Z</time>
      </trkpt>
      <trkpt lat="44.97931" lon="5.20203">
        <ele>701.42</ele>
        <time>2022-10-23T07:39:00Z</time>
      </trkpt>
      <trkpt lat="44.97919" lon="5.20203">
        <ele>704.3</ele>
        <time>2022-10-23T07:39:15Z</time>
      </trkpt>
      <trkpt lat="44.97908" lon="5.20208">
        <ele>706.23</ele>
        <time>2022-10-23T07:39:30Z</time>
      </trkpt>
      <trkpt lat="44.97903" lon="5.2021">
        <ele>709.59</ele>
        <time>2022-10-23T07:39:37Z</time>
      </trkpt>
      <trkpt lat="44.97891" lon="5.20214">
        <ele>709.59</ele>
        <time>2022-10-23T07:39:52Z</time>
      </trkpt>
      <trkpt lat="44.97888" lon="5.20215">
        <ele>708.15</ele>
        <time>2022-10-23T07:39:56Z</time>
      </trkpt>
      <trkpt lat="44.97885" lon="5.20216">
        <ele>710.55</ele>
        <time>2022-10-23T07:39:59Z</time>
      </trkpt>
      <trkpt lat="44.97877" lon="5.20217">
        <ele>711.51</ele>
        <time>2022-10-23T07:40:10Z</time>
      </trkpt>
      <trkpt lat="44.97868" lon="5.20219">
        <ele>714.88</ele>
        <time>2022-10-23T07:40:22Z</time>
      </trkpt>
      <trkpt lat="44.97864" lon="5.2022">
        <ele>713.44</ele>
        <time>2022-10-23T07:40:27Z</time>
      </trkpt>
      <trkpt lat="44.97861" lon="5.20221">
        <ele>715.84</ele>
        <time>2022-10-23T07:40:30Z</time>
      </trkpt>
      <trkpt lat="44.97859" lon="5.20222">
        <ele>712.95</ele>
        <time>2022-10-23T07:40:33Z</time>
      </trkpt>
      <trkpt lat="44.97857" lon="5.20223">
        <ele>715.84</ele>
        <time>2022-10-23T07:40:36Z</time>
      </trkpt>
      <trkpt lat="44.97848" lon="5.20224">
        <ele>715.36</ele>
        <time>2022-10-23T07:40:48Z</time>
      </trkpt>
      <trkpt lat="44.97843" lon="5.20226">
        <ele>716.8</ele>
        <time>2022-10-23T07:40:55Z</time>
      </trkpt>
      <trkpt lat="44.97837" lon="5.20227">
        <ele>717.28</ele>
        <time>2022-10-23T07:41:02Z</time>
      </trkpt>
      <trkpt lat="44.97828" lon="5.2023">
        <ele>722.09</ele>
        <time>2022-10-23T07:41:13Z</time>
      </trkpt>
      <trkpt lat="44.97821" lon="5.20233">
        <ele>724.01</ele>
        <time>2022-10-23T07:41:24Z</time>
      </trkpt>
      <trkpt lat="44.97815" lon="5.20237">
        <ele>724.49</ele>
        <time>2022-10-23T07:41:32Z</time>
      </trkpt>
      <trkpt lat="44.97808" lon="5.20244">
        <ele>724.97</ele>
        <time>2022-10-23T07:41:43Z</time>
      </trkpt>
      <trkpt lat="44.97802" lon="5.20252">
        <ele>728.82</ele>
        <time>2022-10-23T07:41:53Z</time>
      </trkpt>
      <trkpt lat="44.97801" lon="5.20254">
        <ele>729.78</ele>
        <time>2022-10-23T07:41:55Z</time>
      </trkpt>
      <trkpt lat="44.97799" lon="5.20255">
        <ele>726.89</ele>
        <time>2022-10-23T07:41:57Z</time>
      </trkpt>
      <trkpt lat="44.97798" lon="5.20255">
        <ele>727.86</ele>
        <time>2022-10-23T07:41:58Z</time>
      </trkpt>
      <trkpt lat="44.97797" lon="5.20257">
        <ele>725.45</ele>
        <time>2022-10-23T07:42:01Z</time>
      </trkpt>
      <trkpt lat="44.97795" lon="5.20259">
        <ele>727.86</ele>
        <time>2022-10-23T07:42:04Z</time>
      </trkpt>
      <trkpt lat="44.97794" lon="5.20261">
        <ele>727.86</ele>
        <time>2022-10-23T07:42:06Z</time>
      </trkpt>
      <trkpt lat="44.97793" lon="5.20263">
        <ele>725.45</ele>
        <time>2022-10-23T07:42:09Z</time>
      </trkpt>
      <trkpt lat="44.97792" lon="5.20265">
        <ele>723.53</ele>
        <time>2022-10-23T07:42:11Z</time>
      </trkpt>
      <trkpt lat="44.97789" lon="5.20268">
        <ele>722.09</ele>
        <time>2022-10-23T07:42:16Z</time>
      </trkpt>
      <trkpt lat="44.97788" lon="5.20271">
        <ele>725.45</ele>
        <time>2022-10-23T07:42:19Z</time>
      </trkpt>
      <trkpt lat="44.97787" lon="5.20272">
        <ele>723.53</ele>
        <time>2022-10-23T07:42:20Z</time>
      </trkpt>
      <trkpt lat="44.97786" lon="5.20273">
        <ele>723.53</ele>
        <time>2022-10-23T07:42:21Z</time>
      </trkpt>
      <trkpt lat="44.97784" lon="5.20275">
        <ele>725.93</ele>
        <time>2022-10-23T07:42:23Z</time>
      </trkpt>
      <trkpt lat="44.97775" lon="5.20289">
        <ele>724.49</ele>
        <time>2022-10-23T07:42:37Z</time>
      </trkpt>
      <trkpt lat="44.97774" lon="5.20292">
        <ele>721.13</ele>
        <time>2022-10-23T07:42:39Z</time>
      </trkpt>
      <trkpt lat="44.97773" lon="5.20293">
        <ele>721.13</ele>
        <time>2022-10-23T07:42:40Z</time>
      </trkpt>
      <trkpt lat="44.97772" lon="5.20295">
        <ele>722.57</ele>
        <time>2022-10-23T07:42:42Z</time>
      </trkpt>
      <trkpt lat="44.97771" lon="5.20299">
        <ele>724.49</ele>
        <time>2022-10-23T07:42:46Z</time>
      </trkpt>
      <trkpt lat="44.97769" lon="5.20302">
        <ele>725.45</ele>
        <time>2022-10-23T07:42:49Z</time>
      </trkpt>
      <trkpt lat="44.97765" lon="5.20309">
        <ele>727.37</ele>
        <time>2022-10-23T07:42:57Z</time>
      </trkpt>
      <trkpt lat="44.97764" lon="5.20311">
        <ele>724.97</ele>
        <time>2022-10-23T07:43:00Z</time>
      </trkpt>
      <trkpt lat="44.97763" lon="5.20314">
        <ele>726.41</ele>
        <time>2022-10-23T07:43:02Z</time>
      </trkpt>
      <trkpt lat="44.97761" lon="5.20317">
        <ele>728.34</ele>
        <time>2022-10-23T07:43:06Z</time>
      </trkpt>
      <trkpt lat="44.97759" lon="5.20323">
        <ele>729.78</ele>
        <time>2022-10-23T07:43:12Z</time>
      </trkpt>
      <trkpt lat="44.97757" lon="5.20327">
        <ele>731.7</ele>
        <time>2022-10-23T07:43:18Z</time>
      </trkpt>
      <trkpt lat="44.97755" lon="5.2033">
        <ele>729.78</ele>
        <time>2022-10-23T07:43:20Z</time>
      </trkpt>
      <trkpt lat="44.97748" lon="5.20348">
        <ele>732.18</ele>
        <time>2022-10-23T07:43:36Z</time>
      </trkpt>
      <trkpt lat="44.97739" lon="5.20359">
        <ele>733.62</ele>
        <time>2022-10-23T07:43:50Z</time>
      </trkpt>
      <trkpt lat="44.9773" lon="5.20368">
        <ele>734.58</ele>
        <time>2022-10-23T07:44:04Z</time>
      </trkpt>
      <trkpt lat="44.97728" lon="5.2037">
        <ele>736.03</ele>
        <time>2022-10-23T07:44:07Z</time>
      </trkpt>
      <trkpt lat="44.97719" lon="5.20381">
        <ele>738.91</ele>
        <time>2022-10-23T07:44:19Z</time>
      </trkpt>
      <trkpt lat="44.97718" lon="5.20382">
        <ele>740.35</ele>
        <time>2022-10-23T07:44:21Z</time>
      </trkpt>
      <trkpt lat="44.97716" lon="5.20385">
        <ele>737.95</ele>
        <time>2022-10-23T07:44:24Z</time>
      </trkpt>
      <trkpt lat="44.97714" lon="5.20388">
        <ele>739.87</ele>
        <time>2022-10-23T07:44:27Z</time>
      </trkpt>
      <trkpt lat="44.97705" lon="5.204">
        <ele>739.87</ele>
        <time>2022-10-23T07:44:39Z</time>
      </trkpt>
      <trkpt lat="44.97698" lon="5.20413">
        <ele>742.28</ele>
        <time>2022-10-23T07:44:52Z</time>
      </trkpt>
      <trkpt lat="44.9769" lon="5.20426">
        <ele>742.76</ele>
        <time>2022-10-23T07:45:06Z</time>
      </trkpt>
      <trkpt lat="44.97688" lon="5.20428">
        <ele>742.76</ele>
        <time>2022-10-23T07:45:08Z</time>
      </trkpt>
      <trkpt lat="44.9768" lon="5.20443">
        <ele>741.79</ele>
        <time>2022-10-23T07:45:22Z</time>
      </trkpt>
      <trkpt lat="44.97676" lon="5.20449">
        <ele>738.91</ele>
        <time>2022-10-23T07:45:27Z</time>
      </trkpt>
      <trkpt lat="44.97671" lon="5.20456">
        <ele>742.76</ele>
        <time>2022-10-23T07:45:34Z</time>
      </trkpt>
      <trkpt lat="44.97665" lon="5.2047">
        <ele>744.68</ele>
        <time>2022-10-23T07:45:48Z</time>
      </trkpt>
      <trkpt lat="44.97661" lon="5.20481">
        <ele>746.6</ele>
        <time>2022-10-23T07:45:59Z</time>
      </trkpt>
      <trkpt lat="44.97657" lon="5.20497">
        <ele>746.6</ele>
        <time>2022-10-23T07:46:13Z</time>
      </trkpt>
      <trkpt lat="44.97656" lon="5.20501">
        <ele>748.04</ele>
        <time>2022-10-23T07:46:16Z</time>
      </trkpt>
      <trkpt lat="44.97656" lon="5.20503">
        <ele>748.52</ele>
        <time>2022-10-23T07:46:18Z</time>
      </trkpt>
      <trkpt lat="44.97654" lon="5.20509">
        <ele>747.08</ele>
        <time>2022-10-23T07:46:23Z</time>
      </trkpt>
      <trkpt lat="44.97653" lon="5.20513">
        <ele>749.97</ele>
        <time>2022-10-23T07:46:27Z</time>
      </trkpt>
      <trkpt lat="44.97649" lon="5.20526">
        <ele>753.81</ele>
        <time>2022-10-23T07:46:40Z</time>
      </trkpt>
      <trkpt lat="44.97648" lon="5.20528">
        <ele>753.81</ele>
        <time>2022-10-23T07:46:41Z</time>
      </trkpt>
      <trkpt lat="44.97646" lon="5.20536">
        <ele>755.25</ele>
        <time>2022-10-23T07:46:48Z</time>
      </trkpt>
      <trkpt lat="44.97645" lon="5.20538">
        <ele>753.81</ele>
        <time>2022-10-23T07:46:50Z</time>
      </trkpt>
      <trkpt lat="44.97643" lon="5.20541">
        <ele>755.25</ele>
        <time>2022-10-23T07:46:53Z</time>
      </trkpt>
      <trkpt lat="44.97642" lon="5.20545">
        <ele>753.33</ele>
        <time>2022-10-23T07:46:56Z</time>
      </trkpt>
      <trkpt lat="44.97639" lon="5.20548">
        <ele>751.41</ele>
        <time>2022-10-23T07:47:00Z</time>
      </trkpt>
      <trkpt lat="44.97632" lon="5.20555">
        <ele>751.89</ele>
        <time>2022-10-23T07:47:13Z</time>
      </trkpt>
      <trkpt lat="44.97631" lon="5.20555">
        <ele>751.89</ele>
        <time>2022-10-23T07:47:21Z</time>
      </trkpt>
      <trkpt lat="44.9763" lon="5.20553">
        <ele>753.33</ele>
        <time>2022-10-23T07:47:49Z</time>
      </trkpt>
      <trkpt lat="44.97626" lon="5.2055">
        <ele>752.37</ele>
        <time>2022-10-23T07:47:54Z</time>
      </trkpt>
      <trkpt lat="44.97623" lon="5.20546">
        <ele>751.41</ele>
        <time>2022-10-23T07:48:00Z</time>
      </trkpt>
      <trkpt lat="44.97615" lon="5.20528">
        <ele>749</ele>
        <time>2022-10-23T07:48:15Z</time>
      </trkpt>
      <trkpt lat="44.97607" lon="5.20504">
        <ele>748.04</ele>
        <time>2022-10-23T07:48:32Z</time>
      </trkpt>
      <trkpt lat="44.97594" lon="5.20483">
        <ele>748.04</ele>
        <time>2022-10-23T07:48:49Z</time>
      </trkpt>
      <trkpt lat="44.97583" lon="5.2047">
        <ele>749.49</ele>
        <time>2022-10-23T07:49:04Z</time>
      </trkpt>
      <trkpt lat="44.97573" lon="5.20457">
        <ele>751.41</ele>
        <time>2022-10-23T07:49:18Z</time>
      </trkpt>
      <trkpt lat="44.97569" lon="5.2045">
        <ele>751.41</ele>
        <time>2022-10-23T07:49:25Z</time>
      </trkpt>
      <trkpt lat="44.9756" lon="5.20435">
        <ele>751.89</ele>
        <time>2022-10-23T07:49:38Z</time>
      </trkpt>
      <trkpt lat="44.97555" lon="5.20425">
        <ele>754.77</ele>
        <time>2022-10-23T07:49:48Z</time>
      </trkpt>
      <trkpt lat="44.97554" lon="5.20424">
        <ele>754.77</ele>
        <time>2022-10-23T07:49:49Z</time>
      </trkpt>
      <trkpt lat="44.97552" lon="5.20405">
        <ele>756.69</ele>
        <time>2022-10-23T07:50:04Z</time>
      </trkpt>
      <trkpt lat="44.97554" lon="5.20389">
        <ele>757.18</ele>
        <time>2022-10-23T07:50:17Z</time>
      </trkpt>
      <trkpt lat="44.97554" lon="5.20388">
        <ele>757.18</ele>
        <time>2022-10-23T07:50:18Z</time>
      </trkpt>
      <trkpt lat="44.97557" lon="5.20369">
        <ele>760.06</ele>
        <time>2022-10-23T07:50:34Z</time>
      </trkpt>
      <trkpt lat="44.97555" lon="5.20351">
        <ele>762.46</ele>
        <time>2022-10-23T07:50:47Z</time>
      </trkpt>
      <trkpt lat="44.97552" lon="5.20337">
        <ele>764.87</ele>
        <time>2022-10-23T07:51:01Z</time>
      </trkpt>
      <trkpt lat="44.97552" lon="5.20335">
        <ele>765.35</ele>
        <time>2022-10-23T07:51:03Z</time>
      </trkpt>
      <trkpt lat="44.97551" lon="5.2033">
        <ele>765.83</ele>
        <time>2022-10-23T07:51:08Z</time>
      </trkpt>
      <trkpt lat="44.97547" lon="5.20313">
        <ele>768.23</ele>
        <time>2022-10-23T07:51:24Z</time>
      </trkpt>
      <trkpt lat="44.97543" lon="5.20298">
        <ele>769.67</ele>
        <time>2022-10-23T07:51:39Z</time>
      </trkpt>
      <trkpt lat="44.97538" lon="5.20279">
        <ele>772.08</ele>
        <time>2022-10-23T07:51:56Z</time>
      </trkpt>
      <trkpt lat="44.97537" lon="5.20276">
        <ele>772.56</ele>
        <time>2022-10-23T07:51:59Z</time>
      </trkpt>
      <trkpt lat="44.97533" lon="5.20256">
        <ele>775.44</ele>
        <time>2022-10-23T07:52:13Z</time>
      </trkpt>
      <trkpt lat="44.9753" lon="5.20246">
        <ele>775.44</ele>
        <time>2022-10-23T07:52:22Z</time>
      </trkpt>
      <trkpt lat="44.97528" lon="5.20237">
        <ele>774</ele>
        <time>2022-10-23T07:52:29Z</time>
      </trkpt>
      <trkpt lat="44.97521" lon="5.20221">
        <ele>773.04</ele>
        <time>2022-10-23T07:52:44Z</time>
      </trkpt>
      <trkpt lat="44.97519" lon="5.20215">
        <ele>775.44</ele>
        <time>2022-10-23T07:52:50Z</time>
      </trkpt>
      <trkpt lat="44.97512" lon="5.20204">
        <ele>776.4</ele>
        <time>2022-10-23T07:52:59Z</time>
      </trkpt>
      <trkpt lat="44.97503" lon="5.20184">
        <ele>776.4</ele>
        <time>2022-10-23T07:53:14Z</time>
      </trkpt>
      <trkpt lat="44.97499" lon="5.20158">
        <ele>776.88</ele>
        <time>2022-10-23T07:53:30Z</time>
      </trkpt>
      <trkpt lat="44.97498" lon="5.20151">
        <ele>776.88</ele>
        <time>2022-10-23T07:53:35Z</time>
      </trkpt>
      <trkpt lat="44.97494" lon="5.2013">
        <ele>777.84</ele>
        <time>2022-10-23T07:53:50Z</time>
      </trkpt>
      <trkpt lat="44.97482" lon="5.20112">
        <ele>780.73</ele>
        <time>2022-10-23T07:54:07Z</time>
      </trkpt>
      <trkpt lat="44.97468" lon="5.20098">
        <ele>783.61</ele>
        <time>2022-10-23T07:54:23Z</time>
      </trkpt>
      <trkpt lat="44.97459" lon="5.20098">
        <ele>784.57</ele>
        <time>2022-10-23T07:54:36Z</time>
      </trkpt>
      <trkpt lat="44.97458" lon="5.20102">
        <ele>783.61</ele>
        <time>2022-10-23T07:54:42Z</time>
      </trkpt>
      <trkpt lat="44.97452" lon="5.20116">
        <ele>783.61</ele>
        <time>2022-10-23T07:54:55Z</time>
      </trkpt>
      <trkpt lat="44.97445" lon="5.20125">
        <ele>786.98</ele>
        <time>2022-10-23T07:55:08Z</time>
      </trkpt>
      <trkpt lat="44.97443" lon="5.20125">
        <ele>786.02</ele>
        <time>2022-10-23T07:55:25Z</time>
      </trkpt>
      <trkpt lat="44.97441" lon="5.20123">
        <ele>786.98</ele>
        <time>2022-10-23T07:55:35Z</time>
      </trkpt>
      <trkpt lat="44.9744" lon="5.20122">
        <ele>785.05</ele>
        <time>2022-10-23T07:55:54Z</time>
      </trkpt>
      <trkpt lat="44.97435" lon="5.20122">
        <ele>785.05</ele>
        <time>2022-10-23T07:56:09Z</time>
      </trkpt>
      <trkpt lat="44.97433" lon="5.20122">
        <ele>785.05</ele>
        <time>2022-10-23T07:58:11Z</time>
      </trkpt>
      <trkpt lat="44.97428" lon="5.20124">
        <ele>786.02</ele>
        <time>2022-10-23T07:58:17Z</time>
      </trkpt>
      <trkpt lat="44.97414" lon="5.20132">
        <ele>784.57</ele>
        <time>2022-10-23T07:58:32Z</time>
      </trkpt>
      <trkpt lat="44.97411" lon="5.20133">
        <ele>786.02</ele>
        <time>2022-10-23T07:58:35Z</time>
      </trkpt>
      <trkpt lat="44.97397" lon="5.20141">
        <ele>787.46</ele>
        <time>2022-10-23T07:58:50Z</time>
      </trkpt>
      <trkpt lat="44.97394" lon="5.20144">
        <ele>786.02</ele>
        <time>2022-10-23T07:58:54Z</time>
      </trkpt>
      <trkpt lat="44.97381" lon="5.20147">
        <ele>786.98</ele>
        <time>2022-10-23T07:59:06Z</time>
      </trkpt>
      <trkpt lat="44.97365" lon="5.20146">
        <ele>787.46</ele>
        <time>2022-10-23T07:59:20Z</time>
      </trkpt>
      <trkpt lat="44.97349" lon="5.20144">
        <ele>787.46</ele>
        <time>2022-10-23T07:59:36Z</time>
      </trkpt>
      <trkpt lat="44.97336" lon="5.20136">
        <ele>787.46</ele>
        <time>2022-10-23T07:59:50Z</time>
      </trkpt>
      <trkpt lat="44.97333" lon="5.20134">
        <ele>787.46</ele>
        <time>2022-10-23T07:59:53Z</time>
      </trkpt>
      <trkpt lat="44.97323" lon="5.20123">
        <ele>788.9</ele>
        <time>2022-10-23T08:00:06Z</time>
      </trkpt>
      <trkpt lat="44.97322" lon="5.20122">
        <ele>788.9</ele>
        <time>2022-10-23T08:00:08Z</time>
      </trkpt>
      <trkpt lat="44.97313" lon="5.20126">
        <ele>790.82</ele>
        <time>2022-10-23T08:00:23Z</time>
      </trkpt>
      <trkpt lat="44.97308" lon="5.20143">
        <ele>792.74</ele>
        <time>2022-10-23T08:00:41Z</time>
      </trkpt>
      <trkpt lat="44.97303" lon="5.20154">
        <ele>794.19</ele>
        <time>2022-10-23T08:00:56Z</time>
      </trkpt>
      <trkpt lat="44.97298" lon="5.20167">
        <ele>797.07</ele>
        <time>2022-10-23T08:01:11Z</time>
      </trkpt>
      <trkpt lat="44.97294" lon="5.20177">
        <ele>798.99</ele>
        <time>2022-10-23T08:01:25Z</time>
      </trkpt>
      <trkpt lat="44.97293" lon="5.20179">
        <ele>800.44</ele>
        <time>2022-10-23T08:01:29Z</time>
      </trkpt>
      <trkpt lat="44.9729" lon="5.20187">
        <ele>803.8</ele>
        <time>2022-10-23T08:01:40Z</time>
      </trkpt>
      <trkpt lat="44.97284" lon="5.20197">
        <ele>807.16</ele>
        <time>2022-10-23T08:01:55Z</time>
      </trkpt>
      <trkpt lat="44.97279" lon="5.20202">
        <ele>810.05</ele>
        <time>2022-10-23T08:02:04Z</time>
      </trkpt>
      <trkpt lat="44.97273" lon="5.2021">
        <ele>811.97</ele>
        <time>2022-10-23T08:02:19Z</time>
      </trkpt>
      <trkpt lat="44.97267" lon="5.20219">
        <ele>813.89</ele>
        <time>2022-10-23T08:02:35Z</time>
      </trkpt>
      <trkpt lat="44.97262" lon="5.20237">
        <ele>813.41</ele>
        <time>2022-10-23T08:02:51Z</time>
      </trkpt>
      <trkpt lat="44.97261" lon="5.20239">
        <ele>812.45</ele>
        <time>2022-10-23T08:02:53Z</time>
      </trkpt>
      <trkpt lat="44.97259" lon="5.20247">
        <ele>813.89</ele>
        <time>2022-10-23T08:03:00Z</time>
      </trkpt>
      <trkpt lat="44.97256" lon="5.20262">
        <ele>816.78</ele>
        <time>2022-10-23T08:03:14Z</time>
      </trkpt>
      <trkpt lat="44.97252" lon="5.20276">
        <ele>818.22</ele>
        <time>2022-10-23T08:03:28Z</time>
      </trkpt>
      <trkpt lat="44.97247" lon="5.20281">
        <ele>821.1</ele>
        <time>2022-10-23T08:04:45Z</time>
      </trkpt>
      <trkpt lat="44.97255" lon="5.20277">
        <ele>821.1</ele>
        <time>2022-10-23T08:04:57Z</time>
      </trkpt>
      <trkpt lat="44.97257" lon="5.20276">
        <ele>822.55</ele>
        <time>2022-10-23T08:05:00Z</time>
      </trkpt>
      <trkpt lat="44.97258" lon="5.20275">
        <ele>822.55</ele>
        <time>2022-10-23T08:05:01Z</time>
      </trkpt>
      <trkpt lat="44.97272" lon="5.20269">
        <ele>823.51</ele>
        <time>2022-10-23T08:05:16Z</time>
      </trkpt>
      <trkpt lat="44.97282" lon="5.20261">
        <ele>827.35</ele>
        <time>2022-10-23T08:05:28Z</time>
      </trkpt>
      <trkpt lat="44.97285" lon="5.20259">
        <ele>827.83</ele>
        <time>2022-10-23T08:05:32Z</time>
      </trkpt>
      <trkpt lat="44.97299" lon="5.20253">
        <ele>830.24</ele>
        <time>2022-10-23T08:05:48Z</time>
      </trkpt>
      <trkpt lat="44.9731" lon="5.20245">
        <ele>831.68</ele>
        <time>2022-10-23T08:06:00Z</time>
      </trkpt>
      <trkpt lat="44.97314" lon="5.20241">
        <ele>833.6</ele>
        <time>2022-10-23T08:06:04Z</time>
      </trkpt>
      <trkpt lat="44.9733" lon="5.20246">
        <ele>834.08</ele>
        <time>2022-10-23T08:06:18Z</time>
      </trkpt>
      <trkpt lat="44.97341" lon="5.20249">
        <ele>834.56</ele>
        <time>2022-10-23T08:06:30Z</time>
      </trkpt>
      <trkpt lat="44.97356" lon="5.20255">
        <ele>836.48</ele>
        <time>2022-10-23T08:06:46Z</time>
      </trkpt>
      <trkpt lat="44.97365" lon="5.2026">
        <ele>839.37</ele>
        <time>2022-10-23T08:06:59Z</time>
      </trkpt>
      <trkpt lat="44.97366" lon="5.2026">
        <ele>840.81</ele>
        <time>2022-10-23T08:07:02Z</time>
      </trkpt>
      <trkpt lat="44.97375" lon="5.20262">
        <ele>843.69</ele>
        <time>2022-10-23T08:07:13Z</time>
      </trkpt>
      <trkpt lat="44.97388" lon="5.20265">
        <ele>841.77</ele>
        <time>2022-10-23T08:07:25Z</time>
      </trkpt>
      <trkpt lat="44.97402" lon="5.20271">
        <ele>843.21</ele>
        <time>2022-10-23T08:07:39Z</time>
      </trkpt>
      <trkpt lat="44.97411" lon="5.20283">
        <ele>845.14</ele>
        <time>2022-10-23T08:07:53Z</time>
      </trkpt>
      <trkpt lat="44.97409" lon="5.20288">
        <ele>845.62</ele>
        <time>2022-10-23T08:08:08Z</time>
      </trkpt>
      <trkpt lat="44.974" lon="5.20294">
        <ele>847.54</ele>
        <time>2022-10-23T08:08:24Z</time>
      </trkpt>
      <trkpt lat="44.97394" lon="5.20296">
        <ele>850.9</ele>
        <time>2022-10-23T08:08:37Z</time>
      </trkpt>
      <trkpt lat="44.97385" lon="5.20303">
        <ele>852.83</ele>
        <time>2022-10-23T08:08:54Z</time>
      </trkpt>
      <trkpt lat="44.97383" lon="5.20305">
        <ele>854.75</ele>
        <time>2022-10-23T08:08:57Z</time>
      </trkpt>
      <trkpt lat="44.97375" lon="5.20314">
        <ele>855.71</ele>
        <time>2022-10-23T08:09:12Z</time>
      </trkpt>
      <trkpt lat="44.97367" lon="5.20319">
        <ele>859.08</ele>
        <time>2022-10-23T08:09:25Z</time>
      </trkpt>
      <trkpt lat="44.9736" lon="5.2033">
        <ele>861</ele>
        <time>2022-10-23T08:09:39Z</time>
      </trkpt>
      <trkpt lat="44.97352" lon="5.20337">
        <ele>862.44</ele>
        <time>2022-10-23T08:09:54Z</time>
      </trkpt>
      <trkpt lat="44.97342" lon="5.20347">
        <ele>865.32</ele>
        <time>2022-10-23T08:10:10Z</time>
      </trkpt>
      <trkpt lat="44.97334" lon="5.20351">
        <ele>868.69</ele>
        <time>2022-10-23T08:10:23Z</time>
      </trkpt>
      <trkpt lat="44.97329" lon="5.20354">
        <ele>870.13</ele>
        <time>2022-10-23T08:10:39Z</time>
      </trkpt>
      <trkpt lat="44.97331" lon="5.20358">
        <ele>872.53</ele>
        <time>2022-10-23T08:10:56Z</time>
      </trkpt>
      <trkpt lat="44.97332" lon="5.2036">
        <ele>875.42</ele>
        <time>2022-10-23T08:11:03Z</time>
      </trkpt>
      <trkpt lat="44.97331" lon="5.20371">
        <ele>878.3</ele>
        <time>2022-10-23T08:11:20Z</time>
      </trkpt>
      <trkpt lat="44.97327" lon="5.20379">
        <ele>880.71</ele>
        <time>2022-10-23T08:11:37Z</time>
      </trkpt>
      <trkpt lat="44.97321" lon="5.20389">
        <ele>882.15</ele>
        <time>2022-10-23T08:11:54Z</time>
      </trkpt>
      <trkpt lat="44.97316" lon="5.20393">
        <ele>885.51</ele>
        <time>2022-10-23T08:12:05Z</time>
      </trkpt>
      <trkpt lat="44.97311" lon="5.20402">
        <ele>886.95</ele>
        <time>2022-10-23T08:12:20Z</time>
      </trkpt>
      <trkpt lat="44.97302" lon="5.20414">
        <ele>890.8</ele>
        <time>2022-10-23T08:12:34Z</time>
      </trkpt>
      <trkpt lat="44.97302" lon="5.20414">
        <ele>890.8</ele>
        <time>2022-10-23T08:12:35Z</time>
      </trkpt>
      <trkpt lat="44.97294" lon="5.20421">
        <ele>892.24</ele>
        <time>2022-10-23T08:12:53Z</time>
      </trkpt>
      <trkpt lat="44.9729" lon="5.20427">
        <ele>893.2</ele>
        <time>2022-10-23T08:13:08Z</time>
      </trkpt>
      <trkpt lat="44.9729" lon="5.2043">
        <ele>896.09</ele>
        <time>2022-10-23T08:13:20Z</time>
      </trkpt>
      <trkpt lat="44.97286" lon="5.20441">
        <ele>898.97</ele>
        <time>2022-10-23T08:13:35Z</time>
      </trkpt>
      <trkpt lat="44.9728" lon="5.2045">
        <ele>901.37</ele>
        <time>2022-10-23T08:13:51Z</time>
      </trkpt>
      <trkpt lat="44.97273" lon="5.2046">
        <ele>902.82</ele>
        <time>2022-10-23T08:14:05Z</time>
      </trkpt>
      <trkpt lat="44.97268" lon="5.20467">
        <ele>902.82</ele>
        <time>2022-10-23T08:14:16Z</time>
      </trkpt>
      <trkpt lat="44.97265" lon="5.20475">
        <ele>905.22</ele>
        <time>2022-10-23T08:14:23Z</time>
      </trkpt>
      <trkpt lat="44.97262" lon="5.20485">
        <ele>908.1</ele>
        <time>2022-10-23T08:14:36Z</time>
      </trkpt>
      <trkpt lat="44.97259" lon="5.20493">
        <ele>910.51</ele>
        <time>2022-10-23T08:14:49Z</time>
      </trkpt>
      <trkpt lat="44.97251" lon="5.20504">
        <ele>913.39</ele>
        <time>2022-10-23T08:15:07Z</time>
      </trkpt>
      <trkpt lat="44.97248" lon="5.20514">
        <ele>914.35</ele>
        <time>2022-10-23T08:15:23Z</time>
      </trkpt>
      <trkpt lat="44.97244" lon="5.20521">
        <ele>916.75</ele>
        <time>2022-10-23T08:15:38Z</time>
      </trkpt>
      <trkpt lat="44.9724" lon="5.2053">
        <ele>919.16</ele>
        <time>2022-10-23T08:15:53Z</time>
      </trkpt>
      <trkpt lat="44.97236" lon="5.20532">
        <ele>922.04</ele>
        <time>2022-10-23T08:16:02Z</time>
      </trkpt>
      <trkpt lat="44.97233" lon="5.20536">
        <ele>923.48</ele>
        <time>2022-10-23T08:16:19Z</time>
      </trkpt>
      <trkpt lat="44.97235" lon="5.20546">
        <ele>926.37</ele>
        <time>2022-10-23T08:16:37Z</time>
      </trkpt>
      <trkpt lat="44.97235" lon="5.20548">
        <ele>927.33</ele>
        <time>2022-10-23T08:16:41Z</time>
      </trkpt>
      <trkpt lat="44.97234" lon="5.20552">
        <ele>928.77</ele>
        <time>2022-10-23T08:16:48Z</time>
      </trkpt>
      <trkpt lat="44.97229" lon="5.20558">
        <ele>930.69</ele>
        <time>2022-10-23T08:17:05Z</time>
      </trkpt>
      <trkpt lat="44.97225" lon="5.20564">
        <ele>933.58</ele>
        <time>2022-10-23T08:17:19Z</time>
      </trkpt>
      <trkpt lat="44.97225" lon="5.20569">
        <ele>935.98</ele>
        <time>2022-10-23T08:17:26Z</time>
      </trkpt>
      <trkpt lat="44.97225" lon="5.20571">
        <ele>935.02</ele>
        <time>2022-10-23T08:17:29Z</time>
      </trkpt>
      <trkpt lat="44.97227" lon="5.20573">
        <ele>936.94</ele>
        <time>2022-10-23T08:17:39Z</time>
      </trkpt>
      <trkpt lat="44.97222" lon="5.20583">
        <ele>938.86</ele>
        <time>2022-10-23T08:17:56Z</time>
      </trkpt>
      <trkpt lat="44.97226" lon="5.20586">
        <ele>942.23</ele>
        <time>2022-10-23T08:18:08Z</time>
      </trkpt>
      <trkpt lat="44.97222" lon="5.20592">
        <ele>945.59</ele>
        <time>2022-10-23T08:18:20Z</time>
      </trkpt>
      <trkpt lat="44.97221" lon="5.20592">
        <ele>947.04</ele>
        <time>2022-10-23T08:18:22Z</time>
      </trkpt>
      <trkpt lat="44.9722" lon="5.20595">
        <ele>945.11</ele>
        <time>2022-10-23T08:18:28Z</time>
      </trkpt>
      <trkpt lat="44.97221" lon="5.20604">
        <ele>946.07</ele>
        <time>2022-10-23T08:18:46Z</time>
      </trkpt>
      <trkpt lat="44.97221" lon="5.20605">
        <ele>948</ele>
        <time>2022-10-23T08:18:49Z</time>
      </trkpt>
      <trkpt lat="44.97219" lon="5.20609">
        <ele>949.92</ele>
        <time>2022-10-23T08:18:56Z</time>
      </trkpt>
      <trkpt lat="44.97213" lon="5.20613">
        <ele>951.84</ele>
        <time>2022-10-23T08:19:12Z</time>
      </trkpt>
      <trkpt lat="44.97212" lon="5.2062">
        <ele>953.28</ele>
        <time>2022-10-23T08:19:29Z</time>
      </trkpt>
      <trkpt lat="44.97206" lon="5.20624">
        <ele>956.65</ele>
        <time>2022-10-23T08:19:42Z</time>
      </trkpt>
      <trkpt lat="44.97206" lon="5.20625">
        <ele>956.65</ele>
        <time>2022-10-23T08:19:43Z</time>
      </trkpt>
      <trkpt lat="44.97208" lon="5.20632">
        <ele>958.57</ele>
        <time>2022-10-23T08:19:59Z</time>
      </trkpt>
      <trkpt lat="44.97209" lon="5.20638">
        <ele>961.46</ele>
        <time>2022-10-23T08:20:15Z</time>
      </trkpt>
      <trkpt lat="44.97211" lon="5.20645">
        <ele>963.38</ele>
        <time>2022-10-23T08:20:34Z</time>
      </trkpt>
      <trkpt lat="44.97214" lon="5.20652">
        <ele>966.26</ele>
        <time>2022-10-23T08:20:51Z</time>
      </trkpt>
      <trkpt lat="44.97216" lon="5.20661">
        <ele>968.18</ele>
        <time>2022-10-23T08:21:10Z</time>
      </trkpt>
      <trkpt lat="44.97217" lon="5.20669">
        <ele>970.59</ele>
        <time>2022-10-23T08:21:25Z</time>
      </trkpt>
      <trkpt lat="44.97219" lon="5.20678">
        <ele>972.99</ele>
        <time>2022-10-23T08:21:42Z</time>
      </trkpt>
      <trkpt lat="44.97219" lon="5.20688">
        <ele>976.36</ele>
        <time>2022-10-23T08:22:01Z</time>
      </trkpt>
      <trkpt lat="44.97221" lon="5.20695">
        <ele>977.8</ele>
        <time>2022-10-23T08:22:18Z</time>
      </trkpt>
      <trkpt lat="44.97222" lon="5.20701">
        <ele>981.16</ele>
        <time>2022-10-23T08:22:28Z</time>
      </trkpt>
      <trkpt lat="44.97222" lon="5.20703">
        <ele>982.6</ele>
        <time>2022-10-23T08:22:31Z</time>
      </trkpt>
      <trkpt lat="44.97222" lon="5.20707">
        <ele>980.68</ele>
        <time>2022-10-23T08:22:38Z</time>
      </trkpt>
      <trkpt lat="44.97221" lon="5.2071">
        <ele>984.53</ele>
        <time>2022-10-23T08:22:45Z</time>
      </trkpt>
      <trkpt lat="44.97221" lon="5.20712">
        <ele>985.49</ele>
        <time>2022-10-23T08:22:47Z</time>
      </trkpt>
      <trkpt lat="44.9722" lon="5.20718">
        <ele>988.85</ele>
        <time>2022-10-23T08:23:03Z</time>
      </trkpt>
      <trkpt lat="44.97221" lon="5.20724">
        <ele>991.26</ele>
        <time>2022-10-23T08:23:17Z</time>
      </trkpt>
      <trkpt lat="44.97221" lon="5.20725">
        <ele>991.26</ele>
        <time>2022-10-23T08:23:18Z</time>
      </trkpt>
      <trkpt lat="44.97222" lon="5.20738">
        <ele>993.66</ele>
        <time>2022-10-23T08:23:36Z</time>
      </trkpt>
      <trkpt lat="44.97226" lon="5.20749">
        <ele>997.02</ele>
        <time>2022-10-23T08:23:52Z</time>
      </trkpt>
      <trkpt lat="44.97225" lon="5.20752">
        <ele>996.06</ele>
        <time>2022-10-23T08:24:00Z</time>
      </trkpt>
      <trkpt lat="44.97225" lon="5.20755">
        <ele>999.43</ele>
        <time>2022-10-23T08:24:06Z</time>
      </trkpt>
      <trkpt lat="44.97228" lon="5.2076">
        <ele>1000.87</ele>
        <time>2022-10-23T08:24:22Z</time>
      </trkpt>
      <trkpt lat="44.97232" lon="5.20771">
        <ele>1001.35</ele>
        <time>2022-10-23T08:24:36Z</time>
      </trkpt>
      <trkpt lat="44.97233" lon="5.20775">
        <ele>1002.79</ele>
        <time>2022-10-23T08:24:43Z</time>
      </trkpt>
      <trkpt lat="44.97234" lon="5.20783">
        <ele>1005.68</ele>
        <time>2022-10-23T08:24:55Z</time>
      </trkpt>
      <trkpt lat="44.97235" lon="5.20789">
        <ele>1008.56</ele>
        <time>2022-10-23T08:25:11Z</time>
      </trkpt>
      <trkpt lat="44.97235" lon="5.20795">
        <ele>1009.04</ele>
        <time>2022-10-23T08:25:27Z</time>
      </trkpt>
      <trkpt lat="44.97232" lon="5.20803">
        <ele>1011.93</ele>
        <time>2022-10-23T08:25:42Z</time>
      </trkpt>
      <trkpt lat="44.97234" lon="5.20806">
        <ele>1015.29</ele>
        <time>2022-10-23T08:25:49Z</time>
      </trkpt>
      <trkpt lat="44.97239" lon="5.20814">
        <ele>1016.73</ele>
        <time>2022-10-23T08:26:05Z</time>
      </trkpt>
      <trkpt lat="44.97239" lon="5.20821">
        <ele>1018.17</ele>
        <time>2022-10-23T08:26:21Z</time>
      </trkpt>
      <trkpt lat="44.97244" lon="5.20834">
        <ele>1021.54</ele>
        <time>2022-10-23T08:26:41Z</time>
      </trkpt>
      <trkpt lat="44.97244" lon="5.20841">
        <ele>1023.46</ele>
        <time>2022-10-23T08:26:55Z</time>
      </trkpt>
      <trkpt lat="44.97246" lon="5.20849">
        <ele>1026.34</ele>
        <time>2022-10-23T08:27:10Z</time>
      </trkpt>
      <trkpt lat="44.97245" lon="5.20855">
        <ele>1029.23</ele>
        <time>2022-10-23T08:27:22Z</time>
      </trkpt>
      <trkpt lat="44.97247" lon="5.20858">
        <ele>1032.59</ele>
        <time>2022-10-23T08:27:31Z</time>
      </trkpt>
      <trkpt lat="44.97251" lon="5.20869">
        <ele>1032.59</ele>
        <time>2022-10-23T08:27:47Z</time>
      </trkpt>
      <trkpt lat="44.97252" lon="5.20878">
        <ele>1034.52</ele>
        <time>2022-10-23T08:28:03Z</time>
      </trkpt>
      <trkpt lat="44.97253" lon="5.20882">
        <ele>1037.88</ele>
        <time>2022-10-23T08:28:18Z</time>
      </trkpt>
      <trkpt lat="44.97253" lon="5.20883">
        <ele>1037.88</ele>
        <time>2022-10-23T08:28:19Z</time>
      </trkpt>
      <trkpt lat="44.97253" lon="5.20894">
        <ele>1040.76</ele>
        <time>2022-10-23T08:28:38Z</time>
      </trkpt>
      <trkpt lat="44.97253" lon="5.20896">
        <ele>1042.69</ele>
        <time>2022-10-23T08:28:42Z</time>
      </trkpt>
      <trkpt lat="44.9725" lon="5.20901">
        <ele>1045.57</ele>
        <time>2022-10-23T08:29:00Z</time>
      </trkpt>
      <trkpt lat="44.97244" lon="5.20903">
        <ele>1048.94</ele>
        <time>2022-10-23T08:29:13Z</time>
      </trkpt>
      <trkpt lat="44.97245" lon="5.20907">
        <ele>1049.9</ele>
        <time>2022-10-23T08:29:27Z</time>
      </trkpt>
      <trkpt lat="44.97245" lon="5.20915">
        <ele>1053.26</ele>
        <time>2022-10-23T08:29:45Z</time>
      </trkpt>
      <trkpt lat="44.97239" lon="5.20919">
        <ele>1055.18</ele>
        <time>2022-10-23T08:30:04Z</time>
      </trkpt>
      <trkpt lat="44.97239" lon="5.20924">
        <ele>1057.59</ele>
        <time>2022-10-23T08:30:20Z</time>
      </trkpt>
      <trkpt lat="44.97242" lon="5.20927">
        <ele>1060.95</ele>
        <time>2022-10-23T08:30:28Z</time>
      </trkpt>
      <trkpt lat="44.97242" lon="5.20932">
        <ele>1062.39</ele>
        <time>2022-10-23T08:30:42Z</time>
      </trkpt>
      <trkpt lat="44.97244" lon="5.20939">
        <ele>1064.8</ele>
        <time>2022-10-23T08:30:55Z</time>
      </trkpt>
      <trkpt lat="44.97248" lon="5.20946">
        <ele>1066.72</ele>
        <time>2022-10-23T08:31:12Z</time>
      </trkpt>
      <trkpt lat="44.9725" lon="5.20956">
        <ele>1069.12</ele>
        <time>2022-10-23T08:31:29Z</time>
      </trkpt>
      <trkpt lat="44.97254" lon="5.20965">
        <ele>1071.53</ele>
        <time>2022-10-23T08:31:46Z</time>
      </trkpt>
      <trkpt lat="44.97254" lon="5.20968">
        <ele>1072.97</ele>
        <time>2022-10-23T08:32:03Z</time>
      </trkpt>
      <trkpt lat="44.9725" lon="5.20977">
        <ele>1076.33</ele>
        <time>2022-10-23T08:32:19Z</time>
      </trkpt>
      <trkpt lat="44.9725" lon="5.20982">
        <ele>1078.74</ele>
        <time>2022-10-23T08:32:36Z</time>
      </trkpt>
      <trkpt lat="44.97253" lon="5.20986">
        <ele>1081.62</ele>
        <time>2022-10-23T08:32:51Z</time>
      </trkpt>
      <trkpt lat="44.97257" lon="5.20992">
        <ele>1084.02</ele>
        <time>2022-10-23T08:33:05Z</time>
      </trkpt>
      <trkpt lat="44.97262" lon="5.21">
        <ele>1085.95</ele>
        <time>2022-10-23T08:33:20Z</time>
      </trkpt>
      <trkpt lat="44.97266" lon="5.21007">
        <ele>1086.43</ele>
        <time>2022-10-23T08:33:34Z</time>
      </trkpt>
      <trkpt lat="44.97267" lon="5.21016">
        <ele>1087.87</ele>
        <time>2022-10-23T08:33:47Z</time>
      </trkpt>
      <trkpt lat="44.97271" lon="5.21026">
        <ele>1091.23</ele>
        <time>2022-10-23T08:34:02Z</time>
      </trkpt>
      <trkpt lat="44.97271" lon="5.21026">
        <ele>1091.23</ele>
        <time>2022-10-23T08:34:03Z</time>
      </trkpt>
      <trkpt lat="44.97274" lon="5.21032">
        <ele>1094.12</ele>
        <time>2022-10-23T08:34:20Z</time>
      </trkpt>
      <trkpt lat="44.97276" lon="5.21039">
        <ele>1097</ele>
        <time>2022-10-23T08:34:38Z</time>
      </trkpt>
      <trkpt lat="44.97275" lon="5.21044">
        <ele>1099.4</ele>
        <time>2022-10-23T08:34:54Z</time>
      </trkpt>
      <trkpt lat="44.97275" lon="5.21049">
        <ele>1102.29</ele>
        <time>2022-10-23T08:35:10Z</time>
      </trkpt>
      <trkpt lat="44.97274" lon="5.21055">
        <ele>1104.69</ele>
        <time>2022-10-23T08:35:25Z</time>
      </trkpt>
      <trkpt lat="44.97278" lon="5.2106">
        <ele>1108.06</ele>
        <time>2022-10-23T08:35:40Z</time>
      </trkpt>
      <trkpt lat="44.97279" lon="5.21064">
        <ele>1109.98</ele>
        <time>2022-10-23T08:35:53Z</time>
      </trkpt>
      <trkpt lat="44.97282" lon="5.21073">
        <ele>1111.42</ele>
        <time>2022-10-23T08:36:08Z</time>
      </trkpt>
      <trkpt lat="44.97278" lon="5.21073">
        <ele>1112.86</ele>
        <time>2022-10-23T08:36:24Z</time>
      </trkpt>
      <trkpt lat="44.97266" lon="5.21067">
        <ele>1119.11</ele>
        <time>2022-10-23T08:36:54Z</time>
      </trkpt>
      <trkpt lat="44.97263" lon="5.21062">
        <ele>1121.03</ele>
        <time>2022-10-23T08:37:10Z</time>
      </trkpt>
      <trkpt lat="44.97262" lon="5.21067">
        <ele>1121.03</ele>
        <time>2022-10-23T08:37:27Z</time>
      </trkpt>
      <trkpt lat="44.97262" lon="5.21069">
        <ele>1121.52</ele>
        <time>2022-10-23T08:37:38Z</time>
      </trkpt>
      <trkpt lat="44.97271" lon="5.2107">
        <ele>1123.44</ele>
        <time>2022-10-23T08:37:59Z</time>
      </trkpt>
      <trkpt lat="44.97275" lon="5.21075">
        <ele>1125.84</ele>
        <time>2022-10-23T08:38:12Z</time>
      </trkpt>
      <trkpt lat="44.97274" lon="5.21077">
        <ele>1128.73</ele>
        <time>2022-10-23T08:38:21Z</time>
      </trkpt>
      <trkpt lat="44.97268" lon="5.21081">
        <ele>1129.69</ele>
        <time>2022-10-23T08:38:39Z</time>
      </trkpt>
      <trkpt lat="44.97268" lon="5.21084">
        <ele>1138.34</ele>
        <time>2022-10-23T08:39:45Z</time>
      </trkpt>
      <trkpt lat="44.97268" lon="5.21085">
        <ele>1139.3</ele>
        <time>2022-10-23T08:40:00Z</time>
      </trkpt>
      <trkpt lat="44.97272" lon="5.21091">
        <ele>1139.78</ele>
        <time>2022-10-23T08:40:12Z</time>
      </trkpt>
      <trkpt lat="44.97275" lon="5.21091">
        <ele>1141.7</ele>
        <time>2022-10-23T08:40:25Z</time>
      </trkpt>
      <trkpt lat="44.97281" lon="5.21095">
        <ele>1143.63</ele>
        <time>2022-10-23T08:40:37Z</time>
      </trkpt>
      <trkpt lat="44.97286" lon="5.211">
        <ele>1145.07</ele>
        <time>2022-10-23T08:40:45Z</time>
      </trkpt>
      <trkpt lat="44.97288" lon="5.21113">
        <ele>1146.99</ele>
        <time>2022-10-23T08:40:58Z</time>
      </trkpt>
      <trkpt lat="44.97292" lon="5.21119">
        <ele>1151.32</ele>
        <time>2022-10-23T08:41:09Z</time>
      </trkpt>
      <trkpt lat="44.97292" lon="5.2112">
        <ele>1151.32</ele>
        <time>2022-10-23T08:41:10Z</time>
      </trkpt>
      <trkpt lat="44.97296" lon="5.21122">
        <ele>1149.87</ele>
        <time>2022-10-23T08:41:28Z</time>
      </trkpt>
      <trkpt lat="44.97297" lon="5.21125">
        <ele>1149.87</ele>
        <time>2022-10-23T08:41:50Z</time>
      </trkpt>
      <trkpt lat="44.97297" lon="5.21126">
        <ele>1151.32</ele>
        <time>2022-10-23T08:42:06Z</time>
      </trkpt>
      <trkpt lat="44.97299" lon="5.21126">
        <ele>1149.87</ele>
        <time>2022-10-23T08:42:25Z</time>
      </trkpt>
      <trkpt lat="44.973" lon="5.21125">
        <ele>1150.35</ele>
        <time>2022-10-23T08:42:44Z</time>
      </trkpt>
      <trkpt lat="44.973" lon="5.21118">
        <ele>1157.08</ele>
        <time>2022-10-23T08:52:03Z</time>
      </trkpt>
      <trkpt lat="44.97301" lon="5.2111">
        <ele>1159.01</ele>
        <time>2022-10-23T08:52:17Z</time>
      </trkpt>
      <trkpt lat="44.97301" lon="5.21109">
        <ele>1162.37</ele>
        <time>2022-10-23T08:52:20Z</time>
      </trkpt>
      <trkpt lat="44.97301" lon="5.21108">
        <ele>1162.37</ele>
        <time>2022-10-23T08:52:21Z</time>
      </trkpt>
      <trkpt lat="44.97301" lon="5.21107">
        <ele>1160.93</ele>
        <time>2022-10-23T08:52:24Z</time>
      </trkpt>
      <trkpt lat="44.97303" lon="5.21102">
        <ele>1164.29</ele>
        <time>2022-10-23T08:52:38Z</time>
      </trkpt>
      <trkpt lat="44.97303" lon="5.21101">
        <ele>1164.29</ele>
        <time>2022-10-23T08:52:39Z</time>
      </trkpt>
      <trkpt lat="44.97306" lon="5.21096">
        <ele>1165.74</ele>
        <time>2022-10-23T08:52:53Z</time>
      </trkpt>
      <trkpt lat="44.97307" lon="5.21095">
        <ele>1169.1</ele>
        <time>2022-10-23T08:52:55Z</time>
      </trkpt>
      <trkpt lat="44.97308" lon="5.21088">
        <ele>1170.54</ele>
        <time>2022-10-23T08:53:05Z</time>
      </trkpt>
      <trkpt lat="44.97313" lon="5.21088">
        <ele>1173.43</ele>
        <time>2022-10-23T08:53:15Z</time>
      </trkpt>
      <trkpt lat="44.97318" lon="5.21092">
        <ele>1172.47</ele>
        <time>2022-10-23T08:53:30Z</time>
      </trkpt>
      <trkpt lat="44.97322" lon="5.21095">
        <ele>1169.58</ele>
        <time>2022-10-23T08:53:39Z</time>
      </trkpt>
      <trkpt lat="44.97323" lon="5.21103">
        <ele>1167.18</ele>
        <time>2022-10-23T08:53:50Z</time>
      </trkpt>
      <trkpt lat="44.97325" lon="5.21107">
        <ele>1164.29</ele>
        <time>2022-10-23T08:53:59Z</time>
      </trkpt>
      <trkpt lat="44.97325" lon="5.21107">
        <ele>1164.29</ele>
        <time>2022-10-23T08:54:00Z</time>
      </trkpt>
      <trkpt lat="44.97325" lon="5.21108">
        <ele>1166.22</ele>
        <time>2022-10-23T08:54:02Z</time>
      </trkpt>
      <trkpt lat="44.97326" lon="5.2111">
        <ele>1164.77</ele>
        <time>2022-10-23T08:54:05Z</time>
      </trkpt>
      <trkpt lat="44.97327" lon="5.21114">
        <ele>1162.85</ele>
        <time>2022-10-23T08:54:21Z</time>
      </trkpt>
      <trkpt lat="44.97331" lon="5.2112">
        <ele>1160.45</ele>
        <time>2022-10-23T08:54:39Z</time>
      </trkpt>
      <trkpt lat="44.97335" lon="5.21125">
        <ele>1157.08</ele>
        <time>2022-10-23T08:54:54Z</time>
      </trkpt>
      <trkpt lat="44.97337" lon="5.21129">
        <ele>1156.12</ele>
        <time>2022-10-23T08:55:04Z</time>
      </trkpt>
      <trkpt lat="44.9734" lon="5.21132">
        <ele>1153.24</ele>
        <time>2022-10-23T08:55:13Z</time>
      </trkpt>
      <trkpt lat="44.97342" lon="5.21139">
        <ele>1149.87</ele>
        <time>2022-10-23T08:55:27Z</time>
      </trkpt>
      <trkpt lat="44.97344" lon="5.21146">
        <ele>1147.95</ele>
        <time>2022-10-23T08:55:44Z</time>
      </trkpt>
      <trkpt lat="44.97347" lon="5.21149">
        <ele>1145.55</ele>
        <time>2022-10-23T08:55:59Z</time>
      </trkpt>
      <trkpt lat="44.97351" lon="5.21156">
        <ele>1143.63</ele>
        <time>2022-10-23T08:56:14Z</time>
      </trkpt>
      <trkpt lat="44.97353" lon="5.21159">
        <ele>1140.26</ele>
        <time>2022-10-23T08:56:19Z</time>
      </trkpt>
      <trkpt lat="44.97353" lon="5.21159">
        <ele>1139.3</ele>
        <time>2022-10-23T08:56:21Z</time>
      </trkpt>
      <trkpt lat="44.97354" lon="5.21163">
        <ele>1138.34</ele>
        <time>2022-10-23T08:56:28Z</time>
      </trkpt>
      <trkpt lat="44.97353" lon="5.21169">
        <ele>1135.94</ele>
        <time>2022-10-23T08:56:47Z</time>
      </trkpt>
      <trkpt lat="44.97357" lon="5.21175">
        <ele>1134.97</ele>
        <time>2022-10-23T08:57:02Z</time>
      </trkpt>
      <trkpt lat="44.97359" lon="5.21181">
        <ele>1131.61</ele>
        <time>2022-10-23T08:57:11Z</time>
      </trkpt>
      <trkpt lat="44.97364" lon="5.21188">
        <ele>1129.21</ele>
        <time>2022-10-23T08:57:25Z</time>
      </trkpt>
      <trkpt lat="44.97368" lon="5.21201">
        <ele>1126.32</ele>
        <time>2022-10-23T08:57:37Z</time>
      </trkpt>
      <trkpt lat="44.97371" lon="5.21209">
        <ele>1124.4</ele>
        <time>2022-10-23T08:57:50Z</time>
      </trkpt>
      <trkpt lat="44.97377" lon="5.21218">
        <ele>1122</ele>
        <time>2022-10-23T08:58:05Z</time>
      </trkpt>
      <trkpt lat="44.97381" lon="5.2122">
        <ele>1122.96</ele>
        <time>2022-10-23T08:58:17Z</time>
      </trkpt>
      <trkpt lat="44.97388" lon="5.21223">
        <ele>1125.36</ele>
        <time>2022-10-23T08:58:33Z</time>
      </trkpt>
      <trkpt lat="44.97389" lon="5.21224">
        <ele>1125.36</ele>
        <time>2022-10-23T08:58:34Z</time>
      </trkpt>
      <trkpt lat="44.97401" lon="5.21231">
        <ele>1127.76</ele>
        <time>2022-10-23T08:58:47Z</time>
      </trkpt>
      <trkpt lat="44.97407" lon="5.21232">
        <ele>1130.17</ele>
        <time>2022-10-23T08:58:53Z</time>
      </trkpt>
      <trkpt lat="44.97408" lon="5.21233">
        <ele>1130.17</ele>
        <time>2022-10-23T08:58:54Z</time>
      </trkpt>
      <trkpt lat="44.97415" lon="5.21237">
        <ele>1128.73</ele>
        <time>2022-10-23T08:59:01Z</time>
      </trkpt>
      <trkpt lat="44.97416" lon="5.21237">
        <ele>1130.65</ele>
        <time>2022-10-23T08:59:03Z</time>
      </trkpt>
      <trkpt lat="44.97418" lon="5.21238">
        <ele>1129.21</ele>
        <time>2022-10-23T08:59:05Z</time>
      </trkpt>
      <trkpt lat="44.9742" lon="5.21238">
        <ele>1130.65</ele>
        <time>2022-10-23T08:59:08Z</time>
      </trkpt>
      <trkpt lat="44.97422" lon="5.2124">
        <ele>1134.01</ele>
        <time>2022-10-23T08:59:11Z</time>
      </trkpt>
      <trkpt lat="44.97425" lon="5.21243">
        <ele>1131.61</ele>
        <time>2022-10-23T08:59:15Z</time>
      </trkpt>
      <trkpt lat="44.97428" lon="5.21247">
        <ele>1133.05</ele>
        <time>2022-10-23T08:59:20Z</time>
      </trkpt>
      <trkpt lat="44.97435" lon="5.21253">
        <ele>1135.94</ele>
        <time>2022-10-23T08:59:30Z</time>
      </trkpt>
      <trkpt lat="44.97435" lon="5.21254">
        <ele>1135.94</ele>
        <time>2022-10-23T08:59:31Z</time>
      </trkpt>
      <trkpt lat="44.97437" lon="5.21255">
        <ele>1133.53</ele>
        <time>2022-10-23T08:59:33Z</time>
      </trkpt>
      <trkpt lat="44.97444" lon="5.21263">
        <ele>1135.94</ele>
        <time>2022-10-23T08:59:47Z</time>
      </trkpt>
      <trkpt lat="44.97449" lon="5.21265">
        <ele>1138.34</ele>
        <time>2022-10-23T08:59:55Z</time>
      </trkpt>
      <trkpt lat="44.97455" lon="5.21272">
        <ele>1141.22</ele>
        <time>2022-10-23T09:00:09Z</time>
      </trkpt>
      <trkpt lat="44.97458" lon="5.21276">
        <ele>1139.78</ele>
        <time>2022-10-23T09:00:21Z</time>
      </trkpt>
      <trkpt lat="44.97462" lon="5.21282">
        <ele>1140.26</ele>
        <time>2022-10-23T09:00:38Z</time>
      </trkpt>
      <trkpt lat="44.97464" lon="5.21293">
        <ele>1136.9</ele>
        <time>2022-10-23T09:00:50Z</time>
      </trkpt>
      <trkpt lat="44.97464" lon="5.21295">
        <ele>1136.9</ele>
        <time>2022-10-23T09:00:51Z</time>
      </trkpt>
      <trkpt lat="44.97472" lon="5.21305">
        <ele>1136.42</ele>
        <time>2022-10-23T09:01:04Z</time>
      </trkpt>
      <trkpt lat="44.97474" lon="5.21309">
        <ele>1137.86</ele>
        <time>2022-10-23T09:01:08Z</time>
      </trkpt>
      <trkpt lat="44.97484" lon="5.21319">
        <ele>1137.86</ele>
        <time>2022-10-23T09:01:23Z</time>
      </trkpt>
      <trkpt lat="44.9749" lon="5.21328">
        <ele>1136.42</ele>
        <time>2022-10-23T09:01:33Z</time>
      </trkpt>
      <trkpt lat="44.97492" lon="5.2133">
        <ele>1138.34</ele>
        <time>2022-10-23T09:01:35Z</time>
      </trkpt>
      <trkpt lat="44.975" lon="5.21343">
        <ele>1135.45</ele>
        <time>2022-10-23T09:01:51Z</time>
      </trkpt>
      <trkpt lat="44.97505" lon="5.21348">
        <ele>1136.9</ele>
        <time>2022-10-23T09:01:59Z</time>
      </trkpt>
      <trkpt lat="44.97513" lon="5.21361">
        <ele>1135.45</ele>
        <time>2022-10-23T09:02:10Z</time>
      </trkpt>
      <trkpt lat="44.97521" lon="5.21373">
        <ele>1135.45</ele>
        <time>2022-10-23T09:02:25Z</time>
      </trkpt>
      <trkpt lat="44.97529" lon="5.21388">
        <ele>1135.94</ele>
        <time>2022-10-23T09:02:39Z</time>
      </trkpt>
      <trkpt lat="44.97533" lon="5.21394">
        <ele>1134.01</ele>
        <time>2022-10-23T09:02:45Z</time>
      </trkpt>
      <trkpt lat="44.97539" lon="5.21398">
        <ele>1135.45</ele>
        <time>2022-10-23T09:02:51Z</time>
      </trkpt>
      <trkpt lat="44.97546" lon="5.21404">
        <ele>1138.34</ele>
        <time>2022-10-23T09:02:59Z</time>
      </trkpt>
      <trkpt lat="44.97549" lon="5.21407">
        <ele>1136.42</ele>
        <time>2022-10-23T09:03:03Z</time>
      </trkpt>
      <trkpt lat="44.97557" lon="5.21411">
        <ele>1137.86</ele>
        <time>2022-10-23T09:03:11Z</time>
      </trkpt>
      <trkpt lat="44.97566" lon="5.21416">
        <ele>1137.86</ele>
        <time>2022-10-23T09:03:21Z</time>
      </trkpt>
      <trkpt lat="44.97573" lon="5.21429">
        <ele>1137.38</ele>
        <time>2022-10-23T09:03:34Z</time>
      </trkpt>
      <trkpt lat="44.97575" lon="5.21431">
        <ele>1138.82</ele>
        <time>2022-10-23T09:03:38Z</time>
      </trkpt>
      <trkpt lat="44.97584" lon="5.21439">
        <ele>1140.74</ele>
        <time>2022-10-23T09:03:52Z</time>
      </trkpt>
      <trkpt lat="44.97592" lon="5.21454">
        <ele>1139.78</ele>
        <time>2022-10-23T09:04:06Z</time>
      </trkpt>
      <trkpt lat="44.976" lon="5.21474">
        <ele>1138.82</ele>
        <time>2022-10-23T09:04:22Z</time>
      </trkpt>
      <trkpt lat="44.97607" lon="5.2149">
        <ele>1138.34</ele>
        <time>2022-10-23T09:04:37Z</time>
      </trkpt>
      <trkpt lat="44.97614" lon="5.21501">
        <ele>1137.86</ele>
        <time>2022-10-23T09:04:51Z</time>
      </trkpt>
      <trkpt lat="44.97621" lon="5.21512">
        <ele>1138.82</ele>
        <time>2022-10-23T09:05:04Z</time>
      </trkpt>
      <trkpt lat="44.97633" lon="5.21516">
        <ele>1140.26</ele>
        <time>2022-10-23T09:05:18Z</time>
      </trkpt>
      <trkpt lat="44.9764" lon="5.21523">
        <ele>1139.78</ele>
        <time>2022-10-23T09:05:30Z</time>
      </trkpt>
      <trkpt lat="44.9765" lon="5.21534">
        <ele>1139.78</ele>
        <time>2022-10-23T09:05:46Z</time>
      </trkpt>
      <trkpt lat="44.97651" lon="5.21535">
        <ele>1141.22</ele>
        <time>2022-10-23T09:05:48Z</time>
      </trkpt>
      <trkpt lat="44.97656" lon="5.21545">
        <ele>1138.34</ele>
        <time>2022-10-23T09:05:57Z</time>
      </trkpt>
      <trkpt lat="44.97664" lon="5.21556">
        <ele>1136.42</ele>
        <time>2022-10-23T09:06:12Z</time>
      </trkpt>
      <trkpt lat="44.97667" lon="5.21567">
        <ele>1135.94</ele>
        <time>2022-10-23T09:06:26Z</time>
      </trkpt>
      <trkpt lat="44.97668" lon="5.21569">
        <ele>1135.94</ele>
        <time>2022-10-23T09:06:28Z</time>
      </trkpt>
      <trkpt lat="44.97671" lon="5.21574">
        <ele>1134.49</ele>
        <time>2022-10-23T09:06:34Z</time>
      </trkpt>
      <trkpt lat="44.97675" lon="5.21587">
        <ele>1131.13</ele>
        <time>2022-10-23T09:06:46Z</time>
      </trkpt>
      <trkpt lat="44.97679" lon="5.21599">
        <ele>1128.73</ele>
        <time>2022-10-23T09:06:59Z</time>
      </trkpt>
      <trkpt lat="44.9768" lon="5.21599">
        <ele>1128.73</ele>
        <time>2022-10-23T09:07:00Z</time>
      </trkpt>
      <trkpt lat="44.97681" lon="5.21601">
        <ele>1130.17</ele>
        <time>2022-10-23T09:07:06Z</time>
      </trkpt>
      <trkpt lat="44.97681" lon="5.21603">
        <ele>1131.61</ele>
        <time>2022-10-23T09:09:53Z</time>
      </trkpt>
      <trkpt lat="44.97687" lon="5.21604">
        <ele>1131.61</ele>
        <time>2022-10-23T09:10:01Z</time>
      </trkpt>
      <trkpt lat="44.97689" lon="5.21604">
        <ele>1130.65</ele>
        <time>2022-10-23T09:10:05Z</time>
      </trkpt>
      <trkpt lat="44.97695" lon="5.21605">
        <ele>1129.21</ele>
        <time>2022-10-23T09:10:19Z</time>
      </trkpt>
      <trkpt lat="44.97697" lon="5.216">
        <ele>1133.53</ele>
        <time>2022-10-23T09:10:25Z</time>
      </trkpt>
      <trkpt lat="44.97697" lon="5.216">
        <ele>1136.9</ele>
        <time>2022-10-23T09:10:26Z</time>
      </trkpt>
      <trkpt lat="44.97698" lon="5.216">
        <ele>1136.9</ele>
        <time>2022-10-23T09:10:27Z</time>
      </trkpt>
      <trkpt lat="44.97699" lon="5.21599">
        <ele>1134.49</ele>
        <time>2022-10-23T09:10:31Z</time>
      </trkpt>
      <trkpt lat="44.97702" lon="5.21595">
        <ele>1135.45</ele>
        <time>2022-10-23T09:10:37Z</time>
      </trkpt>
      <trkpt lat="44.97703" lon="5.21592">
        <ele>1138.34</ele>
        <time>2022-10-23T09:10:43Z</time>
      </trkpt>
      <trkpt lat="44.97707" lon="5.21591">
        <ele>1141.7</ele>
        <time>2022-10-23T09:10:49Z</time>
      </trkpt>
      <trkpt lat="44.97714" lon="5.21599">
        <ele>1142.66</ele>
        <time>2022-10-23T09:11:03Z</time>
      </trkpt>
      <trkpt lat="44.97716" lon="5.216">
        <ele>1141.22</ele>
        <time>2022-10-23T09:11:06Z</time>
      </trkpt>
      <trkpt lat="44.9772" lon="5.21607">
        <ele>1138.82</ele>
        <time>2022-10-23T09:11:13Z</time>
      </trkpt>
      <trkpt lat="44.97725" lon="5.21609">
        <ele>1142.18</ele>
        <time>2022-10-23T09:11:19Z</time>
      </trkpt>
      <trkpt lat="44.97726" lon="5.21609">
        <ele>1142.18</ele>
        <time>2022-10-23T09:11:20Z</time>
      </trkpt>
      <trkpt lat="44.97731" lon="5.2161">
        <ele>1144.59</ele>
        <time>2022-10-23T09:11:26Z</time>
      </trkpt>
      <trkpt lat="44.97735" lon="5.21614">
        <ele>1145.07</ele>
        <time>2022-10-23T09:11:36Z</time>
      </trkpt>
      <trkpt lat="44.97736" lon="5.21616">
        <ele>1143.63</ele>
        <time>2022-10-23T09:11:38Z</time>
      </trkpt>
      <trkpt lat="44.97745" lon="5.21631">
        <ele>1142.66</ele>
        <time>2022-10-23T09:11:54Z</time>
      </trkpt>
      <trkpt lat="44.97751" lon="5.21639">
        <ele>1145.55</ele>
        <time>2022-10-23T09:12:06Z</time>
      </trkpt>
      <trkpt lat="44.97752" lon="5.2164">
        <ele>1145.55</ele>
        <time>2022-10-23T09:12:07Z</time>
      </trkpt>
      <trkpt lat="44.97756" lon="5.21646">
        <ele>1142.66</ele>
        <time>2022-10-23T09:12:14Z</time>
      </trkpt>
      <trkpt lat="44.97765" lon="5.21663">
        <ele>1139.78</ele>
        <time>2022-10-23T09:12:31Z</time>
      </trkpt>
      <trkpt lat="44.97771" lon="5.21676">
        <ele>1138.82</ele>
        <time>2022-10-23T09:12:45Z</time>
      </trkpt>
      <trkpt lat="44.9778" lon="5.21686">
        <ele>1140.26</ele>
        <time>2022-10-23T09:12:59Z</time>
      </trkpt>
      <trkpt lat="44.97784" lon="5.217">
        <ele>1137.38</ele>
        <time>2022-10-23T09:13:14Z</time>
      </trkpt>
      <trkpt lat="44.97789" lon="5.21707">
        <ele>1136.42</ele>
        <time>2022-10-23T09:13:29Z</time>
      </trkpt>
      <trkpt lat="44.97791" lon="5.21709">
        <ele>1134.97</ele>
        <time>2022-10-23T09:13:32Z</time>
      </trkpt>
      <trkpt lat="44.97797" lon="5.21714">
        <ele>1136.42</ele>
        <time>2022-10-23T09:13:40Z</time>
      </trkpt>
      <trkpt lat="44.97805" lon="5.21724">
        <ele>1136.42</ele>
        <time>2022-10-23T09:13:55Z</time>
      </trkpt>
      <trkpt lat="44.97816" lon="5.21737">
        <ele>1138.82</ele>
        <time>2022-10-23T09:14:12Z</time>
      </trkpt>
      <trkpt lat="44.97828" lon="5.21746">
        <ele>1140.26</ele>
        <time>2022-10-23T09:14:29Z</time>
      </trkpt>
      <trkpt lat="44.97837" lon="5.21756">
        <ele>1141.22</ele>
        <time>2022-10-23T09:14:42Z</time>
      </trkpt>
      <trkpt lat="44.97845" lon="5.21761">
        <ele>1142.66</ele>
        <time>2022-10-23T09:14:57Z</time>
      </trkpt>
      <trkpt lat="44.97851" lon="5.21766">
        <ele>1140.26</ele>
        <time>2022-10-23T09:15:09Z</time>
      </trkpt>
      <trkpt lat="44.97853" lon="5.21767">
        <ele>1143.63</ele>
        <time>2022-10-23T09:15:11Z</time>
      </trkpt>
      <trkpt lat="44.97857" lon="5.21768">
        <ele>1139.78</ele>
        <time>2022-10-23T09:15:19Z</time>
      </trkpt>
      <trkpt lat="44.97858" lon="5.21768">
        <ele>1143.14</ele>
        <time>2022-10-23T09:15:20Z</time>
      </trkpt>
      <trkpt lat="44.97859" lon="5.21768">
        <ele>1143.14</ele>
        <time>2022-10-23T09:15:21Z</time>
      </trkpt>
      <trkpt lat="44.9786" lon="5.21769">
        <ele>1141.7</ele>
        <time>2022-10-23T09:15:24Z</time>
      </trkpt>
      <trkpt lat="44.97861" lon="5.2177">
        <ele>1142.66</ele>
        <time>2022-10-23T09:15:26Z</time>
      </trkpt>
      <trkpt lat="44.97862" lon="5.21771">
        <ele>1145.07</ele>
        <time>2022-10-23T09:15:30Z</time>
      </trkpt>
      <trkpt lat="44.97864" lon="5.21772">
        <ele>1146.51</ele>
        <time>2022-10-23T09:15:33Z</time>
      </trkpt>
      <trkpt lat="44.9787" lon="5.21775">
        <ele>1150.84</ele>
        <time>2022-10-23T09:15:45Z</time>
      </trkpt>
      <trkpt lat="44.97877" lon="5.21779">
        <ele>1151.32</ele>
        <time>2022-10-23T09:15:55Z</time>
      </trkpt>
      <trkpt lat="44.97885" lon="5.21786">
        <ele>1152.76</ele>
        <time>2022-10-23T09:16:08Z</time>
      </trkpt>
      <trkpt lat="44.97892" lon="5.21795">
        <ele>1152.28</ele>
        <time>2022-10-23T09:16:21Z</time>
      </trkpt>
      <trkpt lat="44.97899" lon="5.21809">
        <ele>1150.84</ele>
        <time>2022-10-23T09:16:36Z</time>
      </trkpt>
      <trkpt lat="44.97905" lon="5.21821">
        <ele>1147.47</ele>
        <time>2022-10-23T09:16:45Z</time>
      </trkpt>
      <trkpt lat="44.97907" lon="5.21825">
        <ele>1148.91</ele>
        <time>2022-10-23T09:16:49Z</time>
      </trkpt>
      <trkpt lat="44.97908" lon="5.21831">
        <ele>1146.51</ele>
        <time>2022-10-23T09:16:57Z</time>
      </trkpt>
      <trkpt lat="44.97911" lon="5.21839">
        <ele>1144.59</ele>
        <time>2022-10-23T09:17:05Z</time>
      </trkpt>
      <trkpt lat="44.9792" lon="5.21854">
        <ele>1145.07</ele>
        <time>2022-10-23T09:17:22Z</time>
      </trkpt>
      <trkpt lat="44.97925" lon="5.21862">
        <ele>1145.55</ele>
        <time>2022-10-23T09:17:32Z</time>
      </trkpt>
      <trkpt lat="44.97926" lon="5.21864">
        <ele>1144.11</ele>
        <time>2022-10-23T09:17:34Z</time>
      </trkpt>
      <trkpt lat="44.97931" lon="5.21868">
        <ele>1144.59</ele>
        <time>2022-10-23T09:17:42Z</time>
      </trkpt>
      <trkpt lat="44.97936" lon="5.21871">
        <ele>1143.14</ele>
        <time>2022-10-23T09:17:49Z</time>
      </trkpt>
      <trkpt lat="44.97938" lon="5.21872">
        <ele>1144.59</ele>
        <time>2022-10-23T09:17:52Z</time>
      </trkpt>
      <trkpt lat="44.97947" lon="5.21877">
        <ele>1147.95</ele>
        <time>2022-10-23T09:18:04Z</time>
      </trkpt>
      <trkpt lat="44.97956" lon="5.2188">
        <ele>1149.39</ele>
        <time>2022-10-23T09:18:18Z</time>
      </trkpt>
      <trkpt lat="44.97965" lon="5.21886">
        <ele>1150.84</ele>
        <time>2022-10-23T09:18:33Z</time>
      </trkpt>
      <trkpt lat="44.9797" lon="5.21888">
        <ele>1153.72</ele>
        <time>2022-10-23T09:18:40Z</time>
      </trkpt>
      <trkpt lat="44.97974" lon="5.21886">
        <ele>1156.6</ele>
        <time>2022-10-23T09:18:49Z</time>
      </trkpt>
      <trkpt lat="44.97979" lon="5.21889">
        <ele>1159.49</ele>
        <time>2022-10-23T09:18:59Z</time>
      </trkpt>
      <trkpt lat="44.97989" lon="5.21897">
        <ele>1159.97</ele>
        <time>2022-10-23T09:19:15Z</time>
      </trkpt>
      <trkpt lat="44.97994" lon="5.21902">
        <ele>1158.53</ele>
        <time>2022-10-23T09:19:23Z</time>
      </trkpt>
      <trkpt lat="44.98" lon="5.21914">
        <ele>1156.6</ele>
        <time>2022-10-23T09:19:39Z</time>
      </trkpt>
      <trkpt lat="44.98008" lon="5.21921">
        <ele>1157.08</ele>
        <time>2022-10-23T09:19:50Z</time>
      </trkpt>
      <trkpt lat="44.9801" lon="5.21922">
        <ele>1159.01</ele>
        <time>2022-10-23T09:19:54Z</time>
      </trkpt>
      <trkpt lat="44.98019" lon="5.21924">
        <ele>1160.45</ele>
        <time>2022-10-23T09:20:12Z</time>
      </trkpt>
      <trkpt lat="44.98027" lon="5.21931">
        <ele>1161.89</ele>
        <time>2022-10-23T09:20:26Z</time>
      </trkpt>
      <trkpt lat="44.98037" lon="5.21937">
        <ele>1164.29</ele>
        <time>2022-10-23T09:20:40Z</time>
      </trkpt>
      <trkpt lat="44.98046" lon="5.21943">
        <ele>1162.85</ele>
        <time>2022-10-23T09:20:52Z</time>
      </trkpt>
      <trkpt lat="44.9805" lon="5.21945">
        <ele>1163.81</ele>
        <time>2022-10-23T09:20:57Z</time>
      </trkpt>
      <trkpt lat="44.98052" lon="5.21947">
        <ele>1165.26</ele>
        <time>2022-10-23T09:21:00Z</time>
      </trkpt>
      <trkpt lat="44.98059" lon="5.21955">
        <ele>1165.26</ele>
        <time>2022-10-23T09:21:13Z</time>
      </trkpt>
      <trkpt lat="44.98068" lon="5.21966">
        <ele>1164.77</ele>
        <time>2022-10-23T09:21:28Z</time>
      </trkpt>
      <trkpt lat="44.9807" lon="5.21968">
        <ele>1162.85</ele>
        <time>2022-10-23T09:21:31Z</time>
      </trkpt>
      <trkpt lat="44.98074" lon="5.21969">
        <ele>1164.29</ele>
        <time>2022-10-23T09:21:36Z</time>
      </trkpt>
      <trkpt lat="44.98075" lon="5.21969">
        <ele>1166.22</ele>
        <time>2022-10-23T09:21:39Z</time>
      </trkpt>
      <trkpt lat="44.98076" lon="5.2197">
        <ele>1164.77</ele>
        <time>2022-10-23T09:21:41Z</time>
      </trkpt>
      <trkpt lat="44.9808" lon="5.2197">
        <ele>1168.14</ele>
        <time>2022-10-23T09:21:48Z</time>
      </trkpt>
      <trkpt lat="44.98081" lon="5.21971">
        <ele>1168.14</ele>
        <time>2022-10-23T09:21:49Z</time>
      </trkpt>
      <trkpt lat="44.98086" lon="5.21972">
        <ele>1167.66</ele>
        <time>2022-10-23T09:21:59Z</time>
      </trkpt>
      <trkpt lat="44.98088" lon="5.21972">
        <ele>1171.5</ele>
        <time>2022-10-23T09:22:04Z</time>
      </trkpt>
      <trkpt lat="44.98089" lon="5.21972">
        <ele>1171.5</ele>
        <time>2022-10-23T09:22:05Z</time>
      </trkpt>
      <trkpt lat="44.981" lon="5.21974">
        <ele>1170.54</ele>
        <time>2022-10-23T09:22:21Z</time>
      </trkpt>
      <trkpt lat="44.98102" lon="5.21974">
        <ele>1171.98</ele>
        <time>2022-10-23T09:22:24Z</time>
      </trkpt>
      <trkpt lat="44.98108" lon="5.21975">
        <ele>1174.39</ele>
        <time>2022-10-23T09:22:32Z</time>
      </trkpt>
      <trkpt lat="44.98109" lon="5.21976">
        <ele>1172.47</ele>
        <time>2022-10-23T09:22:34Z</time>
      </trkpt>
      <trkpt lat="44.9812" lon="5.21985">
        <ele>1172.47</ele>
        <time>2022-10-23T09:22:50Z</time>
      </trkpt>
      <trkpt lat="44.98124" lon="5.21991">
        <ele>1171.98</ele>
        <time>2022-10-23T09:22:58Z</time>
      </trkpt>
      <trkpt lat="44.98129" lon="5.21999">
        <ele>1169.58</ele>
        <time>2022-10-23T09:23:11Z</time>
      </trkpt>
      <trkpt lat="44.98135" lon="5.22012">
        <ele>1166.22</ele>
        <time>2022-10-23T09:23:25Z</time>
      </trkpt>
      <trkpt lat="44.98143" lon="5.22021">
        <ele>1163.33</ele>
        <time>2022-10-23T09:23:39Z</time>
      </trkpt>
      <trkpt lat="44.98151" lon="5.22027">
        <ele>1161.89</ele>
        <time>2022-10-23T09:23:51Z</time>
      </trkpt>
      <trkpt lat="44.98153" lon="5.22028">
        <ele>1163.33</ele>
        <time>2022-10-23T09:23:54Z</time>
      </trkpt>
      <trkpt lat="44.98157" lon="5.22034">
        <ele>1162.85</ele>
        <time>2022-10-23T09:30:51Z</time>
      </trkpt>
      <trkpt lat="44.98159" lon="5.22037">
        <ele>1163.33</ele>
        <time>2022-10-23T09:31:06Z</time>
      </trkpt>
      <trkpt lat="44.98162" lon="5.22041">
        <ele>1161.89</ele>
        <time>2022-10-23T09:31:10Z</time>
      </trkpt>
      <trkpt lat="44.98168" lon="5.22049">
        <ele>1160.45</ele>
        <time>2022-10-23T09:31:20Z</time>
      </trkpt>
      <trkpt lat="44.98178" lon="5.22056">
        <ele>1160.93</ele>
        <time>2022-10-23T09:31:32Z</time>
      </trkpt>
      <trkpt lat="44.98182" lon="5.22061">
        <ele>1159.97</ele>
        <time>2022-10-23T09:31:45Z</time>
      </trkpt>
      <trkpt lat="44.98191" lon="5.22071">
        <ele>1157.56</ele>
        <time>2022-10-23T09:31:58Z</time>
      </trkpt>
      <trkpt lat="44.98198" lon="5.22082">
        <ele>1156.12</ele>
        <time>2022-10-23T09:32:10Z</time>
      </trkpt>
      <trkpt lat="44.98199" lon="5.22082">
        <ele>1155.64</ele>
        <time>2022-10-23T09:32:11Z</time>
      </trkpt>
      <trkpt lat="44.98204" lon="5.22085">
        <ele>1158.05</ele>
        <time>2022-10-23T09:32:16Z</time>
      </trkpt>
      <trkpt lat="44.98212" lon="5.22087">
        <ele>1159.01</ele>
        <time>2022-10-23T09:32:25Z</time>
      </trkpt>
      <trkpt lat="44.98221" lon="5.22095">
        <ele>1159.01</ele>
        <time>2022-10-23T09:32:38Z</time>
      </trkpt>
      <trkpt lat="44.9823" lon="5.22101">
        <ele>1156.6</ele>
        <time>2022-10-23T09:32:51Z</time>
      </trkpt>
      <trkpt lat="44.98239" lon="5.22109">
        <ele>1155.64</ele>
        <time>2022-10-23T09:33:06Z</time>
      </trkpt>
      <trkpt lat="44.9824" lon="5.2211">
        <ele>1158.05</ele>
        <time>2022-10-23T09:33:08Z</time>
      </trkpt>
      <trkpt lat="44.98248" lon="5.22116">
        <ele>1157.56</ele>
        <time>2022-10-23T09:33:23Z</time>
      </trkpt>
      <trkpt lat="44.98255" lon="5.2212">
        <ele>1157.56</ele>
        <time>2022-10-23T09:33:33Z</time>
      </trkpt>
      <trkpt lat="44.9826" lon="5.22123">
        <ele>1156.12</ele>
        <time>2022-10-23T09:33:41Z</time>
      </trkpt>
      <trkpt lat="44.98262" lon="5.22129">
        <ele>1155.64</ele>
        <time>2022-10-23T09:33:51Z</time>
      </trkpt>
      <trkpt lat="44.98265" lon="5.22137">
        <ele>1152.76</ele>
        <time>2022-10-23T09:34:00Z</time>
      </trkpt>
      <trkpt lat="44.98268" lon="5.22151">
        <ele>1149.39</ele>
        <time>2022-10-23T09:34:12Z</time>
      </trkpt>
      <trkpt lat="44.98274" lon="5.22163">
        <ele>1149.39</ele>
        <time>2022-10-23T09:34:23Z</time>
      </trkpt>
      <trkpt lat="44.9828" lon="5.22176">
        <ele>1146.03</ele>
        <time>2022-10-23T09:34:37Z</time>
      </trkpt>
      <trkpt lat="44.98292" lon="5.2219">
        <ele>1146.51</ele>
        <time>2022-10-23T09:34:50Z</time>
      </trkpt>
      <trkpt lat="44.98303" lon="5.22199">
        <ele>1150.35</ele>
        <time>2022-10-23T09:35:03Z</time>
      </trkpt>
      <trkpt lat="44.98309" lon="5.22204">
        <ele>1152.76</ele>
        <time>2022-10-23T09:35:16Z</time>
      </trkpt>
      <trkpt lat="44.98313" lon="5.22205">
        <ele>1152.76</ele>
        <time>2022-10-23T09:35:22Z</time>
      </trkpt>
      <trkpt lat="44.98317" lon="5.22204">
        <ele>1154.2</ele>
        <time>2022-10-23T09:35:29Z</time>
      </trkpt>
      <trkpt lat="44.9832" lon="5.22205">
        <ele>1153.24</ele>
        <time>2022-10-23T09:35:34Z</time>
      </trkpt>
      <trkpt lat="44.98324" lon="5.22206">
        <ele>1154.68</ele>
        <time>2022-10-23T09:35:44Z</time>
      </trkpt>
      <trkpt lat="44.98332" lon="5.22206">
        <ele>1157.08</ele>
        <time>2022-10-23T09:36:02Z</time>
      </trkpt>
      <trkpt lat="44.98334" lon="5.22207">
        <ele>1158.53</ele>
        <time>2022-10-23T09:36:06Z</time>
      </trkpt>
      <trkpt lat="44.9834" lon="5.2221">
        <ele>1160.45</ele>
        <time>2022-10-23T09:36:21Z</time>
      </trkpt>
      <trkpt lat="44.98345" lon="5.22212">
        <ele>1160.93</ele>
        <time>2022-10-23T09:36:34Z</time>
      </trkpt>
      <trkpt lat="44.98347" lon="5.2221">
        <ele>1164.29</ele>
        <time>2022-10-23T09:36:44Z</time>
      </trkpt>
      <trkpt lat="44.98349" lon="5.2221">
        <ele>1165.74</ele>
        <time>2022-10-23T09:36:50Z</time>
      </trkpt>
      <trkpt lat="44.98353" lon="5.22213">
        <ele>1167.18</ele>
        <time>2022-10-23T09:37:04Z</time>
      </trkpt>
      <trkpt lat="44.98355" lon="5.22212">
        <ele>1170.06</ele>
        <time>2022-10-23T09:37:14Z</time>
      </trkpt>
      <trkpt lat="44.98356" lon="5.22212">
        <ele>1170.06</ele>
        <time>2022-10-23T09:37:15Z</time>
      </trkpt>
      <trkpt lat="44.9836" lon="5.22213">
        <ele>1171.98</ele>
        <time>2022-10-23T09:37:26Z</time>
      </trkpt>
      <trkpt lat="44.98367" lon="5.22216">
        <ele>1174.39</ele>
        <time>2022-10-23T09:37:43Z</time>
      </trkpt>
      <trkpt lat="44.98374" lon="5.22221">
        <ele>1177.27</ele>
        <time>2022-10-23T09:37:57Z</time>
      </trkpt>
      <trkpt lat="44.98376" lon="5.22223">
        <ele>1180.64</ele>
        <time>2022-10-23T09:38:06Z</time>
      </trkpt>
      <trkpt lat="44.98377" lon="5.22222">
        <ele>1181.6</ele>
        <time>2022-10-23T09:38:08Z</time>
      </trkpt>
      <trkpt lat="44.98381" lon="5.22219">
        <ele>1185.44</ele>
        <time>2022-10-23T09:38:18Z</time>
      </trkpt>
      <trkpt lat="44.98382" lon="5.2222">
        <ele>1183.52</ele>
        <time>2022-10-23T09:38:22Z</time>
      </trkpt>
      <trkpt lat="44.98385" lon="5.22221">
        <ele>1185.44</ele>
        <time>2022-10-23T09:38:28Z</time>
      </trkpt>
      <trkpt lat="44.98388" lon="5.22222">
        <ele>1186.4</ele>
        <time>2022-10-23T09:38:39Z</time>
      </trkpt>
      <trkpt lat="44.98391" lon="5.22227">
        <ele>1184.48</ele>
        <time>2022-10-23T09:38:54Z</time>
      </trkpt>
      <trkpt lat="44.98391" lon="5.22228">
        <ele>1184.48</ele>
        <time>2022-10-23T09:38:55Z</time>
      </trkpt>
      <trkpt lat="44.98394" lon="5.22238">
        <ele>1185.44</ele>
        <time>2022-10-23T09:39:09Z</time>
      </trkpt>
      <trkpt lat="44.98396" lon="5.22243">
        <ele>1186.88</ele>
        <time>2022-10-23T09:39:17Z</time>
      </trkpt>
      <trkpt lat="44.98401" lon="5.22252">
        <ele>1187.37</ele>
        <time>2022-10-23T09:39:30Z</time>
      </trkpt>
      <trkpt lat="44.98404" lon="5.2226">
        <ele>1189.77</ele>
        <time>2022-10-23T09:39:39Z</time>
      </trkpt>
      <trkpt lat="44.98405" lon="5.22261">
        <ele>1188.33</ele>
        <time>2022-10-23T09:39:42Z</time>
      </trkpt>
      <trkpt lat="44.98407" lon="5.22265">
        <ele>1188.33</ele>
        <time>2022-10-23T09:39:57Z</time>
      </trkpt>
      <trkpt lat="44.98411" lon="5.22273">
        <ele>1187.85</ele>
        <time>2022-10-23T09:40:09Z</time>
      </trkpt>
      <trkpt lat="44.98416" lon="5.22278">
        <ele>1189.29</ele>
        <time>2022-10-23T09:40:19Z</time>
      </trkpt>
      <trkpt lat="44.98423" lon="5.22288">
        <ele>1191.21</ele>
        <time>2022-10-23T09:40:39Z</time>
      </trkpt>
      <trkpt lat="44.98435" lon="5.223">
        <ele>1192.65</ele>
        <time>2022-10-23T09:40:54Z</time>
      </trkpt>
      <trkpt lat="44.98441" lon="5.2231">
        <ele>1195.54</ele>
        <time>2022-10-23T09:41:09Z</time>
      </trkpt>
      <trkpt lat="44.98447" lon="5.22318">
        <ele>1195.54</ele>
        <time>2022-10-23T09:41:22Z</time>
      </trkpt>
      <trkpt lat="44.98456" lon="5.22321">
        <ele>1196.5</ele>
        <time>2022-10-23T09:41:34Z</time>
      </trkpt>
      <trkpt lat="44.98467" lon="5.22325">
        <ele>1197.94</ele>
        <time>2022-10-23T09:41:49Z</time>
      </trkpt>
      <trkpt lat="44.98472" lon="5.22326">
        <ele>1196.5</ele>
        <time>2022-10-23T09:41:54Z</time>
      </trkpt>
      <trkpt lat="44.98478" lon="5.22333">
        <ele>1199.86</ele>
        <time>2022-10-23T09:42:04Z</time>
      </trkpt>
      <trkpt lat="44.98486" lon="5.22337">
        <ele>1201.79</ele>
        <time>2022-10-23T09:42:14Z</time>
      </trkpt>
      <trkpt lat="44.98491" lon="5.22335">
        <ele>1201.79</ele>
        <time>2022-10-23T09:42:19Z</time>
      </trkpt>
      <trkpt lat="44.98499" lon="5.22341">
        <ele>1204.19</ele>
        <time>2022-10-23T09:42:33Z</time>
      </trkpt>
      <trkpt lat="44.985" lon="5.22343">
        <ele>1202.27</ele>
        <time>2022-10-23T09:42:36Z</time>
      </trkpt>
      <trkpt lat="44.985" lon="5.22346">
        <ele>1204.19</ele>
        <time>2022-10-23T09:42:40Z</time>
      </trkpt>
      <trkpt lat="44.98502" lon="5.22347">
        <ele>1201.79</ele>
        <time>2022-10-23T09:42:43Z</time>
      </trkpt>
      <trkpt lat="44.98502" lon="5.2235">
        <ele>1200.34</ele>
        <time>2022-10-23T09:42:49Z</time>
      </trkpt>
      <trkpt lat="44.98504" lon="5.22353">
        <ele>1200.34</ele>
        <time>2022-10-23T09:42:54Z</time>
      </trkpt>
      <trkpt lat="44.9851" lon="5.22357">
        <ele>1196.5</ele>
        <time>2022-10-23T09:43:06Z</time>
      </trkpt>
      <trkpt lat="44.98514" lon="5.2236">
        <ele>1197.94</ele>
        <time>2022-10-23T09:43:11Z</time>
      </trkpt>
      <trkpt lat="44.98519" lon="5.22363">
        <ele>1196.02</ele>
        <time>2022-10-23T09:43:17Z</time>
      </trkpt>
      <trkpt lat="44.98528" lon="5.22371">
        <ele>1192.65</ele>
        <time>2022-10-23T09:43:29Z</time>
      </trkpt>
      <trkpt lat="44.98535" lon="5.2238">
        <ele>1191.21</ele>
        <time>2022-10-23T09:43:41Z</time>
      </trkpt>
      <trkpt lat="44.98536" lon="5.22396">
        <ele>1189.29</ele>
        <time>2022-10-23T09:43:56Z</time>
      </trkpt>
      <trkpt lat="44.98536" lon="5.22401">
        <ele>1190.73</ele>
        <time>2022-10-23T09:44:03Z</time>
      </trkpt>
      <trkpt lat="44.98538" lon="5.22411">
        <ele>1192.65</ele>
        <time>2022-10-23T09:50:26Z</time>
      </trkpt>
      <trkpt lat="44.98544" lon="5.22421">
        <ele>1190.73</ele>
        <time>2022-10-23T09:50:35Z</time>
      </trkpt>
      <trkpt lat="44.98547" lon="5.22433">
        <ele>1192.17</ele>
        <time>2022-10-23T09:50:43Z</time>
      </trkpt>
      <trkpt lat="44.98558" lon="5.22448">
        <ele>1194.09</ele>
        <time>2022-10-23T09:50:58Z</time>
      </trkpt>
      <trkpt lat="44.98571" lon="5.22455">
        <ele>1195.54</ele>
        <time>2022-10-23T09:51:12Z</time>
      </trkpt>
      <trkpt lat="44.9858" lon="5.22455">
        <ele>1197.94</ele>
        <time>2022-10-23T09:51:20Z</time>
      </trkpt>
      <trkpt lat="44.98593" lon="5.22443">
        <ele>1199.86</ele>
        <time>2022-10-23T09:51:35Z</time>
      </trkpt>
      <trkpt lat="44.98601" lon="5.2243">
        <ele>1202.27</ele>
        <time>2022-10-23T09:51:49Z</time>
      </trkpt>
      <trkpt lat="44.98611" lon="5.22423">
        <ele>1204.67</ele>
        <time>2022-10-23T09:52:02Z</time>
      </trkpt>
      <trkpt lat="44.98616" lon="5.22424">
        <ele>1205.15</ele>
        <time>2022-10-23T09:52:09Z</time>
      </trkpt>
      <trkpt lat="44.98628" lon="5.22428">
        <ele>1206.11</ele>
        <time>2022-10-23T09:52:21Z</time>
      </trkpt>
      <trkpt lat="44.9864" lon="5.22428">
        <ele>1209</ele>
        <time>2022-10-23T09:52:34Z</time>
      </trkpt>
      <trkpt lat="44.98655" lon="5.22429">
        <ele>1210.92</ele>
        <time>2022-10-23T09:52:48Z</time>
      </trkpt>
      <trkpt lat="44.98658" lon="5.22429">
        <ele>1211.4</ele>
        <time>2022-10-23T09:52:51Z</time>
      </trkpt>
      <trkpt lat="44.98662" lon="5.22429">
        <ele>1211.88</ele>
        <time>2022-10-23T09:52:55Z</time>
      </trkpt>
      <trkpt lat="44.98677" lon="5.22428">
        <ele>1212.36</ele>
        <time>2022-10-23T09:53:08Z</time>
      </trkpt>
      <trkpt lat="44.98692" lon="5.22418">
        <ele>1211.88</ele>
        <time>2022-10-23T09:53:22Z</time>
      </trkpt>
      <trkpt lat="44.98709" lon="5.22411">
        <ele>1209</ele>
        <time>2022-10-23T09:53:38Z</time>
      </trkpt>
      <trkpt lat="44.98711" lon="5.22411">
        <ele>1210.44</ele>
        <time>2022-10-23T09:53:40Z</time>
      </trkpt>
      <trkpt lat="44.98722" lon="5.2241">
        <ele>1211.4</ele>
        <time>2022-10-23T09:53:54Z</time>
      </trkpt>
      <trkpt lat="44.98734" lon="5.22418">
        <ele>1212.36</ele>
        <time>2022-10-23T09:54:07Z</time>
      </trkpt>
      <trkpt lat="44.98735" lon="5.2242">
        <ele>1212.36</ele>
        <time>2022-10-23T09:54:09Z</time>
      </trkpt>
      <trkpt lat="44.98745" lon="5.22427">
        <ele>1213.8</ele>
        <time>2022-10-23T09:54:20Z</time>
      </trkpt>
      <trkpt lat="44.98756" lon="5.22431">
        <ele>1214.28</ele>
        <time>2022-10-23T09:54:33Z</time>
      </trkpt>
      <trkpt lat="44.98758" lon="5.22434">
        <ele>1214.28</ele>
        <time>2022-10-23T09:54:36Z</time>
      </trkpt>
      <trkpt lat="44.98767" lon="5.2246">
        <ele>1215.24</ele>
        <time>2022-10-23T09:54:54Z</time>
      </trkpt>
      <trkpt lat="44.98777" lon="5.2247">
        <ele>1218.13</ele>
        <time>2022-10-23T09:55:06Z</time>
      </trkpt>
      <trkpt lat="44.98778" lon="5.22471">
        <ele>1218.13</ele>
        <time>2022-10-23T09:55:07Z</time>
      </trkpt>
      <trkpt lat="44.98787" lon="5.22472">
        <ele>1217.17</ele>
        <time>2022-10-23T09:55:21Z</time>
      </trkpt>
      <trkpt lat="44.9879" lon="5.22473">
        <ele>1219.09</ele>
        <time>2022-10-23T09:55:27Z</time>
      </trkpt>
      <trkpt lat="44.98801" lon="5.22474">
        <ele>1220.05</ele>
        <time>2022-10-23T09:55:44Z</time>
      </trkpt>
      <trkpt lat="44.98807" lon="5.22473">
        <ele>1220.05</ele>
        <time>2022-10-23T09:55:51Z</time>
      </trkpt>
      <trkpt lat="44.98818" lon="5.22466">
        <ele>1220.05</ele>
        <time>2022-10-23T09:56:06Z</time>
      </trkpt>
      <trkpt lat="44.98819" lon="5.22467">
        <ele>1219.09</ele>
        <time>2022-10-23T09:56:08Z</time>
      </trkpt>
      <trkpt lat="44.98823" lon="5.22467">
        <ele>1215.72</ele>
        <time>2022-10-23T09:56:26Z</time>
      </trkpt>
      <trkpt lat="44.98828" lon="5.22474">
        <ele>1214.28</ele>
        <time>2022-10-23T09:56:38Z</time>
      </trkpt>
      <trkpt lat="44.98829" lon="5.22477">
        <ele>1215.24</ele>
        <time>2022-10-23T09:56:48Z</time>
      </trkpt>
      <trkpt lat="44.98829" lon="5.22484">
        <ele>1213.32</ele>
        <time>2022-10-23T09:58:24Z</time>
      </trkpt>
      <trkpt lat="44.98848" lon="5.22493">
        <ele>1210.92</ele>
        <time>2022-10-23T09:58:41Z</time>
      </trkpt>
      <trkpt lat="44.98862" lon="5.22501">
        <ele>1209.96</ele>
        <time>2022-10-23T09:58:56Z</time>
      </trkpt>
      <trkpt lat="44.98871" lon="5.2251">
        <ele>1211.88</ele>
        <time>2022-10-23T09:59:18Z</time>
      </trkpt>
      <trkpt lat="44.98881" lon="5.22519">
        <ele>1211.88</ele>
        <time>2022-10-23T09:59:31Z</time>
      </trkpt>
      <trkpt lat="44.98886" lon="5.22522">
        <ele>1211.88</ele>
        <time>2022-10-23T09:59:38Z</time>
      </trkpt>
      <trkpt lat="44.98899" lon="5.22519">
        <ele>1210.92</ele>
        <time>2022-10-23T09:59:52Z</time>
      </trkpt>
      <trkpt lat="44.98911" lon="5.22522">
        <ele>1207.55</ele>
        <time>2022-10-23T10:00:06Z</time>
      </trkpt>
      <trkpt lat="44.98924" lon="5.22529">
        <ele>1206.11</ele>
        <time>2022-10-23T10:00:19Z</time>
      </trkpt>
      <trkpt lat="44.98929" lon="5.22536">
        <ele>1205.63</ele>
        <time>2022-10-23T10:00:32Z</time>
      </trkpt>
      <trkpt lat="44.98937" lon="5.22545">
        <ele>1203.71</ele>
        <time>2022-10-23T10:00:47Z</time>
      </trkpt>
      <trkpt lat="44.98943" lon="5.2256">
        <ele>1201.79</ele>
        <time>2022-10-23T10:01:03Z</time>
      </trkpt>
      <trkpt lat="44.98949" lon="5.2258">
        <ele>1200.34</ele>
        <time>2022-10-23T10:01:18Z</time>
      </trkpt>
      <trkpt lat="44.98953" lon="5.22586">
        <ele>1199.38</ele>
        <time>2022-10-23T10:01:24Z</time>
      </trkpt>
      <trkpt lat="44.98965" lon="5.22588">
        <ele>1195.54</ele>
        <time>2022-10-23T10:01:37Z</time>
      </trkpt>
      <trkpt lat="44.98977" lon="5.22583">
        <ele>1193.61</ele>
        <time>2022-10-23T10:01:50Z</time>
      </trkpt>
      <trkpt lat="44.9898" lon="5.22584">
        <ele>1195.06</ele>
        <time>2022-10-23T10:02:09Z</time>
      </trkpt>
      <trkpt lat="44.9898" lon="5.22594">
        <ele>1193.61</ele>
        <time>2022-10-23T10:02:18Z</time>
      </trkpt>
      <trkpt lat="44.98984" lon="5.22609">
        <ele>1190.25</ele>
        <time>2022-10-23T10:02:31Z</time>
      </trkpt>
      <trkpt lat="44.98994" lon="5.22616">
        <ele>1188.81</ele>
        <time>2022-10-23T10:02:44Z</time>
      </trkpt>
      <trkpt lat="44.98997" lon="5.22616">
        <ele>1190.25</ele>
        <time>2022-10-23T10:02:47Z</time>
      </trkpt>
      <trkpt lat="44.99001" lon="5.22615">
        <ele>1188.33</ele>
        <time>2022-10-23T10:02:51Z</time>
      </trkpt>
      <trkpt lat="44.99004" lon="5.22614">
        <ele>1186.4</ele>
        <time>2022-10-23T10:02:54Z</time>
      </trkpt>
      <trkpt lat="44.99014" lon="5.22611">
        <ele>1183.52</ele>
        <time>2022-10-23T10:03:03Z</time>
      </trkpt>
      <trkpt lat="44.99024" lon="5.22616">
        <ele>1181.6</ele>
        <time>2022-10-23T10:03:16Z</time>
      </trkpt>
      <trkpt lat="44.99034" lon="5.22621">
        <ele>1179.67</ele>
        <time>2022-10-23T10:03:30Z</time>
      </trkpt>
      <trkpt lat="44.99049" lon="5.22624">
        <ele>1178.23</ele>
        <time>2022-10-23T10:03:44Z</time>
      </trkpt>
      <trkpt lat="44.99065" lon="5.22631">
        <ele>1177.75</ele>
        <time>2022-10-23T10:04:00Z</time>
      </trkpt>
      <trkpt lat="44.99076" lon="5.22636">
        <ele>1176.79</ele>
        <time>2022-10-23T10:04:13Z</time>
      </trkpt>
      <trkpt lat="44.99078" lon="5.22637">
        <ele>1178.23</ele>
        <time>2022-10-23T10:04:16Z</time>
      </trkpt>
      <trkpt lat="44.9909" lon="5.22642">
        <ele>1181.12</ele>
        <time>2022-10-23T10:04:34Z</time>
      </trkpt>
      <trkpt lat="44.99097" lon="5.22644">
        <ele>1183.52</ele>
        <time>2022-10-23T10:04:47Z</time>
      </trkpt>
      <trkpt lat="44.99104" lon="5.22632">
        <ele>1186.4</ele>
        <time>2022-10-23T10:05:03Z</time>
      </trkpt>
      <trkpt lat="44.9911" lon="5.22623">
        <ele>1189.77</ele>
        <time>2022-10-23T10:05:16Z</time>
      </trkpt>
      <trkpt lat="44.99114" lon="5.22614">
        <ele>1190.73</ele>
        <time>2022-10-23T10:05:30Z</time>
      </trkpt>
      <trkpt lat="44.99116" lon="5.2261">
        <ele>1194.09</ele>
        <time>2022-10-23T10:05:40Z</time>
      </trkpt>
      <trkpt lat="44.99116" lon="5.22608">
        <ele>1195.54</ele>
        <time>2022-10-23T10:05:43Z</time>
      </trkpt>
      <trkpt lat="44.99117" lon="5.22607">
        <ele>1196.5</ele>
        <time>2022-10-23T10:05:45Z</time>
      </trkpt>
      <trkpt lat="44.99125" lon="5.22601">
        <ele>1198.42</ele>
        <time>2022-10-23T10:06:00Z</time>
      </trkpt>
      <trkpt lat="44.99131" lon="5.22602">
        <ele>1201.3</ele>
        <time>2022-10-23T10:06:14Z</time>
      </trkpt>
      <trkpt lat="44.99135" lon="5.22607">
        <ele>1204.67</ele>
        <time>2022-10-23T10:06:30Z</time>
      </trkpt>
      <trkpt lat="44.99135" lon="5.22607">
        <ele>1204.67</ele>
        <time>2022-10-23T10:06:31Z</time>
      </trkpt>
      <trkpt lat="44.99136" lon="5.22606">
        <ele>1206.11</ele>
        <time>2022-10-23T10:06:34Z</time>
      </trkpt>
      <trkpt lat="44.99137" lon="5.22603">
        <ele>1204.67</ele>
        <time>2022-10-23T10:06:41Z</time>
      </trkpt>
      <trkpt lat="44.99143" lon="5.22603">
        <ele>1207.07</ele>
        <time>2022-10-23T10:06:57Z</time>
      </trkpt>
      <trkpt lat="44.99147" lon="5.2261">
        <ele>1209</ele>
        <time>2022-10-23T10:07:11Z</time>
      </trkpt>
      <trkpt lat="44.99154" lon="5.22619">
        <ele>1210.92</ele>
        <time>2022-10-23T10:07:26Z</time>
      </trkpt>
      <trkpt lat="44.99161" lon="5.22614">
        <ele>1213.8</ele>
        <time>2022-10-23T10:07:41Z</time>
      </trkpt>
      <trkpt lat="44.99165" lon="5.2261">
        <ele>1215.24</ele>
        <time>2022-10-23T10:07:49Z</time>
      </trkpt>
      <trkpt lat="44.99174" lon="5.22604">
        <ele>1217.65</ele>
        <time>2022-10-23T10:08:04Z</time>
      </trkpt>
      <trkpt lat="44.99181" lon="5.22596">
        <ele>1218.61</ele>
        <time>2022-10-23T10:08:19Z</time>
      </trkpt>
      <trkpt lat="44.99184" lon="5.22589">
        <ele>1220.05</ele>
        <time>2022-10-23T10:08:35Z</time>
      </trkpt>
      <trkpt lat="44.99185" lon="5.22586">
        <ele>1222.93</ele>
        <time>2022-10-23T10:09:01Z</time>
      </trkpt>
      <trkpt lat="44.99186" lon="5.22584">
        <ele>1221.49</ele>
        <time>2022-10-23T10:09:07Z</time>
      </trkpt>
      <trkpt lat="44.99185" lon="5.22577">
        <ele>1224.38</ele>
        <time>2022-10-23T10:09:27Z</time>
      </trkpt>
      <trkpt lat="44.99193" lon="5.22579">
        <ele>1226.3</ele>
        <time>2022-10-23T10:09:39Z</time>
      </trkpt>
      <trkpt lat="44.99195" lon="5.22581">
        <ele>1224.86</ele>
        <time>2022-10-23T10:09:43Z</time>
      </trkpt>
      <trkpt lat="44.99199" lon="5.22587">
        <ele>1223.9</ele>
        <time>2022-10-23T10:09:55Z</time>
      </trkpt>
      <trkpt lat="44.992" lon="5.22594">
        <ele>1221.01</ele>
        <time>2022-10-23T10:10:05Z</time>
      </trkpt>
      <trkpt lat="44.99211" lon="5.22607">
        <ele>1219.57</ele>
        <time>2022-10-23T10:10:18Z</time>
      </trkpt>
      <trkpt lat="44.99217" lon="5.22608">
        <ele>1220.05</ele>
        <time>2022-10-23T10:10:32Z</time>
      </trkpt>
      <trkpt lat="44.99222" lon="5.22612">
        <ele>1223.42</ele>
        <time>2022-10-23T10:10:43Z</time>
      </trkpt>
      <trkpt lat="44.99225" lon="5.22615">
        <ele>1222.45</ele>
        <time>2022-10-23T10:10:57Z</time>
      </trkpt>
      <trkpt lat="44.99225" lon="5.22621">
        <ele>1221.01</ele>
        <time>2022-10-23T10:11:20Z</time>
      </trkpt>
      <trkpt lat="44.99229" lon="5.22623">
        <ele>1225.34</ele>
        <time>2022-10-23T10:14:48Z</time>
      </trkpt>
      <trkpt lat="44.99238" lon="5.22628">
        <ele>1225.34</ele>
        <time>2022-10-23T10:15:01Z</time>
      </trkpt>
      <trkpt lat="44.99239" lon="5.22628">
        <ele>1226.78</ele>
        <time>2022-10-23T10:15:03Z</time>
      </trkpt>
      <trkpt lat="44.99241" lon="5.22629">
        <ele>1229.66</ele>
        <time>2022-10-23T10:15:06Z</time>
      </trkpt>
      <trkpt lat="44.99242" lon="5.2263">
        <ele>1229.66</ele>
        <time>2022-10-23T10:15:07Z</time>
      </trkpt>
      <trkpt lat="44.99244" lon="5.22632">
        <ele>1228.22</ele>
        <time>2022-10-23T10:15:09Z</time>
      </trkpt>
      <trkpt lat="44.9925" lon="5.2264">
        <ele>1225.34</ele>
        <time>2022-10-23T10:15:20Z</time>
      </trkpt>
      <trkpt lat="44.99255" lon="5.22643">
        <ele>1226.3</ele>
        <time>2022-10-23T10:15:27Z</time>
      </trkpt>
      <trkpt lat="44.99259" lon="5.22645">
        <ele>1224.86</ele>
        <time>2022-10-23T10:15:32Z</time>
      </trkpt>
      <trkpt lat="44.99265" lon="5.2264">
        <ele>1228.22</ele>
        <time>2022-10-23T10:15:42Z</time>
      </trkpt>
      <trkpt lat="44.99271" lon="5.22632">
        <ele>1230.14</ele>
        <time>2022-10-23T10:15:57Z</time>
      </trkpt>
      <trkpt lat="44.99278" lon="5.2263">
        <ele>1232.07</ele>
        <time>2022-10-23T10:16:07Z</time>
      </trkpt>
      <trkpt lat="44.99287" lon="5.22628">
        <ele>1233.51</ele>
        <time>2022-10-23T10:16:20Z</time>
      </trkpt>
      <trkpt lat="44.99288" lon="5.22629">
        <ele>1234.47</ele>
        <time>2022-10-23T10:16:22Z</time>
      </trkpt>
      <trkpt lat="44.99297" lon="5.22635">
        <ele>1235.91</ele>
        <time>2022-10-23T10:16:36Z</time>
      </trkpt>
      <trkpt lat="44.99301" lon="5.22641">
        <ele>1233.99</ele>
        <time>2022-10-23T10:16:42Z</time>
      </trkpt>
      <trkpt lat="44.99304" lon="5.22644">
        <ele>1235.43</ele>
        <time>2022-10-23T10:16:45Z</time>
      </trkpt>
      <trkpt lat="44.9931" lon="5.22656">
        <ele>1232.07</ele>
        <time>2022-10-23T10:16:59Z</time>
      </trkpt>
      <trkpt lat="44.99317" lon="5.22662">
        <ele>1229.18</ele>
        <time>2022-10-23T10:17:10Z</time>
      </trkpt>
      <trkpt lat="44.99326" lon="5.22669">
        <ele>1226.78</ele>
        <time>2022-10-23T10:17:22Z</time>
      </trkpt>
      <trkpt lat="44.99334" lon="5.22675">
        <ele>1224.86</ele>
        <time>2022-10-23T10:17:34Z</time>
      </trkpt>
      <trkpt lat="44.99342" lon="5.22677">
        <ele>1227.74</ele>
        <time>2022-10-23T10:17:43Z</time>
      </trkpt>
      <trkpt lat="44.99355" lon="5.22672">
        <ele>1229.66</ele>
        <time>2022-10-23T10:17:56Z</time>
      </trkpt>
      <trkpt lat="44.99364" lon="5.22662">
        <ele>1232.07</ele>
        <time>2022-10-23T10:18:08Z</time>
      </trkpt>
      <trkpt lat="44.99366" lon="5.22659">
        <ele>1233.51</ele>
        <time>2022-10-23T10:18:13Z</time>
      </trkpt>
      <trkpt lat="44.99365" lon="5.22656">
        <ele>1237.35</ele>
        <time>2022-10-23T10:18:17Z</time>
      </trkpt>
      <trkpt lat="44.99365" lon="5.22655">
        <ele>1237.35</ele>
        <time>2022-10-23T10:18:18Z</time>
      </trkpt>
      <trkpt lat="44.99365" lon="5.2265">
        <ele>1234.47</ele>
        <time>2022-10-23T10:18:24Z</time>
      </trkpt>
      <trkpt lat="44.99364" lon="5.22643">
        <ele>1235.91</ele>
        <time>2022-10-23T10:18:30Z</time>
      </trkpt>
      <trkpt lat="44.99363" lon="5.22636">
        <ele>1236.87</ele>
        <time>2022-10-23T10:18:35Z</time>
      </trkpt>
      <trkpt lat="44.99366" lon="5.22628">
        <ele>1237.83</ele>
        <time>2022-10-23T10:18:50Z</time>
      </trkpt>
      <trkpt lat="44.99368" lon="5.22625">
        <ele>1241.2</ele>
        <time>2022-10-23T10:18:57Z</time>
      </trkpt>
      <trkpt lat="44.99374" lon="5.22622">
        <ele>1242.64</ele>
        <time>2022-10-23T10:19:11Z</time>
      </trkpt>
      <trkpt lat="44.99386" lon="5.22616">
        <ele>1244.56</ele>
        <time>2022-10-23T10:19:27Z</time>
      </trkpt>
      <trkpt lat="44.99395" lon="5.22609">
        <ele>1246.49</ele>
        <time>2022-10-23T10:19:39Z</time>
      </trkpt>
      <trkpt lat="44.99404" lon="5.22604">
        <ele>1248.89</ele>
        <time>2022-10-23T10:19:50Z</time>
      </trkpt>
      <trkpt lat="44.99411" lon="5.22604">
        <ele>1247.93</ele>
        <time>2022-10-23T10:20:03Z</time>
      </trkpt>
      <trkpt lat="44.99413" lon="5.22605">
        <ele>1251.29</ele>
        <time>2022-10-23T10:20:07Z</time>
      </trkpt>
      <trkpt lat="44.99413" lon="5.22605">
        <ele>1253.22</ele>
        <time>2022-10-23T10:20:09Z</time>
      </trkpt>
      <trkpt lat="44.99416" lon="5.22605">
        <ele>1256.1</ele>
        <time>2022-10-23T10:20:16Z</time>
      </trkpt>
      <trkpt lat="44.99416" lon="5.22605">
        <ele>1256.1</ele>
        <time>2022-10-23T10:20:17Z</time>
      </trkpt>
      <trkpt lat="44.99418" lon="5.22605">
        <ele>1253.7</ele>
        <time>2022-10-23T10:20:21Z</time>
      </trkpt>
      <trkpt lat="44.99419" lon="5.22605">
        <ele>1257.06</ele>
        <time>2022-10-23T10:20:23Z</time>
      </trkpt>
      <trkpt lat="44.99419" lon="5.22605">
        <ele>1257.06</ele>
        <time>2022-10-23T10:20:24Z</time>
      </trkpt>
      <trkpt lat="44.99425" lon="5.22606">
        <ele>1257.06</ele>
        <time>2022-10-23T10:20:35Z</time>
      </trkpt>
      <trkpt lat="44.99426" lon="5.22606">
        <ele>1256.1</ele>
        <time>2022-10-23T10:20:38Z</time>
      </trkpt>
      <trkpt lat="44.99433" lon="5.2261">
        <ele>1257.06</ele>
        <time>2022-10-23T10:20:50Z</time>
      </trkpt>
      <trkpt lat="44.99435" lon="5.22608">
        <ele>1255.62</ele>
        <time>2022-10-23T10:20:52Z</time>
      </trkpt>
      <trkpt lat="44.99438" lon="5.22607">
        <ele>1257.54</ele>
        <time>2022-10-23T10:20:56Z</time>
      </trkpt>
      <trkpt lat="44.99446" lon="5.22607">
        <ele>1258.98</ele>
        <time>2022-10-23T10:21:09Z</time>
      </trkpt>
      <trkpt lat="44.99451" lon="5.22612">
        <ele>1257.54</ele>
        <time>2022-10-23T10:21:19Z</time>
      </trkpt>
      <trkpt lat="44.99457" lon="5.22621">
        <ele>1255.14</ele>
        <time>2022-10-23T10:21:32Z</time>
      </trkpt>
      <trkpt lat="44.99472" lon="5.22628">
        <ele>1257.06</ele>
        <time>2022-10-23T10:21:45Z</time>
      </trkpt>
      <trkpt lat="44.99481" lon="5.22624">
        <ele>1260.43</ele>
        <time>2022-10-23T10:21:52Z</time>
      </trkpt>
      <trkpt lat="44.99483" lon="5.22624">
        <ele>1261.39</ele>
        <time>2022-10-23T10:21:54Z</time>
      </trkpt>
      <trkpt lat="44.99486" lon="5.22623">
        <ele>1259.94</ele>
        <time>2022-10-23T10:21:59Z</time>
      </trkpt>
      <trkpt lat="44.99489" lon="5.22623">
        <ele>1260.91</ele>
        <time>2022-10-23T10:22:04Z</time>
      </trkpt>
      <trkpt lat="44.99495" lon="5.22623">
        <ele>1262.83</ele>
        <time>2022-10-23T10:22:17Z</time>
      </trkpt>
      <trkpt lat="44.995" lon="5.22618">
        <ele>1264.27</ele>
        <time>2022-10-23T10:22:31Z</time>
      </trkpt>
      <trkpt lat="44.99501" lon="5.22617">
        <ele>1266.19</ele>
        <time>2022-10-23T10:22:35Z</time>
      </trkpt>
      <trkpt lat="44.99503" lon="5.22617">
        <ele>1268.12</ele>
        <time>2022-10-23T10:22:44Z</time>
      </trkpt>
      <trkpt lat="44.99505" lon="5.22618">
        <ele>1271</ele>
        <time>2022-10-23T10:22:51Z</time>
      </trkpt>
      <trkpt lat="44.99509" lon="5.22621">
        <ele>1274.36</ele>
        <time>2022-10-23T10:23:06Z</time>
      </trkpt>
      <trkpt lat="44.99509" lon="5.22621">
        <ele>1274.36</ele>
        <time>2022-10-23T10:23:07Z</time>
      </trkpt>
      <trkpt lat="44.9951" lon="5.2262">
        <ele>1272.92</ele>
        <time>2022-10-23T10:23:09Z</time>
      </trkpt>
      <trkpt lat="44.99512" lon="5.22616">
        <ele>1275.33</ele>
        <time>2022-10-23T10:23:17Z</time>
      </trkpt>
      <trkpt lat="44.99514" lon="5.22615">
        <ele>1273.4</ele>
        <time>2022-10-23T10:23:22Z</time>
      </trkpt>
      <trkpt lat="44.99515" lon="5.22614">
        <ele>1276.29</ele>
        <time>2022-10-23T10:23:26Z</time>
      </trkpt>
      <trkpt lat="44.99515" lon="5.22613">
        <ele>1276.29</ele>
        <time>2022-10-23T10:23:27Z</time>
      </trkpt>
      <trkpt lat="44.99517" lon="5.22612">
        <ele>1279.17</ele>
        <time>2022-10-23T10:23:34Z</time>
      </trkpt>
      <trkpt lat="44.99522" lon="5.22609">
        <ele>1281.09</ele>
        <time>2022-10-23T10:23:50Z</time>
      </trkpt>
      <trkpt lat="44.99528" lon="5.22603">
        <ele>1284.94</ele>
        <time>2022-10-23T10:24:04Z</time>
      </trkpt>
      <trkpt lat="44.99529" lon="5.22602">
        <ele>1284.94</ele>
        <time>2022-10-23T10:24:05Z</time>
      </trkpt>
      <trkpt lat="44.9953" lon="5.22601">
        <ele>1283.5</ele>
        <time>2022-10-23T10:24:08Z</time>
      </trkpt>
      <trkpt lat="44.99542" lon="5.22604">
        <ele>1284.94</ele>
        <time>2022-10-23T10:24:25Z</time>
      </trkpt>
      <trkpt lat="44.99543" lon="5.22604">
        <ele>1286.38</ele>
        <time>2022-10-23T10:24:27Z</time>
      </trkpt>
      <trkpt lat="44.99545" lon="5.22604">
        <ele>1290.71</ele>
        <time>2022-10-23T10:24:32Z</time>
      </trkpt>
      <trkpt lat="44.99546" lon="5.22605">
        <ele>1285.9</ele>
        <time>2022-10-23T10:24:34Z</time>
      </trkpt>
      <trkpt lat="44.99546" lon="5.22605">
        <ele>1287.34</ele>
        <time>2022-10-23T10:24:38Z</time>
      </trkpt>
      <trkpt lat="44.99546" lon="5.22607">
        <ele>1286.86</ele>
        <time>2022-10-23T10:24:58Z</time>
      </trkpt>
      <trkpt lat="44.99546" lon="5.22608">
        <ele>1288.3</ele>
        <time>2022-10-23T10:26:03Z</time>
      </trkpt>
      <trkpt lat="44.99547" lon="5.22608">
        <ele>1285.9</ele>
        <time>2022-10-23T10:26:19Z</time>
      </trkpt>
      <trkpt lat="44.99551" lon="5.2261">
        <ele>1286.86</ele>
        <time>2022-10-23T10:30:45Z</time>
      </trkpt>
      <trkpt lat="44.99553" lon="5.22611">
        <ele>1283.5</ele>
        <time>2022-10-23T10:30:49Z</time>
      </trkpt>
      <trkpt lat="44.99555" lon="5.22612">
        <ele>1283.02</ele>
        <time>2022-10-23T10:30:51Z</time>
      </trkpt>
      <trkpt lat="44.99556" lon="5.22612">
        <ele>1284.94</ele>
        <time>2022-10-23T10:30:54Z</time>
      </trkpt>
      <trkpt lat="44.99562" lon="5.22619">
        <ele>1285.42</ele>
        <time>2022-10-23T10:31:06Z</time>
      </trkpt>
      <trkpt lat="44.99563" lon="5.22622">
        <ele>1283.98</ele>
        <time>2022-10-23T10:31:11Z</time>
      </trkpt>
      <trkpt lat="44.99563" lon="5.22623">
        <ele>1287.34</ele>
        <time>2022-10-23T10:31:13Z</time>
      </trkpt>
      <trkpt lat="44.99564" lon="5.22624">
        <ele>1287.34</ele>
        <time>2022-10-23T10:31:14Z</time>
      </trkpt>
      <trkpt lat="44.99564" lon="5.22626">
        <ele>1286.38</ele>
        <time>2022-10-23T10:31:16Z</time>
      </trkpt>
      <trkpt lat="44.99567" lon="5.22632">
        <ele>1282.54</ele>
        <time>2022-10-23T10:31:22Z</time>
      </trkpt>
      <trkpt lat="44.99571" lon="5.22639">
        <ele>1284.46</ele>
        <time>2022-10-23T10:31:30Z</time>
      </trkpt>
      <trkpt lat="44.99575" lon="5.22644">
        <ele>1280.61</ele>
        <time>2022-10-23T10:31:37Z</time>
      </trkpt>
      <trkpt lat="44.99575" lon="5.22645">
        <ele>1280.61</ele>
        <time>2022-10-23T10:31:38Z</time>
      </trkpt>
      <trkpt lat="44.9958" lon="5.22643">
        <ele>1283.02</ele>
        <time>2022-10-23T10:31:53Z</time>
      </trkpt>
      <trkpt lat="44.99581" lon="5.22643">
        <ele>1283.02</ele>
        <time>2022-10-23T10:31:54Z</time>
      </trkpt>
      <trkpt lat="44.99592" lon="5.22648">
        <ele>1284.46</ele>
        <time>2022-10-23T10:32:07Z</time>
      </trkpt>
      <trkpt lat="44.99594" lon="5.22647">
        <ele>1285.42</ele>
        <time>2022-10-23T10:32:09Z</time>
      </trkpt>
      <trkpt lat="44.99602" lon="5.22646">
        <ele>1286.38</ele>
        <time>2022-10-23T10:32:21Z</time>
      </trkpt>
      <trkpt lat="44.99611" lon="5.22648">
        <ele>1283.98</ele>
        <time>2022-10-23T10:32:34Z</time>
      </trkpt>
      <trkpt lat="44.99615" lon="5.22646">
        <ele>1284.94</ele>
        <time>2022-10-23T10:32:40Z</time>
      </trkpt>
      <trkpt lat="44.99621" lon="5.22644">
        <ele>1289.27</ele>
        <time>2022-10-23T10:32:48Z</time>
      </trkpt>
      <trkpt lat="44.99622" lon="5.22643">
        <ele>1289.75</ele>
        <time>2022-10-23T10:32:50Z</time>
      </trkpt>
      <trkpt lat="44.99624" lon="5.22642">
        <ele>1291.19</ele>
        <time>2022-10-23T10:32:52Z</time>
      </trkpt>
      <trkpt lat="44.99627" lon="5.22642">
        <ele>1289.75</ele>
        <time>2022-10-23T10:32:54Z</time>
      </trkpt>
      <trkpt lat="44.99633" lon="5.22641">
        <ele>1292.63</ele>
        <time>2022-10-23T10:32:59Z</time>
      </trkpt>
      <trkpt lat="44.99636" lon="5.22641">
        <ele>1289.75</ele>
        <time>2022-10-23T10:33:02Z</time>
      </trkpt>
      <trkpt lat="44.99641" lon="5.22642">
        <ele>1287.82</ele>
        <time>2022-10-23T10:33:07Z</time>
      </trkpt>
      <trkpt lat="44.99643" lon="5.22643">
        <ele>1286.86</ele>
        <time>2022-10-23T10:33:09Z</time>
      </trkpt>
      <trkpt lat="44.99645" lon="5.22645">
        <ele>1288.3</ele>
        <time>2022-10-23T10:33:15Z</time>
      </trkpt>
      <trkpt lat="44.99645" lon="5.22647">
        <ele>1283.98</ele>
        <time>2022-10-23T10:33:17Z</time>
      </trkpt>
      <trkpt lat="44.99646" lon="5.22649">
        <ele>1287.34</ele>
        <time>2022-10-23T10:33:19Z</time>
      </trkpt>
      <trkpt lat="44.99649" lon="5.2265">
        <ele>1284.46</ele>
        <time>2022-10-23T10:33:23Z</time>
      </trkpt>
      <trkpt lat="44.99657" lon="5.22657">
        <ele>1282.06</ele>
        <time>2022-10-23T10:33:36Z</time>
      </trkpt>
      <trkpt lat="44.99666" lon="5.22664">
        <ele>1278.69</ele>
        <time>2022-10-23T10:33:48Z</time>
      </trkpt>
      <trkpt lat="44.99669" lon="5.22664">
        <ele>1280.13</ele>
        <time>2022-10-23T10:33:52Z</time>
      </trkpt>
      <trkpt lat="44.99673" lon="5.22663">
        <ele>1277.73</ele>
        <time>2022-10-23T10:33:55Z</time>
      </trkpt>
      <trkpt lat="44.99678" lon="5.22663">
        <ele>1279.65</ele>
        <time>2022-10-23T10:34:01Z</time>
      </trkpt>
      <trkpt lat="44.99692" lon="5.22657">
        <ele>1279.17</ele>
        <time>2022-10-23T10:34:16Z</time>
      </trkpt>
      <trkpt lat="44.99697" lon="5.22655">
        <ele>1280.61</ele>
        <time>2022-10-23T10:34:22Z</time>
      </trkpt>
      <trkpt lat="44.99705" lon="5.22652">
        <ele>1282.54</ele>
        <time>2022-10-23T10:34:29Z</time>
      </trkpt>
      <trkpt lat="44.99718" lon="5.2265">
        <ele>1280.13</ele>
        <time>2022-10-23T10:34:42Z</time>
      </trkpt>
      <trkpt lat="44.99727" lon="5.22653">
        <ele>1281.57</ele>
        <time>2022-10-23T10:34:55Z</time>
      </trkpt>
      <trkpt lat="44.99738" lon="5.22654">
        <ele>1279.17</ele>
        <time>2022-10-23T10:35:07Z</time>
      </trkpt>
      <trkpt lat="44.99742" lon="5.22654">
        <ele>1279.17</ele>
        <time>2022-10-23T10:35:11Z</time>
      </trkpt>
      <trkpt lat="44.99761" lon="5.22656">
        <ele>1277.25</ele>
        <time>2022-10-23T10:35:27Z</time>
      </trkpt>
      <trkpt lat="44.99764" lon="5.22657">
        <ele>1277.25</ele>
        <time>2022-10-23T10:35:30Z</time>
      </trkpt>
      <trkpt lat="44.99767" lon="5.22655">
        <ele>1278.69</ele>
        <time>2022-10-23T10:35:33Z</time>
      </trkpt>
      <trkpt lat="44.99773" lon="5.22654">
        <ele>1281.57</ele>
        <time>2022-10-23T10:35:39Z</time>
      </trkpt>
      <trkpt lat="44.99779" lon="5.22654">
        <ele>1279.65</ele>
        <time>2022-10-23T10:35:45Z</time>
      </trkpt>
      <trkpt lat="44.99782" lon="5.22654">
        <ele>1281.09</ele>
        <time>2022-10-23T10:35:48Z</time>
      </trkpt>
      <trkpt lat="44.99794" lon="5.22649">
        <ele>1282.06</ele>
        <time>2022-10-23T10:36:00Z</time>
      </trkpt>
      <trkpt lat="44.99795" lon="5.2265">
        <ele>1282.06</ele>
        <time>2022-10-23T10:36:02Z</time>
      </trkpt>
      <trkpt lat="44.99799" lon="5.22654">
        <ele>1282.06</ele>
        <time>2022-10-23T10:36:08Z</time>
      </trkpt>
      <trkpt lat="44.9981" lon="5.2265">
        <ele>1282.06</ele>
        <time>2022-10-23T10:36:18Z</time>
      </trkpt>
      <trkpt lat="44.99821" lon="5.22651">
        <ele>1281.09</ele>
        <time>2022-10-23T10:36:30Z</time>
      </trkpt>
      <trkpt lat="44.99824" lon="5.22652">
        <ele>1282.54</ele>
        <time>2022-10-23T10:36:33Z</time>
      </trkpt>
      <trkpt lat="44.9983" lon="5.22655">
        <ele>1281.57</ele>
        <time>2022-10-23T10:36:40Z</time>
      </trkpt>
      <trkpt lat="44.99845" lon="5.2266">
        <ele>1280.13</ele>
        <time>2022-10-23T10:36:57Z</time>
      </trkpt>
      <trkpt lat="44.99858" lon="5.22661">
        <ele>1278.69</ele>
        <time>2022-10-23T10:37:11Z</time>
      </trkpt>
      <trkpt lat="44.99874" lon="5.22656">
        <ele>1279.17</ele>
        <time>2022-10-23T10:37:25Z</time>
      </trkpt>
      <trkpt lat="44.99875" lon="5.22656">
        <ele>1279.17</ele>
        <time>2022-10-23T10:37:26Z</time>
      </trkpt>
      <trkpt lat="44.99877" lon="5.22656">
        <ele>1280.61</ele>
        <time>2022-10-23T10:37:29Z</time>
      </trkpt>
      <trkpt lat="44.99884" lon="5.22655">
        <ele>1282.06</ele>
        <time>2022-10-23T10:37:36Z</time>
      </trkpt>
      <trkpt lat="44.99886" lon="5.22655">
        <ele>1280.13</ele>
        <time>2022-10-23T10:37:41Z</time>
      </trkpt>
      <trkpt lat="44.99888" lon="5.22652">
        <ele>1281.57</ele>
        <time>2022-10-23T10:37:46Z</time>
      </trkpt>
      <trkpt lat="44.99898" lon="5.22651">
        <ele>1281.09</ele>
        <time>2022-10-23T10:37:59Z</time>
      </trkpt>
      <trkpt lat="44.99902" lon="5.2265">
        <ele>1280.13</ele>
        <time>2022-10-23T10:38:13Z</time>
      </trkpt>
      <trkpt lat="44.99903" lon="5.22651">
        <ele>1280.61</ele>
        <time>2022-10-23T10:38:29Z</time>
      </trkpt>
      <trkpt lat="44.99905" lon="5.22652">
        <ele>1281.09</ele>
        <time>2022-10-23T10:42:18Z</time>
      </trkpt>
      <trkpt lat="44.99906" lon="5.22652">
        <ele>1281.57</ele>
        <time>2022-10-23T10:42:23Z</time>
      </trkpt>
      <trkpt lat="44.99908" lon="5.22654">
        <ele>1279.65</ele>
        <time>2022-10-23T10:42:28Z</time>
      </trkpt>
      <trkpt lat="44.99911" lon="5.22657">
        <ele>1278.69</ele>
        <time>2022-10-23T10:42:41Z</time>
      </trkpt>
      <trkpt lat="44.99919" lon="5.22664">
        <ele>1276.29</ele>
        <time>2022-10-23T10:42:55Z</time>
      </trkpt>
      <trkpt lat="44.9993" lon="5.22665">
        <ele>1275.33</ele>
        <time>2022-10-23T10:43:11Z</time>
      </trkpt>
      <trkpt lat="44.9994" lon="5.22667">
        <ele>1272.44</ele>
        <time>2022-10-23T10:43:23Z</time>
      </trkpt>
      <trkpt lat="44.99943" lon="5.22668">
        <ele>1271.96</ele>
        <time>2022-10-23T10:43:26Z</time>
      </trkpt>
      <trkpt lat="44.99957" lon="5.22668">
        <ele>1271</ele>
        <time>2022-10-23T10:43:40Z</time>
      </trkpt>
      <trkpt lat="44.99958" lon="5.22668">
        <ele>1271.96</ele>
        <time>2022-10-23T10:43:42Z</time>
      </trkpt>
      <trkpt lat="44.99962" lon="5.2267">
        <ele>1271</ele>
        <time>2022-10-23T10:43:46Z</time>
      </trkpt>
      <trkpt lat="44.99975" lon="5.22671">
        <ele>1272.44</ele>
        <time>2022-10-23T10:43:58Z</time>
      </trkpt>
      <trkpt lat="44.99982" lon="5.22677">
        <ele>1269.08</ele>
        <time>2022-10-23T10:44:09Z</time>
      </trkpt>
      <trkpt lat="44.99982" lon="5.22678">
        <ele>1269.08</ele>
        <time>2022-10-23T10:44:10Z</time>
      </trkpt>
      <trkpt lat="44.99984" lon="5.22681">
        <ele>1270.04</ele>
        <time>2022-10-23T10:44:14Z</time>
      </trkpt>
      <trkpt lat="44.99987" lon="5.22683">
        <ele>1268.6</ele>
        <time>2022-10-23T10:44:18Z</time>
      </trkpt>
      <trkpt lat="44.99989" lon="5.22682">
        <ele>1271.96</ele>
        <time>2022-10-23T10:44:21Z</time>
      </trkpt>
      <trkpt lat="44.99991" lon="5.22682">
        <ele>1270.04</ele>
        <time>2022-10-23T10:44:24Z</time>
      </trkpt>
      <trkpt lat="44.99993" lon="5.22683">
        <ele>1270.52</ele>
        <time>2022-10-23T10:44:38Z</time>
      </trkpt>
      <trkpt lat="44.99993" lon="5.22683">
        <ele>1272.92</ele>
        <time>2022-10-23T10:44:52Z</time>
      </trkpt>
      <trkpt lat="44.99993" lon="5.22683">
        <ele>1271</ele>
        <time>2022-10-23T10:44:57Z</time>
      </trkpt>
      <trkpt lat="44.99993" lon="5.22685">
        <ele>1269.56</ele>
        <time>2022-10-23T10:45:20Z</time>
      </trkpt>
      <trkpt lat="44.99993" lon="5.22685">
        <ele>1271.48</ele>
        <time>2022-10-23T10:45:48Z</time>
      </trkpt>
      <trkpt lat="44.99996" lon="5.2268">
        <ele>1268.12</ele>
        <time>2022-10-23T10:46:07Z</time>
      </trkpt>
      <trkpt lat="44.99998" lon="5.22671">
        <ele>1265.23</ele>
        <time>2022-10-23T10:46:20Z</time>
      </trkpt>
      <trkpt lat="44.99998" lon="5.22667">
        <ele>1262.35</ele>
        <time>2022-10-23T10:46:36Z</time>
      </trkpt>
      <trkpt lat="44.99996" lon="5.2266">
        <ele>1259.94</ele>
        <time>2022-10-23T10:46:51Z</time>
      </trkpt>
      <trkpt lat="44.99995" lon="5.22655">
        <ele>1256.1</ele>
        <time>2022-10-23T10:47:02Z</time>
      </trkpt>
      <trkpt lat="44.99991" lon="5.22642">
        <ele>1252.74</ele>
        <time>2022-10-23T10:47:17Z</time>
      </trkpt>
      <trkpt lat="44.9999" lon="5.22638">
        <ele>1250.81</ele>
        <time>2022-10-23T10:47:22Z</time>
      </trkpt>
      <trkpt lat="44.99986" lon="5.22623">
        <ele>1247.93</ele>
        <time>2022-10-23T10:47:36Z</time>
      </trkpt>
      <trkpt lat="44.99984" lon="5.22614">
        <ele>1244.56</ele>
        <time>2022-10-23T10:47:45Z</time>
      </trkpt>
      <trkpt lat="44.99981" lon="5.22604">
        <ele>1241.2</ele>
        <time>2022-10-23T10:47:55Z</time>
      </trkpt>
      <trkpt lat="44.9998" lon="5.22595">
        <ele>1237.83</ele>
        <time>2022-10-23T10:48:02Z</time>
      </trkpt>
      <trkpt lat="44.99977" lon="5.2258">
        <ele>1234.95</ele>
        <time>2022-10-23T10:48:18Z</time>
      </trkpt>
      <trkpt lat="44.99979" lon="5.22573">
        <ele>1231.59</ele>
        <time>2022-10-23T10:48:26Z</time>
      </trkpt>
      <trkpt lat="44.9998" lon="5.22571">
        <ele>1230.14</ele>
        <time>2022-10-23T10:48:29Z</time>
      </trkpt>
      <trkpt lat="44.99985" lon="5.22564">
        <ele>1227.26</ele>
        <time>2022-10-23T10:48:41Z</time>
      </trkpt>
      <trkpt lat="44.99987" lon="5.22553">
        <ele>1223.9</ele>
        <time>2022-10-23T10:48:54Z</time>
      </trkpt>
      <trkpt lat="44.99987" lon="5.22549">
        <ele>1223.42</ele>
        <time>2022-10-23T10:49:07Z</time>
      </trkpt>
      <trkpt lat="44.9999" lon="5.22544">
        <ele>1225.82</ele>
        <time>2022-10-23T11:52:24Z</time>
      </trkpt>
      <trkpt lat="44.99993" lon="5.22536">
        <ele>1224.38</ele>
        <time>2022-10-23T11:52:40Z</time>
      </trkpt>
      <trkpt lat="44.99995" lon="5.22532">
        <ele>1221.01</ele>
        <time>2022-10-23T11:52:46Z</time>
      </trkpt>
      <trkpt lat="45" lon="5.22525">
        <ele>1217.65</ele>
        <time>2022-10-23T11:52:58Z</time>
      </trkpt>
      <trkpt lat="45.00007" lon="5.22512">
        <ele>1214.28</ele>
        <time>2022-10-23T11:53:14Z</time>
      </trkpt>
      <trkpt lat="45.0001" lon="5.22506">
        <ele>1212.36</ele>
        <time>2022-10-23T11:53:22Z</time>
      </trkpt>
      <trkpt lat="45.00018" lon="5.22496">
        <ele>1209.48</ele>
        <time>2022-10-23T11:53:39Z</time>
      </trkpt>
      <trkpt lat="45.00021" lon="5.22488">
        <ele>1206.11</ele>
        <time>2022-10-23T11:53:53Z</time>
      </trkpt>
      <trkpt lat="45.00026" lon="5.22479">
        <ele>1202.75</ele>
        <time>2022-10-23T11:54:04Z</time>
      </trkpt>
      <trkpt lat="45.00032" lon="5.22468">
        <ele>1199.86</ele>
        <time>2022-10-23T11:54:18Z</time>
      </trkpt>
      <trkpt lat="45.00038" lon="5.22459">
        <ele>1196.5</ele>
        <time>2022-10-23T11:54:31Z</time>
      </trkpt>
      <trkpt lat="45.00044" lon="5.22449">
        <ele>1193.61</ele>
        <time>2022-10-23T11:54:45Z</time>
      </trkpt>
      <trkpt lat="45.00051" lon="5.22441">
        <ele>1190.25</ele>
        <time>2022-10-23T11:54:58Z</time>
      </trkpt>
      <trkpt lat="45.00057" lon="5.22433">
        <ele>1186.4</ele>
        <time>2022-10-23T11:55:10Z</time>
      </trkpt>
      <trkpt lat="45.00058" lon="5.22432">
        <ele>1185.92</ele>
        <time>2022-10-23T11:55:12Z</time>
      </trkpt>
      <trkpt lat="45.00066" lon="5.22417">
        <ele>1184.48</ele>
        <time>2022-10-23T11:55:30Z</time>
      </trkpt>
      <trkpt lat="45.0007" lon="5.22409">
        <ele>1180.64</ele>
        <time>2022-10-23T11:55:39Z</time>
      </trkpt>
      <trkpt lat="45.00075" lon="5.224">
        <ele>1177.75</ele>
        <time>2022-10-23T11:55:50Z</time>
      </trkpt>
      <trkpt lat="45.00081" lon="5.22392">
        <ele>1174.39</ele>
        <time>2022-10-23T11:56:01Z</time>
      </trkpt>
      <trkpt lat="45.0009" lon="5.22377">
        <ele>1171.98</ele>
        <time>2022-10-23T11:56:19Z</time>
      </trkpt>
      <trkpt lat="45.00096" lon="5.22363">
        <ele>1168.62</ele>
        <time>2022-10-23T11:56:33Z</time>
      </trkpt>
      <trkpt lat="45.00103" lon="5.2235">
        <ele>1164.77</ele>
        <time>2022-10-23T11:56:47Z</time>
      </trkpt>
      <trkpt lat="45.00109" lon="5.22337">
        <ele>1161.89</ele>
        <time>2022-10-23T11:57:01Z</time>
      </trkpt>
      <trkpt lat="45.00116" lon="5.22319">
        <ele>1159.49</ele>
        <time>2022-10-23T11:57:17Z</time>
      </trkpt>
      <trkpt lat="45.00121" lon="5.22298">
        <ele>1156.12</ele>
        <time>2022-10-23T11:57:34Z</time>
      </trkpt>
      <trkpt lat="45.00124" lon="5.22276">
        <ele>1152.76</ele>
        <time>2022-10-23T11:57:51Z</time>
      </trkpt>
      <trkpt lat="45.0013" lon="5.22254">
        <ele>1149.87</ele>
        <time>2022-10-23T11:58:09Z</time>
      </trkpt>
      <trkpt lat="45.00136" lon="5.22235">
        <ele>1146.51</ele>
        <time>2022-10-23T11:58:26Z</time>
      </trkpt>
      <trkpt lat="45.00135" lon="5.22214">
        <ele>1145.07</ele>
        <time>2022-10-23T11:58:44Z</time>
      </trkpt>
      <trkpt lat="45.00137" lon="5.22188">
        <ele>1145.07</ele>
        <time>2022-10-23T11:59:03Z</time>
      </trkpt>
      <trkpt lat="45.00138" lon="5.2216">
        <ele>1144.59</ele>
        <time>2022-10-23T11:59:22Z</time>
      </trkpt>
      <trkpt lat="45.00139" lon="5.2215">
        <ele>1144.59</ele>
        <time>2022-10-23T11:59:29Z</time>
      </trkpt>
      <trkpt lat="45.00142" lon="5.22142">
        <ele>1142.18</ele>
        <time>2022-10-23T11:59:45Z</time>
      </trkpt>
      <trkpt lat="45.00139" lon="5.22144">
        <ele>1141.7</ele>
        <time>2022-10-23T11:59:59Z</time>
      </trkpt>
      <trkpt lat="45.00139" lon="5.22145">
        <ele>1142.18</ele>
        <time>2022-10-23T12:00:32Z</time>
      </trkpt>
      <trkpt lat="45.00134" lon="5.2215">
        <ele>1141.7</ele>
        <time>2022-10-23T12:01:51Z</time>
      </trkpt>
      <trkpt lat="45.00134" lon="5.2215">
        <ele>1142.66</ele>
        <time>2022-10-23T12:02:19Z</time>
      </trkpt>
      <trkpt lat="45.00132" lon="5.22151">
        <ele>1142.66</ele>
        <time>2022-10-23T12:02:42Z</time>
      </trkpt>
      <trkpt lat="45.00129" lon="5.22155">
        <ele>1142.18</ele>
        <time>2022-10-23T12:02:55Z</time>
      </trkpt>
      <trkpt lat="45.00128" lon="5.22156">
        <ele>1142.18</ele>
        <time>2022-10-23T12:02:57Z</time>
      </trkpt>
      <trkpt lat="45.00119" lon="5.22163">
        <ele>1142.18</ele>
        <time>2022-10-23T12:03:12Z</time>
      </trkpt>
      <trkpt lat="45.00118" lon="5.22164">
        <ele>1138.82</ele>
        <time>2022-10-23T12:03:15Z</time>
      </trkpt>
      <trkpt lat="45.00118" lon="5.22164">
        <ele>1138.82</ele>
        <time>2022-10-23T12:03:16Z</time>
      </trkpt>
      <trkpt lat="45.00118" lon="5.22165">
        <ele>1140.74</ele>
        <time>2022-10-23T12:03:18Z</time>
      </trkpt>
      <trkpt lat="45.00115" lon="5.22166">
        <ele>1136.9</ele>
        <time>2022-10-23T12:03:25Z</time>
      </trkpt>
      <trkpt lat="45.00115" lon="5.22167">
        <ele>1135.94</ele>
        <time>2022-10-23T12:03:27Z</time>
      </trkpt>
      <trkpt lat="45.00115" lon="5.22168">
        <ele>1137.38</ele>
        <time>2022-10-23T12:03:30Z</time>
      </trkpt>
      <trkpt lat="45.00114" lon="5.22169">
        <ele>1138.82</ele>
        <time>2022-10-23T12:03:56Z</time>
      </trkpt>
      <trkpt lat="45.00114" lon="5.2217">
        <ele>1140.26</ele>
        <time>2022-10-23T12:03:59Z</time>
      </trkpt>
      <trkpt lat="45.00112" lon="5.22174">
        <ele>1138.82</ele>
        <time>2022-10-23T12:04:19Z</time>
      </trkpt>
      <trkpt lat="45.00109" lon="5.2218">
        <ele>1134.97</ele>
        <time>2022-10-23T12:04:28Z</time>
      </trkpt>
      <trkpt lat="45.00107" lon="5.22183">
        <ele>1132.57</ele>
        <time>2022-10-23T12:04:31Z</time>
      </trkpt>
      <trkpt lat="45.00105" lon="5.22185">
        <ele>1130.17</ele>
        <time>2022-10-23T12:04:35Z</time>
      </trkpt>
      <trkpt lat="45.00104" lon="5.22185">
        <ele>1132.09</ele>
        <time>2022-10-23T12:04:38Z</time>
      </trkpt>
      <trkpt lat="45.001" lon="5.22189">
        <ele>1130.17</ele>
        <time>2022-10-23T12:04:46Z</time>
      </trkpt>
      <trkpt lat="45.00093" lon="5.22198">
        <ele>1128.24</ele>
        <time>2022-10-23T12:04:55Z</time>
      </trkpt>
      <trkpt lat="45.00087" lon="5.22203">
        <ele>1129.69</ele>
        <time>2022-10-23T12:04:59Z</time>
      </trkpt>
      <trkpt lat="45.00081" lon="5.2221">
        <ele>1128.73</ele>
        <time>2022-10-23T12:05:05Z</time>
      </trkpt>
      <trkpt lat="45.00074" lon="5.22215">
        <ele>1125.36</ele>
        <time>2022-10-23T12:05:17Z</time>
      </trkpt>
      <trkpt lat="45.00064" lon="5.22223">
        <ele>1123.44</ele>
        <time>2022-10-23T12:05:28Z</time>
      </trkpt>
      <trkpt lat="45.00052" lon="5.2223">
        <ele>1122.48</ele>
        <time>2022-10-23T12:05:38Z</time>
      </trkpt>
      <trkpt lat="45.00036" lon="5.22233">
        <ele>1120.07</ele>
        <time>2022-10-23T12:05:53Z</time>
      </trkpt>
      <trkpt lat="45.00016" lon="5.22238">
        <ele>1117.67</ele>
        <time>2022-10-23T12:06:08Z</time>
      </trkpt>
      <trkpt lat="44.99996" lon="5.22244">
        <ele>1114.31</ele>
        <time>2022-10-23T12:06:22Z</time>
      </trkpt>
      <trkpt lat="44.9998" lon="5.22241">
        <ele>1111.9</ele>
        <time>2022-10-23T12:06:38Z</time>
      </trkpt>
      <trkpt lat="44.99967" lon="5.22239">
        <ele>1109.02</ele>
        <time>2022-10-23T12:06:50Z</time>
      </trkpt>
      <trkpt lat="44.99956" lon="5.22234">
        <ele>1106.61</ele>
        <time>2022-10-23T12:07:07Z</time>
      </trkpt>
      <trkpt lat="44.99942" lon="5.22222">
        <ele>1104.69</ele>
        <time>2022-10-23T12:07:21Z</time>
      </trkpt>
      <trkpt lat="44.99926" lon="5.22212">
        <ele>1103.25</ele>
        <time>2022-10-23T12:07:34Z</time>
      </trkpt>
      <trkpt lat="44.99916" lon="5.22208">
        <ele>1099.89</ele>
        <time>2022-10-23T12:07:45Z</time>
      </trkpt>
      <trkpt lat="44.99901" lon="5.22198">
        <ele>1097</ele>
        <time>2022-10-23T12:07:59Z</time>
      </trkpt>
      <trkpt lat="44.99884" lon="5.22186">
        <ele>1094.6</ele>
        <time>2022-10-23T12:08:13Z</time>
      </trkpt>
      <trkpt lat="44.99873" lon="5.22177">
        <ele>1093.16</ele>
        <time>2022-10-23T12:08:29Z</time>
      </trkpt>
      <trkpt lat="44.99854" lon="5.22166">
        <ele>1090.75</ele>
        <time>2022-10-23T12:08:44Z</time>
      </trkpt>
      <trkpt lat="44.99846" lon="5.22159">
        <ele>1087.39</ele>
        <time>2022-10-23T12:08:54Z</time>
      </trkpt>
      <trkpt lat="44.99838" lon="5.22153">
        <ele>1084.02</ele>
        <time>2022-10-23T12:09:05Z</time>
      </trkpt>
      <trkpt lat="44.99821" lon="5.22139">
        <ele>1081.62</ele>
        <time>2022-10-23T12:09:20Z</time>
      </trkpt>
      <trkpt lat="44.99813" lon="5.22125">
        <ele>1078.74</ele>
        <time>2022-10-23T12:09:32Z</time>
      </trkpt>
      <trkpt lat="44.99811" lon="5.22122">
        <ele>1077.29</ele>
        <time>2022-10-23T12:09:35Z</time>
      </trkpt>
      <trkpt lat="44.99809" lon="5.22117">
        <ele>1077.78</ele>
        <time>2022-10-23T12:09:41Z</time>
      </trkpt>
      <trkpt lat="44.99809" lon="5.22114">
        <ele>1076.81</ele>
        <time>2022-10-23T12:09:44Z</time>
      </trkpt>
      <trkpt lat="44.99806" lon="5.22112">
        <ele>1076.33</ele>
        <time>2022-10-23T12:10:05Z</time>
      </trkpt>
      <trkpt lat="44.99806" lon="5.2211">
        <ele>1075.37</ele>
        <time>2022-10-23T12:10:18Z</time>
      </trkpt>
      <trkpt lat="44.99805" lon="5.22108">
        <ele>1076.81</ele>
        <time>2022-10-23T12:10:25Z</time>
      </trkpt>
      <trkpt lat="44.99803" lon="5.22106">
        <ele>1076.81</ele>
        <time>2022-10-23T12:10:42Z</time>
      </trkpt>
      <trkpt lat="44.99802" lon="5.22105">
        <ele>1076.33</ele>
        <time>2022-10-23T12:11:13Z</time>
      </trkpt>
      <trkpt lat="44.99798" lon="5.22101">
        <ele>1077.29</ele>
        <time>2022-10-23T12:11:35Z</time>
      </trkpt>
      <trkpt lat="44.99799" lon="5.22099">
        <ele>1074.41</ele>
        <time>2022-10-23T12:12:54Z</time>
      </trkpt>
      <trkpt lat="44.99796" lon="5.22091">
        <ele>1073.45</ele>
        <time>2022-10-23T12:13:09Z</time>
      </trkpt>
      <trkpt lat="44.99796" lon="5.22076">
        <ele>1070.08</ele>
        <time>2022-10-23T12:13:19Z</time>
      </trkpt>
      <trkpt lat="44.99809" lon="5.22069">
        <ele>1067.2</ele>
        <time>2022-10-23T12:13:32Z</time>
      </trkpt>
      <trkpt lat="44.9982" lon="5.22066">
        <ele>1064.32</ele>
        <time>2022-10-23T12:13:42Z</time>
      </trkpt>
      <trkpt lat="44.99829" lon="5.22064">
        <ele>1061.43</ele>
        <time>2022-10-23T12:13:52Z</time>
      </trkpt>
      <trkpt lat="44.99837" lon="5.22062">
        <ele>1059.03</ele>
        <time>2022-10-23T12:14:05Z</time>
      </trkpt>
      <trkpt lat="44.99847" lon="5.22062">
        <ele>1056.15</ele>
        <time>2022-10-23T12:14:18Z</time>
      </trkpt>
      <trkpt lat="44.99862" lon="5.22058">
        <ele>1052.78</ele>
        <time>2022-10-23T12:14:31Z</time>
      </trkpt>
      <trkpt lat="44.99872" lon="5.22056">
        <ele>1050.86</ele>
        <time>2022-10-23T12:14:40Z</time>
      </trkpt>
      <trkpt lat="44.99889" lon="5.22056">
        <ele>1048.94</ele>
        <time>2022-10-23T12:14:55Z</time>
      </trkpt>
      <trkpt lat="44.99903" lon="5.22058">
        <ele>1047.49</ele>
        <time>2022-10-23T12:15:07Z</time>
      </trkpt>
      <trkpt lat="44.99923" lon="5.22056">
        <ele>1044.13</ele>
        <time>2022-10-23T12:15:22Z</time>
      </trkpt>
      <trkpt lat="44.99939" lon="5.22055">
        <ele>1042.69</ele>
        <time>2022-10-23T12:15:36Z</time>
      </trkpt>
      <trkpt lat="44.9995" lon="5.22054">
        <ele>1040.28</ele>
        <time>2022-10-23T12:15:48Z</time>
      </trkpt>
      <trkpt lat="44.99962" lon="5.22041">
        <ele>1038.84</ele>
        <time>2022-10-23T12:16:01Z</time>
      </trkpt>
      <trkpt lat="44.99975" lon="5.22032">
        <ele>1035.96</ele>
        <time>2022-10-23T12:16:15Z</time>
      </trkpt>
      <trkpt lat="44.99987" lon="5.22017">
        <ele>1035.96</ele>
        <time>2022-10-23T12:16:29Z</time>
      </trkpt>
      <trkpt lat="44.99994" lon="5.22006">
        <ele>1033.55</ele>
        <time>2022-10-23T12:16:41Z</time>
      </trkpt>
      <trkpt lat="45.00004" lon="5.21991">
        <ele>1032.11</ele>
        <time>2022-10-23T12:16:56Z</time>
      </trkpt>
      <trkpt lat="45.00013" lon="5.21972">
        <ele>1029.23</ele>
        <time>2022-10-23T12:17:12Z</time>
      </trkpt>
      <trkpt lat="45.00015" lon="5.21963">
        <ele>1027.79</ele>
        <time>2022-10-23T12:17:19Z</time>
      </trkpt>
      <trkpt lat="45.00019" lon="5.2194">
        <ele>1025.86</ele>
        <time>2022-10-23T12:17:34Z</time>
      </trkpt>
      <trkpt lat="45.0002" lon="5.21928">
        <ele>1025.86</ele>
        <time>2022-10-23T12:17:46Z</time>
      </trkpt>
      <trkpt lat="45.0002" lon="5.2191">
        <ele>1025.38</ele>
        <time>2022-10-23T12:18:00Z</time>
      </trkpt>
      <trkpt lat="45.00019" lon="5.219">
        <ele>1023.94</ele>
        <time>2022-10-23T12:18:07Z</time>
      </trkpt>
      <trkpt lat="45.00012" lon="5.21874">
        <ele>1022.98</ele>
        <time>2022-10-23T12:18:23Z</time>
      </trkpt>
      <trkpt lat="45.00012" lon="5.21873">
        <ele>1022.98</ele>
        <time>2022-10-23T12:18:24Z</time>
      </trkpt>
      <trkpt lat="45.00011" lon="5.21848">
        <ele>1021.54</ele>
        <time>2022-10-23T12:18:39Z</time>
      </trkpt>
      <trkpt lat="45.00007" lon="5.21818">
        <ele>1020.1</ele>
        <time>2022-10-23T12:18:55Z</time>
      </trkpt>
      <trkpt lat="45.00004" lon="5.21788">
        <ele>1019.13</ele>
        <time>2022-10-23T12:19:11Z</time>
      </trkpt>
      <trkpt lat="45.00004" lon="5.21765">
        <ele>1017.69</ele>
        <time>2022-10-23T12:19:27Z</time>
      </trkpt>
      <trkpt lat="45.00005" lon="5.2174">
        <ele>1018.17</ele>
        <time>2022-10-23T12:19:42Z</time>
      </trkpt>
      <trkpt lat="45.00007" lon="5.21715">
        <ele>1015.77</ele>
        <time>2022-10-23T12:19:55Z</time>
      </trkpt>
      <trkpt lat="45.00013" lon="5.21693">
        <ele>1012.89</ele>
        <time>2022-10-23T12:20:10Z</time>
      </trkpt>
      <trkpt lat="45.00014" lon="5.21688">
        <ele>1012.41</ele>
        <time>2022-10-23T12:20:12Z</time>
      </trkpt>
      <trkpt lat="45.0002" lon="5.21656">
        <ele>1012.41</ele>
        <time>2022-10-23T12:20:28Z</time>
      </trkpt>
      <trkpt lat="45.00022" lon="5.21644">
        <ele>1012.41</ele>
        <time>2022-10-23T12:20:37Z</time>
      </trkpt>
      <trkpt lat="45.00023" lon="5.2164">
        <ele>1011.93</ele>
        <time>2022-10-23T12:20:40Z</time>
      </trkpt>
      <trkpt lat="45.00023" lon="5.21634">
        <ele>1013.37</ele>
        <time>2022-10-23T12:20:44Z</time>
      </trkpt>
      <trkpt lat="45.00024" lon="5.21626">
        <ele>1014.33</ele>
        <time>2022-10-23T12:20:49Z</time>
      </trkpt>
      <trkpt lat="45.00023" lon="5.21616">
        <ele>1012.89</ele>
        <time>2022-10-23T12:20:55Z</time>
      </trkpt>
      <trkpt lat="45.00015" lon="5.21588">
        <ele>1011.44</ele>
        <time>2022-10-23T12:21:13Z</time>
      </trkpt>
      <trkpt lat="45.00007" lon="5.21575">
        <ele>1008.56</ele>
        <time>2022-10-23T12:21:24Z</time>
      </trkpt>
      <trkpt lat="45.00003" lon="5.21573">
        <ele>1007.12</ele>
        <time>2022-10-23T12:21:27Z</time>
      </trkpt>
      <trkpt lat="44.99995" lon="5.21563">
        <ele>1003.75</ele>
        <time>2022-10-23T12:21:35Z</time>
      </trkpt>
      <trkpt lat="44.99991" lon="5.21556">
        <ele>1005.2</ele>
        <time>2022-10-23T12:21:40Z</time>
      </trkpt>
      <trkpt lat="44.99989" lon="5.21552">
        <ele>1003.75</ele>
        <time>2022-10-23T12:21:43Z</time>
      </trkpt>
      <trkpt lat="44.99978" lon="5.21536">
        <ele>1002.79</ele>
        <time>2022-10-23T12:21:57Z</time>
      </trkpt>
      <trkpt lat="44.99967" lon="5.21525">
        <ele>1005.2</ele>
        <time>2022-10-23T12:22:10Z</time>
      </trkpt>
      <trkpt lat="44.99958" lon="5.21515">
        <ele>1006.16</ele>
        <time>2022-10-23T12:22:19Z</time>
      </trkpt>
      <trkpt lat="44.99946" lon="5.21493">
        <ele>1007.12</ele>
        <time>2022-10-23T12:22:36Z</time>
      </trkpt>
      <trkpt lat="44.99944" lon="5.2149">
        <ele>1004.72</ele>
        <time>2022-10-23T12:22:48Z</time>
      </trkpt>
      <trkpt lat="44.99944" lon="5.21483">
        <ele>1005.68</ele>
        <time>2022-10-23T12:23:56Z</time>
      </trkpt>
      <trkpt lat="44.99946" lon="5.21479">
        <ele>1003.27</ele>
        <time>2022-10-23T12:24:26Z</time>
      </trkpt>
      <trkpt lat="44.99946" lon="5.21468">
        <ele>999.91</ele>
        <time>2022-10-23T12:24:36Z</time>
      </trkpt>
      <trkpt lat="44.99944" lon="5.21454">
        <ele>998.47</ele>
        <time>2022-10-23T12:24:50Z</time>
      </trkpt>
      <trkpt lat="44.99944" lon="5.21443">
        <ele>995.1</ele>
        <time>2022-10-23T12:25:00Z</time>
      </trkpt>
      <trkpt lat="44.99942" lon="5.21428">
        <ele>991.74</ele>
        <time>2022-10-23T12:25:14Z</time>
      </trkpt>
      <trkpt lat="44.99942" lon="5.21426">
        <ele>991.26</ele>
        <time>2022-10-23T12:25:16Z</time>
      </trkpt>
      <trkpt lat="44.99942" lon="5.21417">
        <ele>987.89</ele>
        <time>2022-10-23T12:25:24Z</time>
      </trkpt>
      <trkpt lat="44.9994" lon="5.21414">
        <ele>986.93</ele>
        <time>2022-10-23T12:25:27Z</time>
      </trkpt>
      <trkpt lat="44.99939" lon="5.21402">
        <ele>983.57</ele>
        <time>2022-10-23T12:25:38Z</time>
      </trkpt>
      <trkpt lat="44.99939" lon="5.21388">
        <ele>980.68</ele>
        <time>2022-10-23T12:25:49Z</time>
      </trkpt>
      <trkpt lat="44.99937" lon="5.21372">
        <ele>977.32</ele>
        <time>2022-10-23T12:26:01Z</time>
      </trkpt>
      <trkpt lat="44.99935" lon="5.21357">
        <ele>973.95</ele>
        <time>2022-10-23T12:26:12Z</time>
      </trkpt>
      <trkpt lat="44.99933" lon="5.21351">
        <ele>972.03</ele>
        <time>2022-10-23T12:26:18Z</time>
      </trkpt>
      <trkpt lat="44.9993" lon="5.21336">
        <ele>968.67</ele>
        <time>2022-10-23T12:26:28Z</time>
      </trkpt>
      <trkpt lat="44.9993" lon="5.21334">
        <ele>967.7</ele>
        <time>2022-10-23T12:26:30Z</time>
      </trkpt>
      <trkpt lat="44.99928" lon="5.21324">
        <ele>965.3</ele>
        <time>2022-10-23T12:26:37Z</time>
      </trkpt>
      <trkpt lat="44.99925" lon="5.21311">
        <ele>961.46</ele>
        <time>2022-10-23T12:26:47Z</time>
      </trkpt>
      <trkpt lat="44.99924" lon="5.21306">
        <ele>960.49</ele>
        <time>2022-10-23T12:26:50Z</time>
      </trkpt>
      <trkpt lat="44.9993" lon="5.21288">
        <ele>957.13</ele>
        <time>2022-10-23T12:27:02Z</time>
      </trkpt>
      <trkpt lat="44.99928" lon="5.2126">
        <ele>956.17</ele>
        <time>2022-10-23T12:27:18Z</time>
      </trkpt>
      <trkpt lat="44.9993" lon="5.21234">
        <ele>955.69</ele>
        <time>2022-10-23T12:27:33Z</time>
      </trkpt>
      <trkpt lat="44.99938" lon="5.21212">
        <ele>955.69</ele>
        <time>2022-10-23T12:27:48Z</time>
      </trkpt>
      <trkpt lat="44.99944" lon="5.21191">
        <ele>954.73</ele>
        <time>2022-10-23T12:28:01Z</time>
      </trkpt>
      <trkpt lat="44.99952" lon="5.21165">
        <ele>951.36</ele>
        <time>2022-10-23T12:28:17Z</time>
      </trkpt>
      <trkpt lat="44.99953" lon="5.21142">
        <ele>948.48</ele>
        <time>2022-10-23T12:28:31Z</time>
      </trkpt>
      <trkpt lat="44.99954" lon="5.2112">
        <ele>945.11</ele>
        <time>2022-10-23T12:28:43Z</time>
      </trkpt>
      <trkpt lat="44.99949" lon="5.211">
        <ele>942.71</ele>
        <time>2022-10-23T12:28:56Z</time>
      </trkpt>
      <trkpt lat="44.99947" lon="5.21083">
        <ele>939.83</ele>
        <time>2022-10-23T12:29:07Z</time>
      </trkpt>
      <trkpt lat="44.99947" lon="5.21081">
        <ele>939.35</ele>
        <time>2022-10-23T12:29:08Z</time>
      </trkpt>
      <trkpt lat="44.99946" lon="5.21067">
        <ele>935.98</ele>
        <time>2022-10-23T12:29:18Z</time>
      </trkpt>
      <trkpt lat="44.99946" lon="5.21054">
        <ele>932.62</ele>
        <time>2022-10-23T12:29:27Z</time>
      </trkpt>
      <trkpt lat="44.99947" lon="5.21044">
        <ele>929.73</ele>
        <time>2022-10-23T12:29:36Z</time>
      </trkpt>
      <trkpt lat="44.99947" lon="5.21038">
        <ele>929.25</ele>
        <time>2022-10-23T12:29:51Z</time>
      </trkpt>
      <trkpt lat="44.99946" lon="5.21036">
        <ele>928.77</ele>
        <time>2022-10-23T12:30:18Z</time>
      </trkpt>
      <trkpt lat="44.99946" lon="5.21034">
        <ele>931.17</ele>
        <time>2022-10-23T12:34:15Z</time>
      </trkpt>
      <trkpt lat="44.99954" lon="5.21032">
        <ele>929.73</ele>
        <time>2022-10-23T12:34:28Z</time>
      </trkpt>
      <trkpt lat="44.99947" lon="5.21016">
        <ele>926.37</ele>
        <time>2022-10-23T12:34:39Z</time>
      </trkpt>
      <trkpt lat="44.99939" lon="5.20983">
        <ele>923</ele>
        <time>2022-10-23T12:34:56Z</time>
      </trkpt>
      <trkpt lat="44.99938" lon="5.20953">
        <ele>920.12</ele>
        <time>2022-10-23T12:35:11Z</time>
      </trkpt>
      <trkpt lat="44.99938" lon="5.20911">
        <ele>919.16</ele>
        <time>2022-10-23T12:35:32Z</time>
      </trkpt>
      <trkpt lat="44.99938" lon="5.20881">
        <ele>918.68</ele>
        <time>2022-10-23T12:35:49Z</time>
      </trkpt>
      <trkpt lat="44.99935" lon="5.20875">
        <ele>920.6</ele>
        <time>2022-10-23T12:36:00Z</time>
      </trkpt>
      <trkpt lat="44.99935" lon="5.20873">
        <ele>919.16</ele>
        <time>2022-10-23T12:36:04Z</time>
      </trkpt>
      <trkpt lat="44.99931" lon="5.2087">
        <ele>921.08</ele>
        <time>2022-10-23T12:36:08Z</time>
      </trkpt>
      <trkpt lat="44.99922" lon="5.20854">
        <ele>922.04</ele>
        <time>2022-10-23T12:36:21Z</time>
      </trkpt>
      <trkpt lat="44.99918" lon="5.2085">
        <ele>922.52</ele>
        <time>2022-10-23T12:36:26Z</time>
      </trkpt>
      <trkpt lat="44.99904" lon="5.20833">
        <ele>922.52</ele>
        <time>2022-10-23T12:36:43Z</time>
      </trkpt>
      <trkpt lat="44.999" lon="5.20828">
        <ele>923.96</ele>
        <time>2022-10-23T12:36:47Z</time>
      </trkpt>
      <trkpt lat="44.99894" lon="5.20823">
        <ele>925.89</ele>
        <time>2022-10-23T12:36:53Z</time>
      </trkpt>
      <trkpt lat="44.99882" lon="5.20812">
        <ele>927.33</ele>
        <time>2022-10-23T12:37:06Z</time>
      </trkpt>
      <trkpt lat="44.99876" lon="5.20806">
        <ele>930.21</ele>
        <time>2022-10-23T12:37:13Z</time>
      </trkpt>
      <trkpt lat="44.9986" lon="5.20799">
        <ele>933.1</ele>
        <time>2022-10-23T12:37:28Z</time>
      </trkpt>
      <trkpt lat="44.99846" lon="5.20795">
        <ele>933.58</ele>
        <time>2022-10-23T12:37:41Z</time>
      </trkpt>
      <trkpt lat="44.9984" lon="5.20785">
        <ele>934.54</ele>
        <time>2022-10-23T12:37:51Z</time>
      </trkpt>
      <trkpt lat="44.9984" lon="5.20783">
        <ele>934.54</ele>
        <time>2022-10-23T12:37:52Z</time>
      </trkpt>
      <trkpt lat="44.9984" lon="5.20779">
        <ele>933.1</ele>
        <time>2022-10-23T12:37:56Z</time>
      </trkpt>
      <trkpt lat="44.99841" lon="5.20774">
        <ele>935.02</ele>
        <time>2022-10-23T12:38:01Z</time>
      </trkpt>
      <trkpt lat="44.99844" lon="5.2077">
        <ele>939.83</ele>
        <time>2022-10-23T12:38:06Z</time>
      </trkpt>
      <trkpt lat="44.99844" lon="5.20769">
        <ele>939.83</ele>
        <time>2022-10-23T12:38:07Z</time>
      </trkpt>
      <trkpt lat="44.99845" lon="5.20767">
        <ele>935.98</ele>
        <time>2022-10-23T12:38:09Z</time>
      </trkpt>
      <trkpt lat="44.99845" lon="5.20767">
        <ele>935.98</ele>
        <time>2022-10-23T12:38:10Z</time>
      </trkpt>
      <trkpt lat="44.99845" lon="5.20765">
        <ele>937.42</ele>
        <time>2022-10-23T12:38:15Z</time>
      </trkpt>
      <trkpt lat="44.99847" lon="5.20764">
        <ele>938.86</ele>
        <time>2022-10-23T12:38:30Z</time>
      </trkpt>
      <trkpt lat="44.99848" lon="5.20762">
        <ele>940.31</ele>
        <time>2022-10-23T12:39:39Z</time>
      </trkpt>
      <trkpt lat="44.99849" lon="5.2076">
        <ele>938.38</ele>
        <time>2022-10-23T12:39:46Z</time>
      </trkpt>
      <trkpt lat="44.99854" lon="5.20754">
        <ele>938.38</ele>
        <time>2022-10-23T12:39:59Z</time>
      </trkpt>
      <trkpt lat="44.99858" lon="5.20749">
        <ele>935.02</ele>
        <time>2022-10-23T12:40:04Z</time>
      </trkpt>
      <trkpt lat="44.99864" lon="5.20738">
        <ele>932.62</ele>
        <time>2022-10-23T12:40:16Z</time>
      </trkpt>
      <trkpt lat="44.99873" lon="5.20719">
        <ele>928.77</ele>
        <time>2022-10-23T12:40:31Z</time>
      </trkpt>
      <trkpt lat="44.99876" lon="5.20712">
        <ele>927.81</ele>
        <time>2022-10-23T12:40:37Z</time>
      </trkpt>
      <trkpt lat="44.99879" lon="5.20699">
        <ele>924.45</ele>
        <time>2022-10-23T12:40:45Z</time>
      </trkpt>
      <trkpt lat="44.9988" lon="5.20697">
        <ele>924.45</ele>
        <time>2022-10-23T12:40:46Z</time>
      </trkpt>
      <trkpt lat="44.99884" lon="5.20686">
        <ele>921.08</ele>
        <time>2022-10-23T12:40:55Z</time>
      </trkpt>
      <trkpt lat="44.99885" lon="5.20668">
        <ele>917.72</ele>
        <time>2022-10-23T12:41:07Z</time>
      </trkpt>
      <trkpt lat="44.99889" lon="5.20657">
        <ele>914.35</ele>
        <time>2022-10-23T12:41:15Z</time>
      </trkpt>
      <trkpt lat="44.99892" lon="5.20648">
        <ele>910.99</ele>
        <time>2022-10-23T12:41:21Z</time>
      </trkpt>
      <trkpt lat="44.99892" lon="5.20647">
        <ele>910.99</ele>
        <time>2022-10-23T12:41:22Z</time>
      </trkpt>
      <trkpt lat="44.99896" lon="5.20634">
        <ele>911.47</ele>
        <time>2022-10-23T12:41:33Z</time>
      </trkpt>
      <trkpt lat="44.99896" lon="5.20629">
        <ele>912.43</ele>
        <time>2022-10-23T12:41:36Z</time>
      </trkpt>
      <trkpt lat="44.99901" lon="5.20616">
        <ele>910.99</ele>
        <time>2022-10-23T12:41:44Z</time>
      </trkpt>
      <trkpt lat="44.99908" lon="5.2059">
        <ele>907.62</ele>
        <time>2022-10-23T12:42:00Z</time>
      </trkpt>
      <trkpt lat="44.99914" lon="5.20576">
        <ele>904.74</ele>
        <time>2022-10-23T12:42:09Z</time>
      </trkpt>
      <trkpt lat="44.99921" lon="5.2055">
        <ele>902.82</ele>
        <time>2022-10-23T12:42:26Z</time>
      </trkpt>
      <trkpt lat="44.99925" lon="5.20531">
        <ele>899.93</ele>
        <time>2022-10-23T12:42:38Z</time>
      </trkpt>
      <trkpt lat="44.99926" lon="5.20527">
        <ele>898.97</ele>
        <time>2022-10-23T12:42:40Z</time>
      </trkpt>
      <trkpt lat="44.99927" lon="5.20505">
        <ele>895.61</ele>
        <time>2022-10-23T12:42:55Z</time>
      </trkpt>
      <trkpt lat="44.99924" lon="5.20483">
        <ele>893.2</ele>
        <time>2022-10-23T12:43:10Z</time>
      </trkpt>
      <trkpt lat="44.99924" lon="5.20478">
        <ele>891.28</ele>
        <time>2022-10-23T12:43:15Z</time>
      </trkpt>
      <trkpt lat="44.99925" lon="5.20465">
        <ele>888.4</ele>
        <time>2022-10-23T12:43:24Z</time>
      </trkpt>
      <trkpt lat="44.99923" lon="5.20459">
        <ele>886.95</ele>
        <time>2022-10-23T12:43:29Z</time>
      </trkpt>
      <trkpt lat="44.9992" lon="5.20453">
        <ele>885.51</ele>
        <time>2022-10-23T12:43:33Z</time>
      </trkpt>
      <trkpt lat="44.99918" lon="5.20444">
        <ele>883.11</ele>
        <time>2022-10-23T12:43:39Z</time>
      </trkpt>
      <trkpt lat="44.99912" lon="5.20427">
        <ele>883.11</ele>
        <time>2022-10-23T12:43:54Z</time>
      </trkpt>
      <trkpt lat="44.99912" lon="5.20427">
        <ele>883.11</ele>
        <time>2022-10-23T12:43:55Z</time>
      </trkpt>
      <trkpt lat="44.99909" lon="5.20424">
        <ele>880.71</ele>
        <time>2022-10-23T12:45:17Z</time>
      </trkpt>
      <trkpt lat="44.999" lon="5.20419">
        <ele>879.26</ele>
        <time>2022-10-23T12:45:31Z</time>
      </trkpt>
      <trkpt lat="44.99887" lon="5.20415">
        <ele>875.42</ele>
        <time>2022-10-23T12:45:46Z</time>
      </trkpt>
      <trkpt lat="44.99878" lon="5.20418">
        <ele>871.57</ele>
        <time>2022-10-23T12:46:00Z</time>
      </trkpt>
      <trkpt lat="44.99871" lon="5.20423">
        <ele>868.69</ele>
        <time>2022-10-23T12:46:08Z</time>
      </trkpt>
      <trkpt lat="44.99869" lon="5.20427">
        <ele>868.69</ele>
        <time>2022-10-23T12:46:13Z</time>
      </trkpt>
      <trkpt lat="44.99865" lon="5.20432">
        <ele>865.8</ele>
        <time>2022-10-23T12:46:18Z</time>
      </trkpt>
      <trkpt lat="44.99854" lon="5.2044">
        <ele>866.77</ele>
        <time>2022-10-23T12:46:28Z</time>
      </trkpt>
      <trkpt lat="44.99849" lon="5.20438">
        <ele>865.8</ele>
        <time>2022-10-23T12:46:34Z</time>
      </trkpt>
      <trkpt lat="44.99843" lon="5.20432">
        <ele>863.88</ele>
        <time>2022-10-23T12:46:40Z</time>
      </trkpt>
      <trkpt lat="44.99838" lon="5.20418">
        <ele>860.04</ele>
        <time>2022-10-23T12:46:49Z</time>
      </trkpt>
      <trkpt lat="44.99829" lon="5.20403">
        <ele>857.15</ele>
        <time>2022-10-23T12:47:02Z</time>
      </trkpt>
      <trkpt lat="44.99818" lon="5.20385">
        <ele>853.79</ele>
        <time>2022-10-23T12:47:17Z</time>
      </trkpt>
      <trkpt lat="44.99816" lon="5.20381">
        <ele>853.31</ele>
        <time>2022-10-23T12:47:20Z</time>
      </trkpt>
      <trkpt lat="44.99811" lon="5.20373">
        <ele>849.94</ele>
        <time>2022-10-23T12:47:27Z</time>
      </trkpt>
      <trkpt lat="44.99803" lon="5.2036">
        <ele>848.98</ele>
        <time>2022-10-23T12:47:39Z</time>
      </trkpt>
      <trkpt lat="44.99795" lon="5.20343">
        <ele>847.06</ele>
        <time>2022-10-23T12:47:54Z</time>
      </trkpt>
      <trkpt lat="44.99793" lon="5.20339">
        <ele>849.46</ele>
        <time>2022-10-23T12:48:15Z</time>
      </trkpt>
      <trkpt lat="44.99794" lon="5.20338">
        <ele>848.02</ele>
        <time>2022-10-23T12:48:18Z</time>
      </trkpt>
      <trkpt lat="44.9979" lon="5.20332">
        <ele>844.66</ele>
        <time>2022-10-23T12:48:28Z</time>
      </trkpt>
      <trkpt lat="44.99786" lon="5.20327">
        <ele>841.77</ele>
        <time>2022-10-23T12:48:43Z</time>
      </trkpt>
      <trkpt lat="44.99779" lon="5.20316">
        <ele>839.37</ele>
        <time>2022-10-23T12:48:55Z</time>
      </trkpt>
      <trkpt lat="44.99767" lon="5.20302">
        <ele>836</ele>
        <time>2022-10-23T12:49:11Z</time>
      </trkpt>
      <trkpt lat="44.99754" lon="5.20293">
        <ele>832.16</ele>
        <time>2022-10-23T12:49:26Z</time>
      </trkpt>
      <trkpt lat="44.99744" lon="5.2029">
        <ele>830.72</ele>
        <time>2022-10-23T12:49:35Z</time>
      </trkpt>
      <trkpt lat="44.99727" lon="5.20276">
        <ele>828.79</ele>
        <time>2022-10-23T12:49:52Z</time>
      </trkpt>
      <trkpt lat="44.99724" lon="5.20274">
        <ele>828.79</ele>
        <time>2022-10-23T12:49:54Z</time>
      </trkpt>
      <trkpt lat="44.99706" lon="5.20253">
        <ele>827.35</ele>
        <time>2022-10-23T12:50:10Z</time>
      </trkpt>
      <trkpt lat="44.99698" lon="5.20251">
        <ele>824.47</ele>
        <time>2022-10-23T12:50:19Z</time>
      </trkpt>
      <trkpt lat="44.99694" lon="5.20254">
        <ele>823.51</ele>
        <time>2022-10-23T12:50:32Z</time>
      </trkpt>
      <trkpt lat="44.99688" lon="5.20252">
        <ele>820.14</ele>
        <time>2022-10-23T12:50:49Z</time>
      </trkpt>
      <trkpt lat="44.99684" lon="5.20256">
        <ele>816.78</ele>
        <time>2022-10-23T12:51:01Z</time>
      </trkpt>
      <trkpt lat="44.99684" lon="5.20258">
        <ele>814.85</ele>
        <time>2022-10-23T12:51:04Z</time>
      </trkpt>
      <trkpt lat="44.99683" lon="5.2026">
        <ele>816.3</ele>
        <time>2022-10-23T12:51:07Z</time>
      </trkpt>
      <trkpt lat="44.99683" lon="5.2026">
        <ele>812.45</ele>
        <time>2022-10-23T12:51:09Z</time>
      </trkpt>
      <trkpt lat="44.99682" lon="5.20261">
        <ele>814.85</ele>
        <time>2022-10-23T12:51:11Z</time>
      </trkpt>
      <trkpt lat="44.99681" lon="5.20263">
        <ele>811.49</ele>
        <time>2022-10-23T12:51:14Z</time>
      </trkpt>
      <trkpt lat="44.99679" lon="5.20267">
        <ele>809.57</ele>
        <time>2022-10-23T12:51:20Z</time>
      </trkpt>
      <trkpt lat="44.99677" lon="5.2027">
        <ele>806.2</ele>
        <time>2022-10-23T12:51:26Z</time>
      </trkpt>
      <trkpt lat="44.99677" lon="5.20271">
        <ele>806.2</ele>
        <time>2022-10-23T12:51:27Z</time>
      </trkpt>
      <trkpt lat="44.99675" lon="5.20271">
        <ele>804.76</ele>
        <time>2022-10-23T12:51:30Z</time>
      </trkpt>
      <trkpt lat="44.99671" lon="5.20275">
        <ele>802.36</ele>
        <time>2022-10-23T12:51:43Z</time>
      </trkpt>
      <trkpt lat="44.99668" lon="5.20285">
        <ele>798.99</ele>
        <time>2022-10-23T12:51:59Z</time>
      </trkpt>
      <trkpt lat="44.99668" lon="5.20287">
        <ele>798.03</ele>
        <time>2022-10-23T12:52:01Z</time>
      </trkpt>
      <trkpt lat="44.99664" lon="5.20282">
        <ele>795.15</ele>
        <time>2022-10-23T12:52:14Z</time>
      </trkpt>
      <trkpt lat="44.99663" lon="5.20282">
        <ele>792.26</ele>
        <time>2022-10-23T12:52:26Z</time>
      </trkpt>
      <trkpt lat="44.9966" lon="5.20285">
        <ele>788.9</ele>
        <time>2022-10-23T12:52:43Z</time>
      </trkpt>
      <trkpt lat="44.99657" lon="5.20291">
        <ele>787.46</ele>
        <time>2022-10-23T12:52:55Z</time>
      </trkpt>
      <trkpt lat="44.99654" lon="5.20299">
        <ele>784.09</ele>
        <time>2022-10-23T12:53:07Z</time>
      </trkpt>
      <trkpt lat="44.99653" lon="5.20306">
        <ele>781.21</ele>
        <time>2022-10-23T12:53:19Z</time>
      </trkpt>
      <trkpt lat="44.99651" lon="5.20315">
        <ele>777.84</ele>
        <time>2022-10-23T12:53:32Z</time>
      </trkpt>
      <trkpt lat="44.99646" lon="5.20319">
        <ele>774.48</ele>
        <time>2022-10-23T12:53:40Z</time>
      </trkpt>
      <trkpt lat="44.99643" lon="5.20322">
        <ele>771.11</ele>
        <time>2022-10-23T12:53:49Z</time>
      </trkpt>
      <trkpt lat="44.99637" lon="5.20328">
        <ele>767.75</ele>
        <time>2022-10-23T12:54:04Z</time>
      </trkpt>
      <trkpt lat="44.99625" lon="5.20332">
        <ele>765.35</ele>
        <time>2022-10-23T12:54:17Z</time>
      </trkpt>
      <trkpt lat="44.99617" lon="5.20335">
        <ele>762.94</ele>
        <time>2022-10-23T12:54:30Z</time>
      </trkpt>
      <trkpt lat="44.99613" lon="5.20342">
        <ele>759.58</ele>
        <time>2022-10-23T12:54:41Z</time>
      </trkpt>
      <trkpt lat="44.9961" lon="5.20348">
        <ele>756.69</ele>
        <time>2022-10-23T12:54:54Z</time>
      </trkpt>
      <trkpt lat="44.99611" lon="5.20351">
        <ele>756.21</ele>
        <time>2022-10-23T12:55:12Z</time>
      </trkpt>
      <trkpt lat="44.99613" lon="5.20357">
        <ele>757.66</ele>
        <time>2022-10-23T12:55:35Z</time>
      </trkpt>
      <trkpt lat="44.99611" lon="5.20358">
        <ele>758.62</ele>
        <time>2022-10-23T12:56:02Z</time>
      </trkpt>
      <trkpt lat="44.99604" lon="5.20347">
        <ele>756.69</ele>
        <time>2022-10-23T12:56:15Z</time>
      </trkpt>
      <trkpt lat="44.99602" lon="5.20345">
        <ele>753.81</ele>
        <time>2022-10-23T12:56:23Z</time>
      </trkpt>
      <trkpt lat="44.99597" lon="5.2034">
        <ele>751.89</ele>
        <time>2022-10-23T12:56:36Z</time>
      </trkpt>
      <trkpt lat="44.99599" lon="5.20332">
        <ele>749.97</ele>
        <time>2022-10-23T12:56:46Z</time>
      </trkpt>
      <trkpt lat="44.99597" lon="5.20328">
        <ele>747.08</ele>
        <time>2022-10-23T12:56:53Z</time>
      </trkpt>
      <trkpt lat="44.99595" lon="5.2032">
        <ele>744.2</ele>
        <time>2022-10-23T12:57:06Z</time>
      </trkpt>
      <trkpt lat="44.99595" lon="5.20309">
        <ele>740.83</ele>
        <time>2022-10-23T12:57:15Z</time>
      </trkpt>
      <trkpt lat="44.99598" lon="5.20292">
        <ele>737.95</ele>
        <time>2022-10-23T12:57:31Z</time>
      </trkpt>
      <trkpt lat="44.99598" lon="5.2028">
        <ele>734.58</ele>
        <time>2022-10-23T12:57:40Z</time>
      </trkpt>
      <trkpt lat="44.99596" lon="5.20266">
        <ele>732.66</ele>
        <time>2022-10-23T12:57:53Z</time>
      </trkpt>
      <trkpt lat="44.99592" lon="5.20257">
        <ele>729.3</ele>
        <time>2022-10-23T12:58:07Z</time>
      </trkpt>
      <trkpt lat="44.99588" lon="5.20249">
        <ele>725.93</ele>
        <time>2022-10-23T12:58:19Z</time>
      </trkpt>
      <trkpt lat="44.99582" lon="5.2024">
        <ele>723.05</ele>
        <time>2022-10-23T12:58:36Z</time>
      </trkpt>
      <trkpt lat="44.99577" lon="5.20232">
        <ele>720.16</ele>
        <time>2022-10-23T12:58:48Z</time>
      </trkpt>
      <trkpt lat="44.99573" lon="5.20221">
        <ele>716.8</ele>
        <time>2022-10-23T12:58:59Z</time>
      </trkpt>
      <trkpt lat="44.99566" lon="5.20209">
        <ele>713.44</ele>
        <time>2022-10-23T12:59:10Z</time>
      </trkpt>
      <trkpt lat="44.99559" lon="5.20202">
        <ele>710.55</ele>
        <time>2022-10-23T12:59:20Z</time>
      </trkpt>
      <trkpt lat="44.99553" lon="5.20194">
        <ele>707.67</ele>
        <time>2022-10-23T12:59:33Z</time>
      </trkpt>
      <trkpt lat="44.99549" lon="5.20183">
        <ele>705.75</ele>
        <time>2022-10-23T12:59:48Z</time>
      </trkpt>
      <trkpt lat="44.99545" lon="5.20185">
        <ele>705.75</ele>
        <time>2022-10-23T13:00:08Z</time>
      </trkpt>
      <trkpt lat="44.99545" lon="5.20185">
        <ele>705.26</ele>
        <time>2022-10-23T13:00:27Z</time>
      </trkpt>
      <trkpt lat="44.99545" lon="5.20186">
        <ele>704.3</ele>
        <time>2022-10-23T13:00:59Z</time>
      </trkpt>
      <trkpt lat="44.99539" lon="5.20179">
        <ele>700.46</ele>
        <time>2022-10-23T13:01:13Z</time>
      </trkpt>
      <trkpt lat="44.99534" lon="5.20172">
        <ele>697.09</ele>
        <time>2022-10-23T13:01:21Z</time>
      </trkpt>
      <trkpt lat="44.99534" lon="5.20172">
        <ele>697.09</ele>
        <time>2022-10-23T13:01:22Z</time>
      </trkpt>
      <trkpt lat="44.99527" lon="5.20162">
        <ele>693.73</ele>
        <time>2022-10-23T13:01:34Z</time>
      </trkpt>
      <trkpt lat="44.9952" lon="5.20152">
        <ele>689.88</ele>
        <time>2022-10-23T13:01:44Z</time>
      </trkpt>
      <trkpt lat="44.99519" lon="5.20151">
        <ele>689.88</ele>
        <time>2022-10-23T13:01:45Z</time>
      </trkpt>
      <trkpt lat="44.99517" lon="5.2015">
        <ele>689.4</ele>
        <time>2022-10-23T13:01:47Z</time>
      </trkpt>
      <trkpt lat="44.99509" lon="5.20141">
        <ele>685.56</ele>
        <time>2022-10-23T13:01:56Z</time>
      </trkpt>
      <trkpt lat="44.99503" lon="5.20134">
        <ele>682.19</ele>
        <time>2022-10-23T13:02:04Z</time>
      </trkpt>
      <trkpt lat="44.99502" lon="5.20134">
        <ele>682.19</ele>
        <time>2022-10-23T13:02:05Z</time>
      </trkpt>
      <trkpt lat="44.99495" lon="5.20132">
        <ele>678.83</ele>
        <time>2022-10-23T13:02:13Z</time>
      </trkpt>
      <trkpt lat="44.99487" lon="5.20128">
        <ele>675.94</ele>
        <time>2022-10-23T13:02:22Z</time>
      </trkpt>
      <trkpt lat="44.99479" lon="5.20123">
        <ele>672.58</ele>
        <time>2022-10-23T13:02:30Z</time>
      </trkpt>
      <trkpt lat="44.99473" lon="5.2012">
        <ele>670.18</ele>
        <time>2022-10-23T13:02:38Z</time>
      </trkpt>
      <trkpt lat="44.99467" lon="5.20118">
        <ele>666.81</ele>
        <time>2022-10-23T13:02:48Z</time>
      </trkpt>
      <trkpt lat="44.99465" lon="5.2012">
        <ele>665.37</ele>
        <time>2022-10-23T13:02:51Z</time>
      </trkpt>
      <trkpt lat="44.99465" lon="5.20125">
        <ele>663.93</ele>
        <time>2022-10-23T13:02:54Z</time>
      </trkpt>
      <trkpt lat="44.99465" lon="5.20134">
        <ele>660.56</ele>
        <time>2022-10-23T13:03:00Z</time>
      </trkpt>
      <trkpt lat="44.99466" lon="5.20146">
        <ele>657.68</ele>
        <time>2022-10-23T13:03:13Z</time>
      </trkpt>
      <trkpt lat="44.99464" lon="5.20156">
        <ele>655.76</ele>
        <time>2022-10-23T13:03:31Z</time>
      </trkpt>
      <trkpt lat="44.99465" lon="5.20168">
        <ele>652.39</ele>
        <time>2022-10-23T13:03:42Z</time>
      </trkpt>
      <trkpt lat="44.99459" lon="5.2017">
        <ele>649.03</ele>
        <time>2022-10-23T13:03:51Z</time>
      </trkpt>
      <trkpt lat="44.99452" lon="5.20167">
        <ele>646.14</ele>
        <time>2022-10-23T13:04:03Z</time>
      </trkpt>
      <trkpt lat="44.99445" lon="5.20165">
        <ele>642.78</ele>
        <time>2022-10-23T13:04:11Z</time>
      </trkpt>
      <trkpt lat="44.99444" lon="5.20173">
        <ele>639.41</ele>
        <time>2022-10-23T13:04:22Z</time>
      </trkpt>
      <trkpt lat="44.99438" lon="5.20172">
        <ele>636.05</ele>
        <time>2022-10-23T13:04:32Z</time>
      </trkpt>
      <trkpt lat="44.99429" lon="5.2017">
        <ele>632.2</ele>
        <time>2022-10-23T13:04:43Z</time>
      </trkpt>
      <trkpt lat="44.9942" lon="5.20164">
        <ele>628.84</ele>
        <time>2022-10-23T13:04:56Z</time>
      </trkpt>
      <trkpt lat="44.99412" lon="5.20158">
        <ele>625.47</ele>
        <time>2022-10-23T13:05:09Z</time>
      </trkpt>
      <trkpt lat="44.99411" lon="5.20158">
        <ele>624.51</ele>
        <time>2022-10-23T13:05:10Z</time>
      </trkpt>
      <trkpt lat="44.99401" lon="5.20149">
        <ele>621.63</ele>
        <time>2022-10-23T13:05:22Z</time>
      </trkpt>
      <trkpt lat="44.99396" lon="5.20144">
        <ele>618.26</ele>
        <time>2022-10-23T13:05:28Z</time>
      </trkpt>
      <trkpt lat="44.9939" lon="5.2014">
        <ele>614.9</ele>
        <time>2022-10-23T13:05:37Z</time>
      </trkpt>
      <trkpt lat="44.99385" lon="5.20138">
        <ele>612.98</ele>
        <time>2022-10-23T13:05:43Z</time>
      </trkpt>
      <trkpt lat="44.99382" lon="5.20132">
        <ele>610.09</ele>
        <time>2022-10-23T13:05:50Z</time>
      </trkpt>
      <trkpt lat="44.99378" lon="5.20134">
        <ele>606.73</ele>
        <time>2022-10-23T13:05:57Z</time>
      </trkpt>
      <trkpt lat="44.99376" lon="5.20141">
        <ele>603.36</ele>
        <time>2022-10-23T13:06:08Z</time>
      </trkpt>
      <trkpt lat="44.99374" lon="5.20157">
        <ele>600.96</ele>
        <time>2022-10-23T13:06:20Z</time>
      </trkpt>
      <trkpt lat="44.99374" lon="5.20162">
        <ele>600</ele>
        <time>2022-10-23T13:06:23Z</time>
      </trkpt>
      <trkpt lat="44.9937" lon="5.20177">
        <ele>596.15</ele>
        <time>2022-10-23T13:06:35Z</time>
      </trkpt>
      <trkpt lat="44.99366" lon="5.2019">
        <ele>592.79</ele>
        <time>2022-10-23T13:06:46Z</time>
      </trkpt>
      <trkpt lat="44.99365" lon="5.20205">
        <ele>589.43</ele>
        <time>2022-10-23T13:06:58Z</time>
      </trkpt>
      <trkpt lat="44.99363" lon="5.2022">
        <ele>586.06</ele>
        <time>2022-10-23T13:07:08Z</time>
      </trkpt>
      <trkpt lat="44.99358" lon="5.20228">
        <ele>583.18</ele>
        <time>2022-10-23T13:07:18Z</time>
      </trkpt>
      <trkpt lat="44.99355" lon="5.20225">
        <ele>580.77</ele>
        <time>2022-10-23T13:07:32Z</time>
      </trkpt>
      <trkpt lat="44.99352" lon="5.20223">
        <ele>580.29</ele>
        <time>2022-10-23T13:07:47Z</time>
      </trkpt>
      <trkpt lat="44.99351" lon="5.20222">
        <ele>579.81</ele>
        <time>2022-10-23T13:08:10Z</time>
      </trkpt>
      <trkpt lat="44.99351" lon="5.2022">
        <ele>582.22</ele>
        <time>2022-10-23T13:09:07Z</time>
      </trkpt>
      <trkpt lat="44.99351" lon="5.20218">
        <ele>581.25</ele>
        <time>2022-10-23T13:09:59Z</time>
      </trkpt>
      <trkpt lat="44.9935" lon="5.20217">
        <ele>581.25</ele>
        <time>2022-10-23T13:10:20Z</time>
      </trkpt>
      <trkpt lat="44.99349" lon="5.20216">
        <ele>581.25</ele>
        <time>2022-10-23T13:10:21Z</time>
      </trkpt>
      <trkpt lat="44.99348" lon="5.20207">
        <ele>581.25</ele>
        <time>2022-10-23T13:10:27Z</time>
      </trkpt>
      <trkpt lat="44.99344" lon="5.20201">
        <ele>580.77</ele>
        <time>2022-10-23T13:10:33Z</time>
      </trkpt>
      <trkpt lat="44.99339" lon="5.20196">
        <ele>579.33</ele>
        <time>2022-10-23T13:10:39Z</time>
      </trkpt>
      <trkpt lat="44.99337" lon="5.20193">
        <ele>577.89</ele>
        <time>2022-10-23T13:10:41Z</time>
      </trkpt>
      <trkpt lat="44.99335" lon="5.20186">
        <ele>576.93</ele>
        <time>2022-10-23T13:10:45Z</time>
      </trkpt>
      <trkpt lat="44.99327" lon="5.20174">
        <ele>574.04</ele>
        <time>2022-10-23T13:10:54Z</time>
      </trkpt>
      <trkpt lat="44.99323" lon="5.20164">
        <ele>574.04</ele>
        <time>2022-10-23T13:11:02Z</time>
      </trkpt>
      <trkpt lat="44.9931" lon="5.20154">
        <ele>570.2</ele>
        <time>2022-10-23T13:11:17Z</time>
      </trkpt>
      <trkpt lat="44.99303" lon="5.20148">
        <ele>566.83</ele>
        <time>2022-10-23T13:11:33Z</time>
      </trkpt>
      <trkpt lat="44.99294" lon="5.20136">
        <ele>563.47</ele>
        <time>2022-10-23T13:11:44Z</time>
      </trkpt>
      <trkpt lat="44.9929" lon="5.2013">
        <ele>562.03</ele>
        <time>2022-10-23T13:11:49Z</time>
      </trkpt>
      <trkpt lat="44.9928" lon="5.20126">
        <ele>558.66</ele>
        <time>2022-10-23T13:12:01Z</time>
      </trkpt>
      <trkpt lat="44.99279" lon="5.20126">
        <ele>558.18</ele>
        <time>2022-10-23T13:12:02Z</time>
      </trkpt>
      <trkpt lat="44.99272" lon="5.20127">
        <ele>554.34</ele>
        <time>2022-10-23T13:12:15Z</time>
      </trkpt>
      <trkpt lat="44.99271" lon="5.20135">
        <ele>550.97</ele>
        <time>2022-10-23T13:12:27Z</time>
      </trkpt>
      <trkpt lat="44.99267" lon="5.20133">
        <ele>549.53</ele>
        <time>2022-10-23T13:12:32Z</time>
      </trkpt>
      <trkpt lat="44.99249" lon="5.20121">
        <ele>546.65</ele>
        <time>2022-10-23T13:12:51Z</time>
      </trkpt>
      <trkpt lat="44.99245" lon="5.20121">
        <ele>543.76</ele>
        <time>2022-10-23T13:13:03Z</time>
      </trkpt>
      <trkpt lat="44.99244" lon="5.20123">
        <ele>543.28</ele>
        <time>2022-10-23T13:13:15Z</time>
      </trkpt>
      <trkpt lat="44.99243" lon="5.20125">
        <ele>542.8</ele>
        <time>2022-10-23T13:13:19Z</time>
      </trkpt>
      <trkpt lat="44.9924" lon="5.20124">
        <ele>541.36</ele>
        <time>2022-10-23T13:13:34Z</time>
      </trkpt>
      <trkpt lat="44.99239" lon="5.20123">
        <ele>541.36</ele>
        <time>2022-10-23T13:14:35Z</time>
      </trkpt>
      <trkpt lat="44.99237" lon="5.20116">
        <ele>541.36</ele>
        <time>2022-10-23T13:14:53Z</time>
      </trkpt>
      <trkpt lat="44.99234" lon="5.20109">
        <ele>541.84</ele>
        <time>2022-10-23T13:15:09Z</time>
      </trkpt>
      <trkpt lat="44.99232" lon="5.20105">
        <ele>541.84</ele>
        <time>2022-10-23T13:15:13Z</time>
      </trkpt>
      <trkpt lat="44.99229" lon="5.20097">
        <ele>540.4</ele>
        <time>2022-10-23T13:15:19Z</time>
      </trkpt>
      <trkpt lat="44.99224" lon="5.2008">
        <ele>538.96</ele>
        <time>2022-10-23T13:15:32Z</time>
      </trkpt>
      <trkpt lat="44.99218" lon="5.20051">
        <ele>536.55</ele>
        <time>2022-10-23T13:15:51Z</time>
      </trkpt>
      <trkpt lat="44.99212" lon="5.20029">
        <ele>533.19</ele>
        <time>2022-10-23T13:16:05Z</time>
      </trkpt>
      <trkpt lat="44.99198" lon="5.20003">
        <ele>531.75</ele>
        <time>2022-10-23T13:16:25Z</time>
      </trkpt>
      <trkpt lat="44.99191" lon="5.19991">
        <ele>528.86</ele>
        <time>2022-10-23T13:16:35Z</time>
      </trkpt>
      <trkpt lat="44.9919" lon="5.1999">
        <ele>528.38</ele>
        <time>2022-10-23T13:16:36Z</time>
      </trkpt>
      <trkpt lat="44.99183" lon="5.19978">
        <ele>526.94</ele>
        <time>2022-10-23T13:16:46Z</time>
      </trkpt>
      <trkpt lat="44.9917" lon="5.19953">
        <ele>523.58</ele>
        <time>2022-10-23T13:17:03Z</time>
      </trkpt>
      <trkpt lat="44.99163" lon="5.19935">
        <ele>520.21</ele>
        <time>2022-10-23T13:17:15Z</time>
      </trkpt>
      <trkpt lat="44.99162" lon="5.19922">
        <ele>518.77</ele>
        <time>2022-10-23T13:17:24Z</time>
      </trkpt>
      <trkpt lat="44.99161" lon="5.199">
        <ele>514.92</ele>
        <time>2022-10-23T13:17:38Z</time>
      </trkpt>
      <trkpt lat="44.99164" lon="5.19887">
        <ele>512.04</ele>
        <time>2022-10-23T13:17:53Z</time>
      </trkpt>
      <trkpt lat="44.99165" lon="5.19884">
        <ele>510.12</ele>
        <time>2022-10-23T13:18:05Z</time>
      </trkpt>
    </trkseg>
  </trk>
</gpx>